<?xml version="1.0" encoding="UTF-8"?>
<gpx version="1.1" creator="RouteBuddy" xmlns:xsi="http://www.w3.org/2001/XMLSchema-instance" xmlns="http://www.topografix.com/GPX/1/1" xsi:schemaLocation="http://www.topografix.com/GPX/1/1 http://www.topografix.com/GPX/1/1/gpx.xsd">
    <trk>
        <name><![CDATA[Langsett to Howden Edge]]></name>
        <desc><![CDATA[ 25 MAY 2015 09:11]]></desc>
        <trkseg>
        <trkpt lat="53.50023678" lon="-1.68346452"><ele>264.01998901</ele><time>2015-05-25T08:11:02.000Z</time></trkpt>
        <trkpt lat="53.50023670" lon="-1.68345856"><ele>264.01998901</ele><time>2015-05-25T08:11:20.000Z</time></trkpt>
        <trkpt lat="53.50023653" lon="-1.68345463"><ele>264.01998901</ele><time>2015-05-25T08:11:45.000Z</time></trkpt>
        <trkpt lat="53.50022002" lon="-1.68346728"><ele>263.54000854</ele><time>2015-05-25T08:12:13.000Z</time></trkpt>
        <trkpt lat="53.50022036" lon="-1.68346368"><ele>263.54000854</ele><time>2015-05-25T08:12:40.000Z</time></trkpt>
        <trkpt lat="53.50021885" lon="-1.68346209"><ele>264.01998901</ele><time>2015-05-25T08:12:57.000Z</time></trkpt>
        <trkpt lat="53.50021357" lon="-1.68347499"><ele>264.01998901</ele><time>2015-05-25T08:13:23.000Z</time></trkpt>
        <trkpt lat="53.50022011" lon="-1.68344641"><ele>264.98001099</ele><time>2015-05-25T08:13:50.000Z</time></trkpt>
        <trkpt lat="53.50022924" lon="-1.68343476"><ele>265.45999146</ele><time>2015-05-25T08:14:08.000Z</time></trkpt>
        <trkpt lat="53.50022874" lon="-1.68343149"><ele>265.94000244</ele><time>2015-05-25T08:14:16.000Z</time></trkpt>
        <trkpt lat="53.50013235" lon="-1.68352612"><ele>272.67001343</ele><time>2015-05-25T08:14:31.000Z</time></trkpt>
        <trkpt lat="53.50008960" lon="-1.68362578"><ele>276.51998901</ele><time>2015-05-25T08:14:42.000Z</time></trkpt>
        <trkpt lat="53.50008633" lon="-1.68363945"><ele>276.51998901</ele><time>2015-05-25T08:14:43.000Z</time></trkpt>
        <trkpt lat="53.50008239" lon="-1.68367138"><ele>277.00000000</ele><time>2015-05-25T08:14:45.000Z</time></trkpt>
        <trkpt lat="53.50004266" lon="-1.68380113"><ele>278.44000244</ele><time>2015-05-25T08:14:57.000Z</time></trkpt>
        <trkpt lat="53.49996404" lon="-1.68386358"><ele>285.17001343</ele><time>2015-05-25T08:15:11.000Z</time></trkpt>
        <trkpt lat="53.49988089" lon="-1.68394220"><ele>289.01000977</ele><time>2015-05-25T08:15:23.000Z</time></trkpt>
        <trkpt lat="53.49985683" lon="-1.68395787"><ele>288.04998779</ele><time>2015-05-25T08:15:47.000Z</time></trkpt>
        <trkpt lat="53.49980813" lon="-1.68399274"><ele>288.52999878</ele><time>2015-05-25T08:15:59.000Z</time></trkpt>
        <trkpt lat="53.49976866" lon="-1.68403356"><ele>289.97000122</ele><time>2015-05-25T08:16:03.000Z</time></trkpt>
        <trkpt lat="53.49968500" lon="-1.68423314"><ele>291.89999390</ele><time>2015-05-25T08:16:17.000Z</time></trkpt>
        <trkpt lat="53.49964410" lon="-1.68426993"><ele>289.48999023</ele><time>2015-05-25T08:16:37.000Z</time></trkpt>
        <trkpt lat="53.49961577" lon="-1.68431511"><ele>289.01000977</ele><time>2015-05-25T08:16:44.000Z</time></trkpt>
        <trkpt lat="53.49957487" lon="-1.68443254"><ele>290.45999146</ele><time>2015-05-25T08:16:53.000Z</time></trkpt>
        <trkpt lat="53.49941762" lon="-1.68458995"><ele>292.85998535</ele><time>2015-05-25T08:17:05.000Z</time></trkpt>
        <trkpt lat="53.49927555" lon="-1.68471971"><ele>295.73999023</ele><time>2015-05-25T08:17:16.000Z</time></trkpt>
        <trkpt lat="53.49911721" lon="-1.68486714"><ele>300.54998779</ele><time>2015-05-25T08:17:29.000Z</time></trkpt>
        <trkpt lat="53.49900431" lon="-1.68494023"><ele>310.16000366</ele><time>2015-05-25T08:17:41.000Z</time></trkpt>
        <trkpt lat="53.49897749" lon="-1.68501768"><ele>311.11999512</ele><time>2015-05-25T08:17:56.000Z</time></trkpt>
        <trkpt lat="53.49892435" lon="-1.68508910"><ele>309.67999268</ele><time>2015-05-25T08:18:16.000Z</time></trkpt>
        <trkpt lat="53.49884799" lon="-1.68523402"><ele>320.26000977</ele><time>2015-05-25T08:18:30.000Z</time></trkpt>
        <trkpt lat="53.49884078" lon="-1.68526461"><ele>323.61999512</ele><time>2015-05-25T08:18:34.000Z</time></trkpt>
        <trkpt lat="53.49876937" lon="-1.68543292"><ele>324.10000610</ele><time>2015-05-25T08:18:48.000Z</time></trkpt>
        <trkpt lat="53.49870273" lon="-1.68567172"><ele>324.57998657</ele><time>2015-05-25T08:19:02.000Z</time></trkpt>
        <trkpt lat="53.49869812" lon="-1.68568865"><ele>324.57998657</ele><time>2015-05-25T08:19:03.000Z</time></trkpt>
        <trkpt lat="53.49868211" lon="-1.68595176"><ele>325.05999756</ele><time>2015-05-25T08:19:15.000Z</time></trkpt>
        <trkpt lat="53.49857910" lon="-1.68616282"><ele>325.54000854</ele><time>2015-05-25T08:19:28.000Z</time></trkpt>
        <trkpt lat="53.49855864" lon="-1.68622518"><ele>325.54000854</ele><time>2015-05-25T08:19:32.000Z</time></trkpt>
        <trkpt lat="53.49853610" lon="-1.68649918"><ele>325.54000854</ele><time>2015-05-25T08:19:45.000Z</time></trkpt>
        <trkpt lat="53.49853526" lon="-1.68662106"><ele>325.54000854</ele><time>2015-05-25T08:19:51.000Z</time></trkpt>
        <trkpt lat="53.49853911" lon="-1.68678861"><ele>326.01998901</ele><time>2015-05-25T08:20:01.000Z</time></trkpt>
        <trkpt lat="53.49850022" lon="-1.68685290"><ele>326.01998901</ele><time>2015-05-25T08:20:07.000Z</time></trkpt>
        <trkpt lat="53.49850735" lon="-1.68699087"><ele>326.50000000</ele><time>2015-05-25T08:20:12.000Z</time></trkpt>
        <trkpt lat="53.49846594" lon="-1.68734157"><ele>324.57998657</ele><time>2015-05-25T08:20:26.000Z</time></trkpt>
        <trkpt lat="53.49845504" lon="-1.68736822"><ele>324.57998657</ele><time>2015-05-25T08:20:27.000Z</time></trkpt>
        <trkpt lat="53.49845605" lon="-1.68745833"><ele>324.10000610</ele><time>2015-05-25T08:20:30.000Z</time></trkpt>
        <trkpt lat="53.49839821" lon="-1.68774566"><ele>323.61999512</ele><time>2015-05-25T08:20:44.000Z</time></trkpt>
        <trkpt lat="53.49842244" lon="-1.68799938"><ele>324.57998657</ele><time>2015-05-25T08:20:55.000Z</time></trkpt>
        <trkpt lat="53.49844532" lon="-1.68815796"><ele>324.10000610</ele><time>2015-05-25T08:21:05.000Z</time></trkpt>
        <trkpt lat="53.49848731" lon="-1.68840732"><ele>326.01998901</ele><time>2015-05-25T08:21:17.000Z</time></trkpt>
        <trkpt lat="53.49845136" lon="-1.68843666"><ele>326.01998901</ele><time>2015-05-25T08:21:18.000Z</time></trkpt>
        <trkpt lat="53.49837164" lon="-1.68855024"><ele>325.54000854</ele><time>2015-05-25T08:21:21.000Z</time></trkpt>
        <trkpt lat="53.49835882" lon="-1.68869608"><ele>325.05999756</ele><time>2015-05-25T08:21:27.000Z</time></trkpt>
        <trkpt lat="53.49832353" lon="-1.68885777"><ele>325.05999756</ele><time>2015-05-25T08:21:32.000Z</time></trkpt>
        <trkpt lat="53.49827022" lon="-1.68912691"><ele>324.10000610</ele><time>2015-05-25T08:21:42.000Z</time></trkpt>
        <trkpt lat="53.49816143" lon="-1.68927946"><ele>323.14001465</ele><time>2015-05-25T08:21:47.000Z</time></trkpt>
        <trkpt lat="53.49815900" lon="-1.68950485"><ele>325.05999756</ele><time>2015-05-25T08:21:58.000Z</time></trkpt>
        <trkpt lat="53.49816646" lon="-1.68964131"><ele>326.01998901</ele><time>2015-05-25T08:22:06.000Z</time></trkpt>
        <trkpt lat="53.49818372" lon="-1.68974265"><ele>326.98999023</ele><time>2015-05-25T08:22:14.000Z</time></trkpt>
        <trkpt lat="53.49824265" lon="-1.68999167"><ele>331.79000854</ele><time>2015-05-25T08:22:26.000Z</time></trkpt>
        <trkpt lat="53.49827995" lon="-1.69017280"><ele>338.04000854</ele><time>2015-05-25T08:22:37.000Z</time></trkpt>
        <trkpt lat="53.49833502" lon="-1.69037774"><ele>342.85000610</ele><time>2015-05-25T08:22:49.000Z</time></trkpt>
        <trkpt lat="53.49838656" lon="-1.69050406"><ele>344.76998901</ele><time>2015-05-25T08:23:01.000Z</time></trkpt>
        <trkpt lat="53.49845010" lon="-1.69073464"><ele>347.64999390</ele><time>2015-05-25T08:23:12.000Z</time></trkpt>
        <trkpt lat="53.49839905" lon="-1.69092349"><ele>355.33999634</ele><time>2015-05-25T08:23:26.000Z</time></trkpt>
        <trkpt lat="53.49841909" lon="-1.69104444"><ele>358.70999146</ele><time>2015-05-25T08:23:34.000Z</time></trkpt>
        <trkpt lat="53.49843954" lon="-1.69114854"><ele>359.67001343</ele><time>2015-05-25T08:23:39.000Z</time></trkpt>
        <trkpt lat="53.49848832" lon="-1.69123462"><ele>360.14999390</ele><time>2015-05-25T08:23:43.000Z</time></trkpt>
        <trkpt lat="53.49850106" lon="-1.69150016"><ele>361.58999634</ele><time>2015-05-25T08:23:57.000Z</time></trkpt>
        <trkpt lat="53.49850634" lon="-1.69161960"><ele>362.54998779</ele><time>2015-05-25T08:24:07.000Z</time></trkpt>
        <trkpt lat="53.49853903" lon="-1.69183837"><ele>365.44000244</ele><time>2015-05-25T08:24:18.000Z</time></trkpt>
        <trkpt lat="53.49853828" lon="-1.69200350"><ele>366.39999390</ele><time>2015-05-25T08:24:26.000Z</time></trkpt>
        <trkpt lat="53.49852931" lon="-1.69210031"><ele>366.88000488</ele><time>2015-05-25T08:24:38.000Z</time></trkpt>
        <trkpt lat="53.49856669" lon="-1.69232343"><ele>370.73001099</ele><time>2015-05-25T08:24:50.000Z</time></trkpt>
        <trkpt lat="53.49863291" lon="-1.69256005"><ele>373.60998535</ele><time>2015-05-25T08:25:03.000Z</time></trkpt>
        <trkpt lat="53.49863769" lon="-1.69265511"><ele>374.08999634</ele><time>2015-05-25T08:25:08.000Z</time></trkpt>
        <trkpt lat="53.49872125" lon="-1.69294445"><ele>375.04998779</ele><time>2015-05-25T08:25:22.000Z</time></trkpt>
        <trkpt lat="53.49877096" lon="-1.69310261"><ele>375.52999878</ele><time>2015-05-25T08:25:34.000Z</time></trkpt>
        <trkpt lat="53.49885193" lon="-1.69334519"><ele>377.45001221</ele><time>2015-05-25T08:25:46.000Z</time></trkpt>
        <trkpt lat="53.49886333" lon="-1.69349455"><ele>377.94000244</ele><time>2015-05-25T08:25:56.000Z</time></trkpt>
        <trkpt lat="53.49891513" lon="-1.69368206"><ele>379.85998535</ele><time>2015-05-25T08:26:06.000Z</time></trkpt>
        <trkpt lat="53.49897715" lon="-1.69389437"><ele>381.77999878</ele><time>2015-05-25T08:26:17.000Z</time></trkpt>
        <trkpt lat="53.49898302" lon="-1.69391583"><ele>382.26000977</ele><time>2015-05-25T08:26:18.000Z</time></trkpt>
        <trkpt lat="53.49902049" lon="-1.69409051"><ele>383.70001221</ele><time>2015-05-25T08:26:29.000Z</time></trkpt>
        <trkpt lat="53.49905988" lon="-1.69422939"><ele>384.66000366</ele><time>2015-05-25T08:26:34.000Z</time></trkpt>
        <trkpt lat="53.49911135" lon="-1.69449250"><ele>385.63000488</ele><time>2015-05-25T08:26:47.000Z</time></trkpt>
        <trkpt lat="53.49915141" lon="-1.69467028"><ele>385.63000488</ele><time>2015-05-25T08:26:57.000Z</time></trkpt>
        <trkpt lat="53.49921453" lon="-1.69488184"><ele>385.63000488</ele><time>2015-05-25T08:27:11.000Z</time></trkpt>
        <trkpt lat="53.49926976" lon="-1.69498242"><ele>387.07000732</ele><time>2015-05-25T08:27:16.000Z</time></trkpt>
        <trkpt lat="53.49939147" lon="-1.69518837"><ele>388.02999878</ele><time>2015-05-25T08:27:30.000Z</time></trkpt>
        <trkpt lat="53.49948484" lon="-1.69532424"><ele>387.07000732</ele><time>2015-05-25T08:27:39.000Z</time></trkpt>
        <trkpt lat="53.49949272" lon="-1.69534335"><ele>387.07000732</ele><time>2015-05-25T08:27:40.000Z</time></trkpt>
        <trkpt lat="53.49950052" lon="-1.69538216"><ele>387.07000732</ele><time>2015-05-25T08:27:42.000Z</time></trkpt>
        <trkpt lat="53.49950815" lon="-1.69541761"><ele>387.07000732</ele><time>2015-05-25T08:27:44.000Z</time></trkpt>
        <trkpt lat="53.49967126" lon="-1.69567544"><ele>388.02999878</ele><time>2015-05-25T08:27:58.000Z</time></trkpt>
        <trkpt lat="53.49981467" lon="-1.69583922"><ele>387.07000732</ele><time>2015-05-25T08:28:11.000Z</time></trkpt>
        <trkpt lat="53.49983647" lon="-1.69586571"><ele>386.58999634</ele><time>2015-05-25T08:28:14.000Z</time></trkpt>
        <trkpt lat="53.49985993" lon="-1.69592748"><ele>386.58999634</ele><time>2015-05-25T08:28:17.000Z</time></trkpt>
        <trkpt lat="53.49997418" lon="-1.69612027"><ele>386.58999634</ele><time>2015-05-25T08:28:29.000Z</time></trkpt>
        <trkpt lat="53.49999371" lon="-1.69613971"><ele>386.58999634</ele><time>2015-05-25T08:28:31.000Z</time></trkpt>
        <trkpt lat="53.50008625" lon="-1.69629553"><ele>386.58999634</ele><time>2015-05-25T08:28:42.000Z</time></trkpt>
        <trkpt lat="53.50009236" lon="-1.69633317"><ele>386.58999634</ele><time>2015-05-25T08:28:45.000Z</time></trkpt>
        <trkpt lat="53.50015028" lon="-1.69644758"><ele>387.54998779</ele><time>2015-05-25T08:28:51.000Z</time></trkpt>
        <trkpt lat="53.50016210" lon="-1.69658261"><ele>388.02999878</ele><time>2015-05-25T08:29:00.000Z</time></trkpt>
        <trkpt lat="53.50027283" lon="-1.69677347"><ele>389.47000122</ele><time>2015-05-25T08:29:13.000Z</time></trkpt>
        <trkpt lat="53.50030711" lon="-1.69686567"><ele>390.42999268</ele><time>2015-05-25T08:29:20.000Z</time></trkpt>
        <trkpt lat="53.50037408" lon="-1.69700489"><ele>390.42999268</ele><time>2015-05-25T08:29:29.000Z</time></trkpt>
        <trkpt lat="53.50050325" lon="-1.69724135"><ele>390.91000366</ele><time>2015-05-25T08:29:42.000Z</time></trkpt>
        <trkpt lat="53.50062721" lon="-1.69747822"><ele>390.42999268</ele><time>2015-05-25T08:29:56.000Z</time></trkpt>
        <trkpt lat="53.50069050" lon="-1.69757579"><ele>390.91000366</ele><time>2015-05-25T08:30:04.000Z</time></trkpt>
        <trkpt lat="53.50080776" lon="-1.69780771"><ele>391.39001465</ele><time>2015-05-25T08:30:17.000Z</time></trkpt>
        <trkpt lat="53.50089937" lon="-1.69793721"><ele>391.86999512</ele><time>2015-05-25T08:30:28.000Z</time></trkpt>
        <trkpt lat="53.50101622" lon="-1.69810443"><ele>392.83999634</ele><time>2015-05-25T08:30:41.000Z</time></trkpt>
        <trkpt lat="53.50111043" lon="-1.69826243"><ele>392.35998535</ele><time>2015-05-25T08:30:54.000Z</time></trkpt>
        <trkpt lat="53.50117774" lon="-1.69848438"><ele>393.32000732</ele><time>2015-05-25T08:31:07.000Z</time></trkpt>
        <trkpt lat="53.50127296" lon="-1.69868790"><ele>393.32000732</ele><time>2015-05-25T08:31:18.000Z</time></trkpt>
        <trkpt lat="53.50132937" lon="-1.69888018"><ele>393.79998779</ele><time>2015-05-25T08:31:28.000Z</time></trkpt>
        <trkpt lat="53.50134898" lon="-1.69909165"><ele>394.76000977</ele><time>2015-05-25T08:31:40.000Z</time></trkpt>
        <trkpt lat="53.50140824" lon="-1.69926859"><ele>394.76000977</ele><time>2015-05-25T08:31:53.000Z</time></trkpt>
        <trkpt lat="53.50147764" lon="-1.69940145"><ele>394.76000977</ele><time>2015-05-25T08:32:04.000Z</time></trkpt>
        <trkpt lat="53.50152517" lon="-1.69951301"><ele>398.60000610</ele><time>2015-05-25T08:32:14.000Z</time></trkpt>
        <trkpt lat="53.50154512" lon="-1.69966405"><ele>402.92999268</ele><time>2015-05-25T08:32:26.000Z</time></trkpt>
        <trkpt lat="53.50154763" lon="-1.69970688"><ele>403.41000366</ele><time>2015-05-25T08:32:30.000Z</time></trkpt>
        <trkpt lat="53.50159884" lon="-1.69987695"><ele>405.32998657</ele><time>2015-05-25T08:32:39.000Z</time></trkpt>
        <trkpt lat="53.50169029" lon="-1.70036604"><ele>406.76998901</ele><time>2015-05-25T08:32:56.000Z</time></trkpt>
        <trkpt lat="53.50170999" lon="-1.70044005"><ele>406.76998901</ele><time>2015-05-25T08:33:05.000Z</time></trkpt>
        <trkpt lat="53.50172834" lon="-1.70047048"><ele>404.36999512</ele><time>2015-05-25T08:33:08.000Z</time></trkpt>
        <trkpt lat="53.50184645" lon="-1.70074901"><ele>390.91000366</ele><time>2015-05-25T08:33:19.000Z</time></trkpt>
        <trkpt lat="53.50185181" lon="-1.70085026"><ele>388.98999023</ele><time>2015-05-25T08:33:23.000Z</time></trkpt>
        <trkpt lat="53.50185265" lon="-1.70093114"><ele>386.10998535</ele><time>2015-05-25T08:33:27.000Z</time></trkpt>
        <trkpt lat="53.50186832" lon="-1.70116114"><ele>381.29998779</ele><time>2015-05-25T08:33:36.000Z</time></trkpt>
        <trkpt lat="53.50188944" lon="-1.70143649"><ele>377.45001221</ele><time>2015-05-25T08:33:48.000Z</time></trkpt>
        <trkpt lat="53.50189405" lon="-1.70153271"><ele>377.45001221</ele><time>2015-05-25T08:33:52.000Z</time></trkpt>
        <trkpt lat="53.50190571" lon="-1.70177269"><ele>372.64999390</ele><time>2015-05-25T08:34:05.000Z</time></trkpt>
        <trkpt lat="53.50192591" lon="-1.70189356"><ele>369.76000977</ele><time>2015-05-25T08:34:11.000Z</time></trkpt>
        <trkpt lat="53.50194351" lon="-1.70216974"><ele>365.44000244</ele><time>2015-05-25T08:34:23.000Z</time></trkpt>
        <trkpt lat="53.50194510" lon="-1.70230620"><ele>362.54998779</ele><time>2015-05-25T08:34:29.000Z</time></trkpt>
        <trkpt lat="53.50207745" lon="-1.70251675"><ele>336.60000610</ele><time>2015-05-25T08:34:42.000Z</time></trkpt>
        <trkpt lat="53.50220092" lon="-1.70265698"><ele>313.52999878</ele><time>2015-05-25T08:34:58.000Z</time></trkpt>
        <trkpt lat="53.50221475" lon="-1.70270090"><ele>310.16000366</ele><time>2015-05-25T08:35:09.000Z</time></trkpt>
        <trkpt lat="53.50223671" lon="-1.70277743"><ele>303.91000366</ele><time>2015-05-25T08:35:23.000Z</time></trkpt>
        <trkpt lat="53.50223277" lon="-1.70282554"><ele>302.95001221</ele><time>2015-05-25T08:35:27.000Z</time></trkpt>
        <trkpt lat="53.50222321" lon="-1.70290492"><ele>301.51000977</ele><time>2015-05-25T08:35:34.000Z</time></trkpt>
        <trkpt lat="53.50221475" lon="-1.70292864"><ele>301.02999878</ele><time>2015-05-25T08:35:36.000Z</time></trkpt>
        <trkpt lat="53.50222665" lon="-1.70302662"><ele>299.58999634</ele><time>2015-05-25T08:35:48.000Z</time></trkpt>
        <trkpt lat="53.50225003" lon="-1.70309233"><ele>298.14999390</ele><time>2015-05-25T08:36:04.000Z</time></trkpt>
        <trkpt lat="53.50224911" lon="-1.70312628"><ele>293.82000732</ele><time>2015-05-25T08:36:24.000Z</time></trkpt>
        <trkpt lat="53.50222958" lon="-1.70319610"><ele>293.82000732</ele><time>2015-05-25T08:36:35.000Z</time></trkpt>
        <trkpt lat="53.50213361" lon="-1.70323223"><ele>295.73999023</ele><time>2015-05-25T08:36:50.000Z</time></trkpt>
        <trkpt lat="53.50205004" lon="-1.70323952"><ele>293.82000732</ele><time>2015-05-25T08:36:56.000Z</time></trkpt>
        <trkpt lat="53.50192616" lon="-1.70321739"><ele>290.45999146</ele><time>2015-05-25T08:37:09.000Z</time></trkpt>
        <trkpt lat="53.50182876" lon="-1.70323231"><ele>287.08999634</ele><time>2015-05-25T08:37:22.000Z</time></trkpt>
        <trkpt lat="53.50179993" lon="-1.70323768"><ele>285.17001343</ele><time>2015-05-25T08:37:40.000Z</time></trkpt>
        <trkpt lat="53.50175592" lon="-1.70328110"><ele>283.25000000</ele><time>2015-05-25T08:37:57.000Z</time></trkpt>
        <trkpt lat="53.50172625" lon="-1.70331228"><ele>278.44000244</ele><time>2015-05-25T08:38:26.000Z</time></trkpt>
        <trkpt lat="53.50165668" lon="-1.70333181"><ele>271.70999146</ele><time>2015-05-25T08:38:41.000Z</time></trkpt>
        <trkpt lat="53.50163321" lon="-1.70330825"><ele>267.85998535</ele><time>2015-05-25T08:39:02.000Z</time></trkpt>
        <trkpt lat="53.50157420" lon="-1.70320951"><ele>267.85998535</ele><time>2015-05-25T08:39:16.000Z</time></trkpt>
        <trkpt lat="53.50154780" lon="-1.70311647"><ele>267.38000488</ele><time>2015-05-25T08:39:28.000Z</time></trkpt>
        <trkpt lat="53.50146809" lon="-1.70285781"><ele>266.89999390</ele><time>2015-05-25T08:39:43.000Z</time></trkpt>
        <trkpt lat="53.50140053" lon="-1.70257836"><ele>264.50000000</ele><time>2015-05-25T08:39:59.000Z</time></trkpt>
        <trkpt lat="53.50138217" lon="-1.70244877"><ele>264.50000000</ele><time>2015-05-25T08:40:06.000Z</time></trkpt>
        <trkpt lat="53.50139625" lon="-1.70237585"><ele>263.54000854</ele><time>2015-05-25T08:40:23.000Z</time></trkpt>
        <trkpt lat="53.50140740" lon="-1.70232623"><ele>262.10000610</ele><time>2015-05-25T08:40:44.000Z</time></trkpt>
        <trkpt lat="53.50135686" lon="-1.70214786"><ele>263.05999756</ele><time>2015-05-25T08:40:55.000Z</time></trkpt>
        <trkpt lat="53.50132526" lon="-1.70201895"><ele>263.05999756</ele><time>2015-05-25T08:41:02.000Z</time></trkpt>
        <trkpt lat="53.50127740" lon="-1.70180856"><ele>264.50000000</ele><time>2015-05-25T08:41:16.000Z</time></trkpt>
        <trkpt lat="53.50121261" lon="-1.70162357"><ele>266.89999390</ele><time>2015-05-25T08:41:29.000Z</time></trkpt>
        <trkpt lat="53.50120733" lon="-1.70160715"><ele>267.38000488</ele><time>2015-05-25T08:41:30.000Z</time></trkpt>
        <trkpt lat="53.50119031" lon="-1.70156834"><ele>267.38000488</ele><time>2015-05-25T08:41:33.000Z</time></trkpt>
        <trkpt lat="53.50114320" lon="-1.70154026"><ele>266.89999390</ele><time>2015-05-25T08:41:40.000Z</time></trkpt>
        <trkpt lat="53.50104949" lon="-1.70156054"><ele>267.85998535</ele><time>2015-05-25T08:41:52.000Z</time></trkpt>
        <trkpt lat="53.50097506" lon="-1.70158954"><ele>270.26998901</ele><time>2015-05-25T08:42:04.000Z</time></trkpt>
        <trkpt lat="53.50086216" lon="-1.70161469"><ele>272.67001343</ele><time>2015-05-25T08:42:17.000Z</time></trkpt>
        <trkpt lat="53.50086643" lon="-1.70175492"><ele>273.14999390</ele><time>2015-05-25T08:42:30.000Z</time></trkpt>
        <trkpt lat="53.50087658" lon="-1.70188132"><ele>275.07000732</ele><time>2015-05-25T08:42:41.000Z</time></trkpt>
        <trkpt lat="53.50088077" lon="-1.70195290"><ele>276.04000854</ele><time>2015-05-25T08:42:46.000Z</time></trkpt>
        <trkpt lat="53.50088596" lon="-1.70199037"><ele>276.04000854</ele><time>2015-05-25T08:42:48.000Z</time></trkpt>
        <trkpt lat="53.50089384" lon="-1.70220419"><ele>277.95999146</ele><time>2015-05-25T08:43:03.000Z</time></trkpt>
        <trkpt lat="53.50090055" lon="-1.70236034"><ele>278.92001343</ele><time>2015-05-25T08:43:13.000Z</time></trkpt>
        <trkpt lat="53.50090122" lon="-1.70255681"><ele>280.35998535</ele><time>2015-05-25T08:43:27.000Z</time></trkpt>
        <trkpt lat="53.50087230" lon="-1.70271465"><ele>284.20999146</ele><time>2015-05-25T08:43:40.000Z</time></trkpt>
        <trkpt lat="53.50081447" lon="-1.70277894"><ele>285.64999390</ele><time>2015-05-25T08:43:48.000Z</time></trkpt>
        <trkpt lat="53.50074691" lon="-1.70274851"><ele>286.60998535</ele><time>2015-05-25T08:43:56.000Z</time></trkpt>
        <trkpt lat="53.50060542" lon="-1.70275480"><ele>287.57000732</ele><time>2015-05-25T08:44:12.000Z</time></trkpt>
        <trkpt lat="53.50053099" lon="-1.70273669"><ele>289.48999023</ele><time>2015-05-25T08:44:21.000Z</time></trkpt>
        <trkpt lat="53.50043736" lon="-1.70272982"><ele>291.42001343</ele><time>2015-05-25T08:44:32.000Z</time></trkpt>
        <trkpt lat="53.50032220" lon="-1.70273376"><ele>292.85998535</ele><time>2015-05-25T08:44:43.000Z</time></trkpt>
        <trkpt lat="53.50030040" lon="-1.70272579"><ele>293.33999634</ele><time>2015-05-25T08:44:45.000Z</time></trkpt>
        <trkpt lat="53.50018054" lon="-1.70270434"><ele>294.29998779</ele><time>2015-05-25T08:44:56.000Z</time></trkpt>
        <trkpt lat="53.50001701" lon="-1.70268497"><ele>295.26000977</ele><time>2015-05-25T08:45:11.000Z</time></trkpt>
        <trkpt lat="53.49990679" lon="-1.70268196"><ele>295.73999023</ele><time>2015-05-25T08:45:21.000Z</time></trkpt>
        <trkpt lat="53.49985331" lon="-1.70269118"><ele>296.22000122</ele><time>2015-05-25T08:45:26.000Z</time></trkpt>
        <trkpt lat="53.49969355" lon="-1.70269981"><ele>297.67001343</ele><time>2015-05-25T08:45:40.000Z</time></trkpt>
        <trkpt lat="53.49966916" lon="-1.70270174"><ele>297.67001343</ele><time>2015-05-25T08:45:42.000Z</time></trkpt>
        <trkpt lat="53.49948744" lon="-1.70268950"><ele>299.58999634</ele><time>2015-05-25T08:45:58.000Z</time></trkpt>
        <trkpt lat="53.49933975" lon="-1.70272655"><ele>300.07000732</ele><time>2015-05-25T08:46:11.000Z</time></trkpt>
        <trkpt lat="53.49928401" lon="-1.70275555"><ele>301.02999878</ele><time>2015-05-25T08:46:16.000Z</time></trkpt>
        <trkpt lat="53.49919626" lon="-1.70278992"><ele>301.51000977</ele><time>2015-05-25T08:46:24.000Z</time></trkpt>
        <trkpt lat="53.49903465" lon="-1.70283241"><ele>302.95001221</ele><time>2015-05-25T08:46:39.000Z</time></trkpt>
        <trkpt lat="53.49890239" lon="-1.70288170"><ele>303.42999268</ele><time>2015-05-25T08:46:52.000Z</time></trkpt>
        <trkpt lat="53.49888193" lon="-1.70291665"><ele>303.42999268</ele><time>2015-05-25T08:46:55.000Z</time></trkpt>
        <trkpt lat="53.49877104" lon="-1.70298404"><ele>304.88000488</ele><time>2015-05-25T08:47:06.000Z</time></trkpt>
        <trkpt lat="53.49863894" lon="-1.70304657"><ele>306.79998779</ele><time>2015-05-25T08:47:19.000Z</time></trkpt>
        <trkpt lat="53.49857390" lon="-1.70307331"><ele>308.72000122</ele><time>2015-05-25T08:47:31.000Z</time></trkpt>
        <trkpt lat="53.49843560" lon="-1.70313642"><ele>310.64001465</ele><time>2015-05-25T08:47:44.000Z</time></trkpt>
        <trkpt lat="53.49828615" lon="-1.70315159"><ele>311.60000610</ele><time>2015-05-25T08:47:58.000Z</time></trkpt>
        <trkpt lat="53.49813343" lon="-1.70314455"><ele>312.57000732</ele><time>2015-05-25T08:48:12.000Z</time></trkpt>
        <trkpt lat="53.49802748" lon="-1.70318554"><ele>314.01000977</ele><time>2015-05-25T08:48:23.000Z</time></trkpt>
        <trkpt lat="53.49786513" lon="-1.70322284"><ele>315.92999268</ele><time>2015-05-25T08:48:39.000Z</time></trkpt>
        <trkpt lat="53.49772993" lon="-1.70323709"><ele>318.32998657</ele><time>2015-05-25T08:48:53.000Z</time></trkpt>
        <trkpt lat="53.49756908" lon="-1.70322720"><ele>319.77999878</ele><time>2015-05-25T08:49:08.000Z</time></trkpt>
        <trkpt lat="53.49744192" lon="-1.70326668"><ele>321.70001221</ele><time>2015-05-25T08:49:21.000Z</time></trkpt>
        <trkpt lat="53.49733841" lon="-1.70331529"><ele>322.66000366</ele><time>2015-05-25T08:49:33.000Z</time></trkpt>
        <trkpt lat="53.49727881" lon="-1.70334547"><ele>323.14001465</ele><time>2015-05-25T08:49:39.000Z</time></trkpt>
        <trkpt lat="53.49712676" lon="-1.70336609"><ele>324.10000610</ele><time>2015-05-25T08:49:53.000Z</time></trkpt>
        <trkpt lat="53.49697203" lon="-1.70335016"><ele>326.01998901</ele><time>2015-05-25T08:50:08.000Z</time></trkpt>
        <trkpt lat="53.49682828" lon="-1.70340506"><ele>326.98999023</ele><time>2015-05-25T08:50:22.000Z</time></trkpt>
        <trkpt lat="53.49676467" lon="-1.70343775"><ele>327.47000122</ele><time>2015-05-25T08:50:36.000Z</time></trkpt>
        <trkpt lat="53.49665880" lon="-1.70351646"><ele>328.42999268</ele><time>2015-05-25T08:50:48.000Z</time></trkpt>
        <trkpt lat="53.49653240" lon="-1.70354621"><ele>329.39001465</ele><time>2015-05-25T08:51:01.000Z</time></trkpt>
        <trkpt lat="53.49638362" lon="-1.70359533"><ele>329.86999512</ele><time>2015-05-25T08:51:15.000Z</time></trkpt>
        <trkpt lat="53.49622579" lon="-1.70365870"><ele>330.35000610</ele><time>2015-05-25T08:51:29.000Z</time></trkpt>
        <trkpt lat="53.49609629" lon="-1.70376590"><ele>331.30999756</ele><time>2015-05-25T08:51:42.000Z</time></trkpt>
        <trkpt lat="53.49595900" lon="-1.70390764"><ele>332.75000000</ele><time>2015-05-25T08:51:56.000Z</time></trkpt>
        <trkpt lat="53.49583955" lon="-1.70406380"><ele>335.16000366</ele><time>2015-05-25T08:52:10.000Z</time></trkpt>
        <trkpt lat="53.49568089" lon="-1.70422054"><ele>337.07998657</ele><time>2015-05-25T08:52:26.000Z</time></trkpt>
        <trkpt lat="53.49553454" lon="-1.70437401"><ele>339.00000000</ele><time>2015-05-25T08:52:42.000Z</time></trkpt>
        <trkpt lat="53.49539213" lon="-1.70451458"><ele>339.48001099</ele><time>2015-05-25T08:52:57.000Z</time></trkpt>
        <trkpt lat="53.49529238" lon="-1.70460334"><ele>339.95999146</ele><time>2015-05-25T08:53:07.000Z</time></trkpt>
        <trkpt lat="53.49523396" lon="-1.70464869"><ele>340.44000244</ele><time>2015-05-25T08:53:13.000Z</time></trkpt>
        <trkpt lat="53.49516951" lon="-1.70470552"><ele>340.92001343</ele><time>2015-05-25T08:53:19.000Z</time></trkpt>
        <trkpt lat="53.49501922" lon="-1.70488514"><ele>341.41000366</ele><time>2015-05-25T08:53:36.000Z</time></trkpt>
        <trkpt lat="53.49488360" lon="-1.70507088"><ele>341.41000366</ele><time>2015-05-25T08:53:51.000Z</time></trkpt>
        <trkpt lat="53.49475075" lon="-1.70525017"><ele>342.36999512</ele><time>2015-05-25T08:54:06.000Z</time></trkpt>
        <trkpt lat="53.49463122" lon="-1.70540909"><ele>343.32998657</ele><time>2015-05-25T08:54:20.000Z</time></trkpt>
        <trkpt lat="53.49449862" lon="-1.70556575"><ele>344.29000854</ele><time>2015-05-25T08:54:34.000Z</time></trkpt>
        <trkpt lat="53.49436794" lon="-1.70574948"><ele>345.25000000</ele><time>2015-05-25T08:54:49.000Z</time></trkpt>
        <trkpt lat="53.49423911" lon="-1.70590530"><ele>346.20999146</ele><time>2015-05-25T08:55:03.000Z</time></trkpt>
        <trkpt lat="53.49414046" lon="-1.70602508"><ele>346.20999146</ele><time>2015-05-25T08:55:13.000Z</time></trkpt>
        <trkpt lat="53.49406159" lon="-1.70612264"><ele>346.20999146</ele><time>2015-05-25T08:55:21.000Z</time></trkpt>
        <trkpt lat="53.49390065" lon="-1.70631610"><ele>346.20999146</ele><time>2015-05-25T08:55:37.000Z</time></trkpt>
        <trkpt lat="53.49372262" lon="-1.70651911"><ele>345.73001099</ele><time>2015-05-25T08:55:54.000Z</time></trkpt>
        <trkpt lat="53.49365808" lon="-1.70661508"><ele>345.73001099</ele><time>2015-05-25T08:56:01.000Z</time></trkpt>
        <trkpt lat="53.49360477" lon="-1.70665984"><ele>345.25000000</ele><time>2015-05-25T08:56:06.000Z</time></trkpt>
        <trkpt lat="53.49341157" lon="-1.70691289"><ele>344.76998901</ele><time>2015-05-25T08:56:25.000Z</time></trkpt>
        <trkpt lat="53.49322960" lon="-1.70710802"><ele>343.32998657</ele><time>2015-05-25T08:56:42.000Z</time></trkpt>
        <trkpt lat="53.49304939" lon="-1.70721179"><ele>343.80999756</ele><time>2015-05-25T08:56:58.000Z</time></trkpt>
        <trkpt lat="53.49303933" lon="-1.70723232"><ele>343.32998657</ele><time>2015-05-25T08:57:00.000Z</time></trkpt>
        <trkpt lat="53.49299440" lon="-1.70729712"><ele>344.29000854</ele><time>2015-05-25T08:57:05.000Z</time></trkpt>
        <trkpt lat="53.49292902" lon="-1.70740524"><ele>345.73001099</ele><time>2015-05-25T08:57:13.000Z</time></trkpt>
        <trkpt lat="53.49279106" lon="-1.70760825"><ele>346.69000244</ele><time>2015-05-25T08:57:29.000Z</time></trkpt>
        <trkpt lat="53.49262535" lon="-1.70775343"><ele>347.17001343</ele><time>2015-05-25T08:57:45.000Z</time></trkpt>
        <trkpt lat="53.49253139" lon="-1.70783926"><ele>349.10000610</ele><time>2015-05-25T08:57:54.000Z</time></trkpt>
        <trkpt lat="53.49247313" lon="-1.70792392"><ele>349.10000610</ele><time>2015-05-25T08:58:01.000Z</time></trkpt>
        <trkpt lat="53.49233198" lon="-1.70807714"><ele>349.57998657</ele><time>2015-05-25T08:58:16.000Z</time></trkpt>
        <trkpt lat="53.49214582" lon="-1.70822105"><ele>350.54000854</ele><time>2015-05-25T08:58:33.000Z</time></trkpt>
        <trkpt lat="53.49207440" lon="-1.70826062"><ele>350.54000854</ele><time>2015-05-25T08:58:40.000Z</time></trkpt>
        <trkpt lat="53.49191079" lon="-1.70834175"><ele>351.50000000</ele><time>2015-05-25T08:58:55.000Z</time></trkpt>
        <trkpt lat="53.49172186" lon="-1.70836883"><ele>353.89999390</ele><time>2015-05-25T08:59:12.000Z</time></trkpt>
        <trkpt lat="53.49154584" lon="-1.70831124"><ele>351.50000000</ele><time>2015-05-25T08:59:28.000Z</time></trkpt>
        <trkpt lat="53.49141165" lon="-1.70824846"><ele>349.10000610</ele><time>2015-05-25T08:59:41.000Z</time></trkpt>
        <trkpt lat="53.49134954" lon="-1.70832876"><ele>346.69000244</ele><time>2015-05-25T08:59:55.000Z</time></trkpt>
        <trkpt lat="53.49126664" lon="-1.70834997"><ele>345.73001099</ele><time>2015-05-25T09:00:07.000Z</time></trkpt>
        <trkpt lat="53.49112960" lon="-1.70841702"><ele>343.32998657</ele><time>2015-05-25T09:00:21.000Z</time></trkpt>
        <trkpt lat="53.49108391" lon="-1.70845893"><ele>341.89001465</ele><time>2015-05-25T09:00:26.000Z</time></trkpt>
        <trkpt lat="53.49103731" lon="-1.70848802"><ele>340.44000244</ele><time>2015-05-25T09:00:30.000Z</time></trkpt>
        <trkpt lat="53.49086246" lon="-1.70862003"><ele>338.51998901</ele><time>2015-05-25T09:00:45.000Z</time></trkpt>
        <trkpt lat="53.49072374" lon="-1.70880971"><ele>338.51998901</ele><time>2015-05-25T09:00:59.000Z</time></trkpt>
        <trkpt lat="53.49061369" lon="-1.70889798"><ele>338.51998901</ele><time>2015-05-25T09:01:09.000Z</time></trkpt>
        <trkpt lat="53.49047539" lon="-1.70900870"><ele>338.51998901</ele><time>2015-05-25T09:01:21.000Z</time></trkpt>
        <trkpt lat="53.49039517" lon="-1.70910853"><ele>338.04000854</ele><time>2015-05-25T09:01:29.000Z</time></trkpt>
        <trkpt lat="53.49030230" lon="-1.70920291"><ele>338.51998901</ele><time>2015-05-25T09:01:38.000Z</time></trkpt>
        <trkpt lat="53.49016442" lon="-1.70936041"><ele>340.92001343</ele><time>2015-05-25T09:01:55.000Z</time></trkpt>
        <trkpt lat="53.49004003" lon="-1.70944137"><ele>341.89001465</ele><time>2015-05-25T09:02:07.000Z</time></trkpt>
        <trkpt lat="53.48996568" lon="-1.70953592"><ele>341.89001465</ele><time>2015-05-25T09:02:15.000Z</time></trkpt>
        <trkpt lat="53.48988874" lon="-1.70957557"><ele>342.36999512</ele><time>2015-05-25T09:02:22.000Z</time></trkpt>
        <trkpt lat="53.48986686" lon="-1.70958823"><ele>342.36999512</ele><time>2015-05-25T09:02:24.000Z</time></trkpt>
        <trkpt lat="53.48971322" lon="-1.70981362"><ele>343.80999756</ele><time>2015-05-25T09:02:41.000Z</time></trkpt>
        <trkpt lat="53.48959487" lon="-1.71004403"><ele>344.76998901</ele><time>2015-05-25T09:02:56.000Z</time></trkpt>
        <trkpt lat="53.48947836" lon="-1.71029281"><ele>346.20999146</ele><time>2015-05-25T09:03:12.000Z</time></trkpt>
        <trkpt lat="53.48946411" lon="-1.71032617"><ele>346.20999146</ele><time>2015-05-25T09:03:14.000Z</time></trkpt>
        <trkpt lat="53.48939748" lon="-1.71042122"><ele>347.17001343</ele><time>2015-05-25T09:03:22.000Z</time></trkpt>
        <trkpt lat="53.48935230" lon="-1.71048190"><ele>346.69000244</ele><time>2015-05-25T09:03:27.000Z</time></trkpt>
        <trkpt lat="53.48921601" lon="-1.71074476"><ele>346.69000244</ele><time>2015-05-25T09:03:44.000Z</time></trkpt>
        <trkpt lat="53.48907880" lon="-1.71095657"><ele>347.17001343</ele><time>2015-05-25T09:03:59.000Z</time></trkpt>
        <trkpt lat="53.48893697" lon="-1.71107585"><ele>348.13000488</ele><time>2015-05-25T09:04:12.000Z</time></trkpt>
        <trkpt lat="53.48876204" lon="-1.71124533"><ele>349.57998657</ele><time>2015-05-25T09:04:29.000Z</time></trkpt>
        <trkpt lat="53.48871552" lon="-1.71129813"><ele>350.05999756</ele><time>2015-05-25T09:04:34.000Z</time></trkpt>
        <trkpt lat="53.48859172" lon="-1.71144616"><ele>351.98001099</ele><time>2015-05-25T09:04:48.000Z</time></trkpt>
        <trkpt lat="53.48846231" lon="-1.71167431"><ele>352.45999146</ele><time>2015-05-25T09:05:04.000Z</time></trkpt>
        <trkpt lat="53.48829643" lon="-1.71181412"><ele>352.94000244</ele><time>2015-05-25T09:05:19.000Z</time></trkpt>
        <trkpt lat="53.48813776" lon="-1.71185872"><ele>353.42001343</ele><time>2015-05-25T09:05:32.000Z</time></trkpt>
        <trkpt lat="53.48796618" lon="-1.71190809"><ele>353.89999390</ele><time>2015-05-25T09:05:46.000Z</time></trkpt>
        <trkpt lat="53.48780877" lon="-1.71193013"><ele>355.33999634</ele><time>2015-05-25T09:05:59.000Z</time></trkpt>
        <trkpt lat="53.48764415" lon="-1.71192401"><ele>357.26998901</ele><time>2015-05-25T09:06:14.000Z</time></trkpt>
        <trkpt lat="53.48756678" lon="-1.71193181"><ele>358.23001099</ele><time>2015-05-25T09:06:21.000Z</time></trkpt>
        <trkpt lat="53.48738724" lon="-1.71192963"><ele>359.67001343</ele><time>2015-05-25T09:06:37.000Z</time></trkpt>
        <trkpt lat="53.48722229" lon="-1.71192518"><ele>361.10998535</ele><time>2015-05-25T09:06:52.000Z</time></trkpt>
        <trkpt lat="53.48704493" lon="-1.71192887"><ele>362.07000732</ele><time>2015-05-25T09:07:07.000Z</time></trkpt>
        <trkpt lat="53.48688081" lon="-1.71196743"><ele>363.04000854</ele><time>2015-05-25T09:07:21.000Z</time></trkpt>
        <trkpt lat="53.48673765" lon="-1.71199241"><ele>364.00000000</ele><time>2015-05-25T09:07:36.000Z</time></trkpt>
        <trkpt lat="53.48660974" lon="-1.71204303"><ele>364.48001099</ele><time>2015-05-25T09:07:48.000Z</time></trkpt>
        <trkpt lat="53.48648761" lon="-1.71207522"><ele>365.92001343</ele><time>2015-05-25T09:08:00.000Z</time></trkpt>
        <trkpt lat="53.48645383" lon="-1.71211235"><ele>366.39999390</ele><time>2015-05-25T09:08:04.000Z</time></trkpt>
        <trkpt lat="53.48637840" lon="-1.71216063"><ele>367.35998535</ele><time>2015-05-25T09:08:11.000Z</time></trkpt>
        <trkpt lat="53.48623834" lon="-1.71218175"><ele>368.79998779</ele><time>2015-05-25T09:08:25.000Z</time></trkpt>
        <trkpt lat="53.48612560" lon="-1.71220933"><ele>370.23999023</ele><time>2015-05-25T09:08:36.000Z</time></trkpt>
        <trkpt lat="53.48601513" lon="-1.71222601"><ele>371.69000244</ele><time>2015-05-25T09:08:47.000Z</time></trkpt>
        <trkpt lat="53.48594966" lon="-1.71223003"><ele>373.13000488</ele><time>2015-05-25T09:08:54.000Z</time></trkpt>
        <trkpt lat="53.48590080" lon="-1.71224546"><ele>374.08999634</ele><time>2015-05-25T09:09:00.000Z</time></trkpt>
        <trkpt lat="53.48585646" lon="-1.71224730"><ele>374.57000732</ele><time>2015-05-25T09:09:05.000Z</time></trkpt>
        <trkpt lat="53.48573425" lon="-1.71224806"><ele>376.48999023</ele><time>2015-05-25T09:09:18.000Z</time></trkpt>
        <trkpt lat="53.48561942" lon="-1.71227672"><ele>378.42001343</ele><time>2015-05-25T09:09:30.000Z</time></trkpt>
        <trkpt lat="53.48552478" lon="-1.71229675"><ele>379.38000488</ele><time>2015-05-25T09:09:40.000Z</time></trkpt>
        <trkpt lat="53.48540249" lon="-1.71229147"><ele>379.85998535</ele><time>2015-05-25T09:09:52.000Z</time></trkpt>
        <trkpt lat="53.48531893" lon="-1.71229097"><ele>380.82000732</ele><time>2015-05-25T09:10:00.000Z</time></trkpt>
        <trkpt lat="53.48515623" lon="-1.71233254"><ele>382.26000977</ele><time>2015-05-25T09:10:16.000Z</time></trkpt>
        <trkpt lat="53.48503729" lon="-1.71237496"><ele>383.70001221</ele><time>2015-05-25T09:10:28.000Z</time></trkpt>
        <trkpt lat="53.48494694" lon="-1.71241075"><ele>385.14999390</ele><time>2015-05-25T09:10:38.000Z</time></trkpt>
        <trkpt lat="53.48483772" lon="-1.71243841"><ele>386.58999634</ele><time>2015-05-25T09:10:50.000Z</time></trkpt>
        <trkpt lat="53.48481777" lon="-1.71242617"><ele>388.98999023</ele><time>2015-05-25T09:11:04.000Z</time></trkpt>
        <trkpt lat="53.48481878" lon="-1.71244419"><ele>388.98999023</ele><time>2015-05-25T09:11:28.000Z</time></trkpt>
        <trkpt lat="53.48479967" lon="-1.71246121"><ele>389.47000122</ele><time>2015-05-25T09:11:34.000Z</time></trkpt>
        <trkpt lat="53.48477812" lon="-1.71246397"><ele>389.47000122</ele><time>2015-05-25T09:11:36.000Z</time></trkpt>
        <trkpt lat="53.48474946" lon="-1.71248015"><ele>389.95001221</ele><time>2015-05-25T09:11:39.000Z</time></trkpt>
        <trkpt lat="53.48465265" lon="-1.71249314"><ele>391.39001465</ele><time>2015-05-25T09:11:49.000Z</time></trkpt>
        <trkpt lat="53.48451409" lon="-1.71252969"><ele>392.83999634</ele><time>2015-05-25T09:12:04.000Z</time></trkpt>
        <trkpt lat="53.48437663" lon="-1.71256623"><ele>393.32000732</ele><time>2015-05-25T09:12:18.000Z</time></trkpt>
        <trkpt lat="53.48418477" lon="-1.71264343"><ele>394.27999878</ele><time>2015-05-25T09:12:35.000Z</time></trkpt>
        <trkpt lat="53.48399961" lon="-1.71273127"><ele>395.72000122</ele><time>2015-05-25T09:12:51.000Z</time></trkpt>
        <trkpt lat="53.48384815" lon="-1.71280839"><ele>397.64001465</ele><time>2015-05-25T09:13:05.000Z</time></trkpt>
        <trkpt lat="53.48377079" lon="-1.71285206"><ele>398.60000610</ele><time>2015-05-25T09:13:13.000Z</time></trkpt>
        <trkpt lat="53.48365529" lon="-1.71290536"><ele>400.04998779</ele><time>2015-05-25T09:13:24.000Z</time></trkpt>
        <trkpt lat="53.48347977" lon="-1.71299262"><ele>401.48999023</ele><time>2015-05-25T09:13:40.000Z</time></trkpt>
        <trkpt lat="53.48344934" lon="-1.71300997"><ele>401.97000122</ele><time>2015-05-25T09:13:43.000Z</time></trkpt>
        <trkpt lat="53.48335647" lon="-1.71302623"><ele>402.92999268</ele><time>2015-05-25T09:13:52.000Z</time></trkpt>
        <trkpt lat="53.48333552" lon="-1.71302623"><ele>402.92999268</ele><time>2015-05-25T09:13:54.000Z</time></trkpt>
        <trkpt lat="53.48317953" lon="-1.71305238"><ele>405.32998657</ele><time>2015-05-25T09:14:09.000Z</time></trkpt>
        <trkpt lat="53.48301809" lon="-1.71309019"><ele>407.26000977</ele><time>2015-05-25T09:14:25.000Z</time></trkpt>
        <trkpt lat="53.48300694" lon="-1.71308868"><ele>407.73999023</ele><time>2015-05-25T09:14:26.000Z</time></trkpt>
        <trkpt lat="53.48292447" lon="-1.71309882"><ele>408.22000122</ele><time>2015-05-25T09:14:34.000Z</time></trkpt>
        <trkpt lat="53.48286035" lon="-1.71310519"><ele>408.70001221</ele><time>2015-05-25T09:14:40.000Z</time></trkpt>
        <trkpt lat="53.48271031" lon="-1.71310200"><ele>411.10000610</ele><time>2015-05-25T09:14:54.000Z</time></trkpt>
        <trkpt lat="53.48257544" lon="-1.71310334"><ele>413.50000000</ele><time>2015-05-25T09:15:08.000Z</time></trkpt>
        <trkpt lat="53.48254443" lon="-1.71309480"><ele>413.98001099</ele><time>2015-05-25T09:15:11.000Z</time></trkpt>
        <trkpt lat="53.48245441" lon="-1.71309060"><ele>414.95001221</ele><time>2015-05-25T09:15:20.000Z</time></trkpt>
        <trkpt lat="53.48240638" lon="-1.71308004"><ele>415.91000366</ele><time>2015-05-25T09:15:25.000Z</time></trkpt>
        <trkpt lat="53.48238727" lon="-1.71308608"><ele>416.39001465</ele><time>2015-05-25T09:15:27.000Z</time></trkpt>
        <trkpt lat="53.48224520" lon="-1.71302380"><ele>418.30999756</ele><time>2015-05-25T09:15:42.000Z</time></trkpt>
        <trkpt lat="53.48218099" lon="-1.71297326"><ele>420.70999146</ele><time>2015-05-25T09:15:52.000Z</time></trkpt>
        <trkpt lat="53.48204135" lon="-1.71290754"><ele>423.60000610</ele><time>2015-05-25T09:16:08.000Z</time></trkpt>
        <trkpt lat="53.48200807" lon="-1.71289581"><ele>424.07998657</ele><time>2015-05-25T09:16:12.000Z</time></trkpt>
        <trkpt lat="53.48189014" lon="-1.71284753"><ele>424.55999756</ele><time>2015-05-25T09:16:24.000Z</time></trkpt>
        <trkpt lat="53.48170524" lon="-1.71281266"><ele>424.07998657</ele><time>2015-05-25T09:16:41.000Z</time></trkpt>
        <trkpt lat="53.48160281" lon="-1.71277871"><ele>424.55999756</ele><time>2015-05-25T09:16:51.000Z</time></trkpt>
        <trkpt lat="53.48144406" lon="-1.71275809"><ele>425.51998901</ele><time>2015-05-25T09:17:06.000Z</time></trkpt>
        <trkpt lat="53.48127390" lon="-1.71271803"><ele>426.95999146</ele><time>2015-05-25T09:17:21.000Z</time></trkpt>
        <trkpt lat="53.48126368" lon="-1.71271484"><ele>426.95999146</ele><time>2015-05-25T09:17:22.000Z</time></trkpt>
        <trkpt lat="53.48110861" lon="-1.71266036"><ele>428.39999390</ele><time>2015-05-25T09:17:37.000Z</time></trkpt>
        <trkpt lat="53.48105975" lon="-1.71263044"><ele>428.39999390</ele><time>2015-05-25T09:17:42.000Z</time></trkpt>
        <trkpt lat="53.48100518" lon="-1.71263161"><ele>429.36999512</ele><time>2015-05-25T09:17:47.000Z</time></trkpt>
        <trkpt lat="53.48097358" lon="-1.71262449"><ele>429.36999512</ele><time>2015-05-25T09:17:50.000Z</time></trkpt>
        <trkpt lat="53.48082497" lon="-1.71258735"><ele>429.85000610</ele><time>2015-05-25T09:18:06.000Z</time></trkpt>
        <trkpt lat="53.48067175" lon="-1.71250613"><ele>431.29000854</ele><time>2015-05-25T09:18:21.000Z</time></trkpt>
        <trkpt lat="53.48052246" lon="-1.71242952"><ele>433.20999146</ele><time>2015-05-25T09:18:36.000Z</time></trkpt>
        <trkpt lat="53.48039523" lon="-1.71231343"><ele>435.60998535</ele><time>2015-05-25T09:18:50.000Z</time></trkpt>
        <trkpt lat="53.48032256" lon="-1.71220003"><ele>438.01998901</ele><time>2015-05-25T09:19:02.000Z</time></trkpt>
        <trkpt lat="53.48021032" lon="-1.71208838"><ele>438.50000000</ele><time>2015-05-25T09:19:16.000Z</time></trkpt>
        <trkpt lat="53.48019322" lon="-1.71207539"><ele>438.50000000</ele><time>2015-05-25T09:19:18.000Z</time></trkpt>
        <trkpt lat="53.48017252" lon="-1.71207271"><ele>438.98001099</ele><time>2015-05-25T09:19:20.000Z</time></trkpt>
        <trkpt lat="53.48003573" lon="-1.71196944"><ele>440.89999390</ele><time>2015-05-25T09:19:34.000Z</time></trkpt>
        <trkpt lat="53.47988326" lon="-1.71189006"><ele>441.38000488</ele><time>2015-05-25T09:19:48.000Z</time></trkpt>
        <trkpt lat="53.47974052" lon="-1.71176727"><ele>442.82000732</ele><time>2015-05-25T09:20:02.000Z</time></trkpt>
        <trkpt lat="53.47970942" lon="-1.71174129"><ele>442.82000732</ele><time>2015-05-25T09:20:05.000Z</time></trkpt>
        <trkpt lat="53.47963013" lon="-1.71166199"><ele>443.30999756</ele><time>2015-05-25T09:20:13.000Z</time></trkpt>
        <trkpt lat="53.47960180" lon="-1.71165294"><ele>443.79000854</ele><time>2015-05-25T09:20:16.000Z</time></trkpt>
        <trkpt lat="53.47958361" lon="-1.71163827"><ele>444.26998901</ele><time>2015-05-25T09:20:18.000Z</time></trkpt>
        <trkpt lat="53.47948403" lon="-1.71155923"><ele>445.23001099</ele><time>2015-05-25T09:20:28.000Z</time></trkpt>
        <trkpt lat="53.47937658" lon="-1.71151145"><ele>445.70999146</ele><time>2015-05-25T09:20:38.000Z</time></trkpt>
        <trkpt lat="53.47923190" lon="-1.71143577"><ele>447.14999390</ele><time>2015-05-25T09:20:52.000Z</time></trkpt>
        <trkpt lat="53.47912118" lon="-1.71137944"><ele>447.63000488</ele><time>2015-05-25T09:21:04.000Z</time></trkpt>
        <trkpt lat="53.47911196" lon="-1.71137013"><ele>448.10998535</ele><time>2015-05-25T09:21:05.000Z</time></trkpt>
        <trkpt lat="53.47907164" lon="-1.71132420"><ele>448.58999634</ele><time>2015-05-25T09:21:09.000Z</time></trkpt>
        <trkpt lat="53.47899922" lon="-1.71126016"><ele>448.58999634</ele><time>2015-05-25T09:21:16.000Z</time></trkpt>
        <trkpt lat="53.47894248" lon="-1.71122387"><ele>449.07000732</ele><time>2015-05-25T09:21:21.000Z</time></trkpt>
        <trkpt lat="53.47874852" lon="-1.71114961"><ele>449.54998779</ele><time>2015-05-25T09:21:38.000Z</time></trkpt>
        <trkpt lat="53.47871139" lon="-1.71115329"><ele>449.54998779</ele><time>2015-05-25T09:21:41.000Z</time></trkpt>
        <trkpt lat="53.47852631" lon="-1.71106797"><ele>450.51998901</ele><time>2015-05-25T09:21:58.000Z</time></trkpt>
        <trkpt lat="53.47838198" lon="-1.71095942"><ele>451.95999146</ele><time>2015-05-25T09:22:13.000Z</time></trkpt>
        <trkpt lat="53.47817570" lon="-1.71089421"><ele>451.48001099</ele><time>2015-05-25T09:22:30.000Z</time></trkpt>
        <trkpt lat="53.47808534" lon="-1.71084283"><ele>451.48001099</ele><time>2015-05-25T09:22:38.000Z</time></trkpt>
        <trkpt lat="53.47803958" lon="-1.71084291"><ele>451.48001099</ele><time>2015-05-25T09:22:42.000Z</time></trkpt>
        <trkpt lat="53.47798015" lon="-1.71084677"><ele>451.95999146</ele><time>2015-05-25T09:22:47.000Z</time></trkpt>
        <trkpt lat="53.47795886" lon="-1.71082984"><ele>452.44000244</ele><time>2015-05-25T09:22:56.000Z</time></trkpt>
        <trkpt lat="53.47780405" lon="-1.71084333"><ele>452.92001343</ele><time>2015-05-25T09:23:09.000Z</time></trkpt>
        <trkpt lat="53.47764278" lon="-1.71082665"><ele>453.88000488</ele><time>2015-05-25T09:23:23.000Z</time></trkpt>
        <trkpt lat="53.47752585" lon="-1.71083378"><ele>454.83999634</ele><time>2015-05-25T09:23:33.000Z</time></trkpt>
        <trkpt lat="53.47734137" lon="-1.71074593"><ele>455.32000732</ele><time>2015-05-25T09:23:49.000Z</time></trkpt>
        <trkpt lat="53.47716761" lon="-1.71064141"><ele>456.27999878</ele><time>2015-05-25T09:24:04.000Z</time></trkpt>
        <trkpt lat="53.47699821" lon="-1.71049758"><ele>455.79998779</ele><time>2015-05-25T09:24:19.000Z</time></trkpt>
        <trkpt lat="53.47681188" lon="-1.71033078"><ele>455.32000732</ele><time>2015-05-25T09:24:36.000Z</time></trkpt>
        <trkpt lat="53.47674885" lon="-1.71032608"><ele>454.83999634</ele><time>2015-05-25T09:24:41.000Z</time></trkpt>
        <trkpt lat="53.47657023" lon="-1.71023766"><ele>453.39999390</ele><time>2015-05-25T09:24:56.000Z</time></trkpt>
        <trkpt lat="53.47636395" lon="-1.71008628"><ele>452.92001343</ele><time>2015-05-25T09:25:14.000Z</time></trkpt>
        <trkpt lat="53.47618709" lon="-1.71002635"><ele>452.92001343</ele><time>2015-05-25T09:25:29.000Z</time></trkpt>
        <trkpt lat="53.47596221" lon="-1.70996348"><ele>451.00000000</ele><time>2015-05-25T09:25:47.000Z</time></trkpt>
        <trkpt lat="53.47581251" lon="-1.70985075"><ele>450.51998901</ele><time>2015-05-25T09:26:01.000Z</time></trkpt>
        <trkpt lat="53.47573472" lon="-1.70982510"><ele>449.54998779</ele><time>2015-05-25T09:26:15.000Z</time></trkpt>
        <trkpt lat="53.47567026" lon="-1.70983817"><ele>450.02999878</ele><time>2015-05-25T09:26:22.000Z</time></trkpt>
        <trkpt lat="53.47548528" lon="-1.70981211"><ele>451.48001099</ele><time>2015-05-25T09:26:38.000Z</time></trkpt>
        <trkpt lat="53.47538721" lon="-1.70978143"><ele>452.44000244</ele><time>2015-05-25T09:26:49.000Z</time></trkpt>
        <trkpt lat="53.47532342" lon="-1.70975947"><ele>453.88000488</ele><time>2015-05-25T09:26:57.000Z</time></trkpt>
        <trkpt lat="53.47524874" lon="-1.70979652"><ele>454.35998535</ele><time>2015-05-25T09:27:05.000Z</time></trkpt>
        <trkpt lat="53.47518931" lon="-1.70984278"><ele>453.39999390</ele><time>2015-05-25T09:27:11.000Z</time></trkpt>
        <trkpt lat="53.47504690" lon="-1.70989953"><ele>454.35998535</ele><time>2015-05-25T09:27:25.000Z</time></trkpt>
        <trkpt lat="53.47501027" lon="-1.70989559"><ele>454.83999634</ele><time>2015-05-25T09:27:29.000Z</time></trkpt>
        <trkpt lat="53.47490516" lon="-1.70981890"><ele>456.27999878</ele><time>2015-05-25T09:27:42.000Z</time></trkpt>
        <trkpt lat="53.47481917" lon="-1.70974798"><ele>457.23999023</ele><time>2015-05-25T09:27:53.000Z</time></trkpt>
        <trkpt lat="53.47475412" lon="-1.70976316"><ele>458.20999146</ele><time>2015-05-25T09:28:00.000Z</time></trkpt>
        <trkpt lat="53.47471070" lon="-1.70975913"><ele>458.20999146</ele><time>2015-05-25T09:28:04.000Z</time></trkpt>
        <trkpt lat="53.47458984" lon="-1.70965151"><ele>460.13000488</ele><time>2015-05-25T09:28:18.000Z</time></trkpt>
        <trkpt lat="53.47458045" lon="-1.70964506"><ele>460.13000488</ele><time>2015-05-25T09:28:19.000Z</time></trkpt>
        <trkpt lat="53.47448029" lon="-1.70959384"><ele>461.08999634</ele><time>2015-05-25T09:28:29.000Z</time></trkpt>
        <trkpt lat="53.47438775" lon="-1.70956124"><ele>461.08999634</ele><time>2015-05-25T09:28:37.000Z</time></trkpt>
        <trkpt lat="53.47427526" lon="-1.70941791"><ele>463.01000977</ele><time>2015-05-25T09:28:55.000Z</time></trkpt>
        <trkpt lat="53.47426697" lon="-1.70940978"><ele>464.45001221</ele><time>2015-05-25T09:29:25.000Z</time></trkpt>
        <trkpt lat="53.47426521" lon="-1.70940651"><ele>464.45001221</ele><time>2015-05-25T09:29:52.000Z</time></trkpt>
        <trkpt lat="53.47426219" lon="-1.70941413"><ele>464.45001221</ele><time>2015-05-25T09:30:03.000Z</time></trkpt>
        <trkpt lat="53.47426102" lon="-1.70940399"><ele>465.42001343</ele><time>2015-05-25T09:30:32.000Z</time></trkpt>
        <trkpt lat="53.47425750" lon="-1.70940533"><ele>465.42001343</ele><time>2015-05-25T09:30:54.000Z</time></trkpt>
        <trkpt lat="53.47425884" lon="-1.70940944"><ele>465.42001343</ele><time>2015-05-25T09:31:12.000Z</time></trkpt>
        <trkpt lat="53.47425741" lon="-1.70942377"><ele>465.42001343</ele><time>2015-05-25T09:31:46.000Z</time></trkpt>
        <trkpt lat="53.47425506" lon="-1.70943970"><ele>465.89999390</ele><time>2015-05-25T09:32:25.000Z</time></trkpt>
        <trkpt lat="53.47426236" lon="-1.70942302"><ele>465.89999390</ele><time>2015-05-25T09:32:59.000Z</time></trkpt>
        <trkpt lat="53.47424190" lon="-1.70939628"><ele>465.89999390</ele><time>2015-05-25T09:33:07.000Z</time></trkpt>
        <trkpt lat="53.47420259" lon="-1.70937491"><ele>465.89999390</ele><time>2015-05-25T09:33:13.000Z</time></trkpt>
        <trkpt lat="53.47414426" lon="-1.70926301"><ele>467.82000732</ele><time>2015-05-25T09:33:23.000Z</time></trkpt>
        <trkpt lat="53.47411115" lon="-1.70922663"><ele>468.29998779</ele><time>2015-05-25T09:33:27.000Z</time></trkpt>
        <trkpt lat="53.47400193" lon="-1.70925605"><ele>468.77999878</ele><time>2015-05-25T09:33:41.000Z</time></trkpt>
        <trkpt lat="53.47399246" lon="-1.70926561"><ele>469.73999023</ele><time>2015-05-25T09:33:52.000Z</time></trkpt>
        <trkpt lat="53.47393236" lon="-1.70923753"><ele>470.70001221</ele><time>2015-05-25T09:34:00.000Z</time></trkpt>
        <trkpt lat="53.47388274" lon="-1.70926460"><ele>471.17999268</ele><time>2015-05-25T09:34:06.000Z</time></trkpt>
        <trkpt lat="53.47375601" lon="-1.70927499"><ele>473.58999634</ele><time>2015-05-25T09:34:21.000Z</time></trkpt>
        <trkpt lat="53.47374930" lon="-1.70926980"><ele>473.10998535</ele><time>2015-05-25T09:34:38.000Z</time></trkpt>
        <trkpt lat="53.47374343" lon="-1.70927390"><ele>474.07000732</ele><time>2015-05-25T09:34:59.000Z</time></trkpt>
        <trkpt lat="53.47372055" lon="-1.70927030"><ele>474.54998779</ele><time>2015-05-25T09:35:01.000Z</time></trkpt>
        <trkpt lat="53.47363899" lon="-1.70930852"><ele>475.02999878</ele><time>2015-05-25T09:35:08.000Z</time></trkpt>
        <trkpt lat="53.47347563" lon="-1.70938245"><ele>475.98999023</ele><time>2015-05-25T09:35:23.000Z</time></trkpt>
        <trkpt lat="53.47331596" lon="-1.70947809"><ele>478.39001465</ele><time>2015-05-25T09:35:39.000Z</time></trkpt>
        <trkpt lat="53.47331051" lon="-1.70948806"><ele>478.39001465</ele><time>2015-05-25T09:35:40.000Z</time></trkpt>
        <trkpt lat="53.47317807" lon="-1.70946870"><ele>478.39001465</ele><time>2015-05-25T09:35:52.000Z</time></trkpt>
        <trkpt lat="53.47310197" lon="-1.70957515"><ele>476.95001221</ele><time>2015-05-25T09:36:01.000Z</time></trkpt>
        <trkpt lat="53.47306710" lon="-1.70961706"><ele>477.42999268</ele><time>2015-05-25T09:36:05.000Z</time></trkpt>
        <trkpt lat="53.47301831" lon="-1.70966643"><ele>477.42999268</ele><time>2015-05-25T09:36:10.000Z</time></trkpt>
        <trkpt lat="53.47287817" lon="-1.70974480"><ele>479.35000610</ele><time>2015-05-25T09:36:24.000Z</time></trkpt>
        <trkpt lat="53.47287130" lon="-1.70975477"><ele>478.86999512</ele><time>2015-05-25T09:36:25.000Z</time></trkpt>
        <trkpt lat="53.47284724" lon="-1.70982124"><ele>479.83999634</ele><time>2015-05-25T09:36:30.000Z</time></trkpt>
        <trkpt lat="53.47278337" lon="-1.70984027"><ele>480.79998779</ele><time>2015-05-25T09:36:36.000Z</time></trkpt>
        <trkpt lat="53.47268254" lon="-1.70987732"><ele>481.27999878</ele><time>2015-05-25T09:36:45.000Z</time></trkpt>
        <trkpt lat="53.47260458" lon="-1.70986005"><ele>481.76000977</ele><time>2015-05-25T09:36:52.000Z</time></trkpt>
        <trkpt lat="53.47257064" lon="-1.70987413"><ele>482.23999023</ele><time>2015-05-25T09:36:55.000Z</time></trkpt>
        <trkpt lat="53.47241876" lon="-1.70988193"><ele>483.20001221</ele><time>2015-05-25T09:37:09.000Z</time></trkpt>
        <trkpt lat="53.47231474" lon="-1.70990070"><ele>483.67999268</ele><time>2015-05-25T09:37:20.000Z</time></trkpt>
        <trkpt lat="53.47223721" lon="-1.71000045"><ele>483.20001221</ele><time>2015-05-25T09:37:30.000Z</time></trkpt>
        <trkpt lat="53.47215288" lon="-1.71015451"><ele>485.11999512</ele><time>2015-05-25T09:37:43.000Z</time></trkpt>
        <trkpt lat="53.47214886" lon="-1.71020312"><ele>485.11999512</ele><time>2015-05-25T09:37:46.000Z</time></trkpt>
        <trkpt lat="53.47204953" lon="-1.71034729"><ele>486.55999756</ele><time>2015-05-25T09:38:00.000Z</time></trkpt>
        <trkpt lat="53.47199002" lon="-1.71048358"><ele>487.04998779</ele><time>2015-05-25T09:38:10.000Z</time></trkpt>
        <trkpt lat="53.47192825" lon="-1.71058316"><ele>487.04998779</ele><time>2015-05-25T09:38:18.000Z</time></trkpt>
        <trkpt lat="53.47188760" lon="-1.71061484"><ele>487.52999878</ele><time>2015-05-25T09:38:22.000Z</time></trkpt>
        <trkpt lat="53.47183043" lon="-1.71065382"><ele>488.01000977</ele><time>2015-05-25T09:38:28.000Z</time></trkpt>
        <trkpt lat="53.47175868" lon="-1.71066689"><ele>488.97000122</ele><time>2015-05-25T09:38:35.000Z</time></trkpt>
        <trkpt lat="53.47168425" lon="-1.71066890"><ele>489.45001221</ele><time>2015-05-25T09:38:42.000Z</time></trkpt>
        <trkpt lat="53.47163555" lon="-1.71070319"><ele>489.45001221</ele><time>2015-05-25T09:38:47.000Z</time></trkpt>
        <trkpt lat="53.47150974" lon="-1.71076999"><ele>490.41000366</ele><time>2015-05-25T09:39:00.000Z</time></trkpt>
        <trkpt lat="53.47137462" lon="-1.71087803"><ele>491.85000610</ele><time>2015-05-25T09:39:14.000Z</time></trkpt>
        <trkpt lat="53.47131285" lon="-1.71091232"><ele>492.32998657</ele><time>2015-05-25T09:39:20.000Z</time></trkpt>
        <trkpt lat="53.47127169" lon="-1.71093654"><ele>492.80999756</ele><time>2015-05-25T09:39:34.000Z</time></trkpt>
        <trkpt lat="53.47127915" lon="-1.71094475"><ele>493.29000854</ele><time>2015-05-25T09:39:49.000Z</time></trkpt>
        <trkpt lat="53.47126457" lon="-1.71096110"><ele>493.29000854</ele><time>2015-05-25T09:40:04.000Z</time></trkpt>
        <trkpt lat="53.47124772" lon="-1.71098189"><ele>493.29000854</ele><time>2015-05-25T09:40:06.000Z</time></trkpt>
        <trkpt lat="53.47113004" lon="-1.71109538"><ele>494.73999023</ele><time>2015-05-25T09:40:20.000Z</time></trkpt>
        <trkpt lat="53.47108687" lon="-1.71112295"><ele>494.73999023</ele><time>2015-05-25T09:40:35.000Z</time></trkpt>
        <trkpt lat="53.47103532" lon="-1.71107551"><ele>495.22000122</ele><time>2015-05-25T09:40:41.000Z</time></trkpt>
        <trkpt lat="53.47096751" lon="-1.71105078"><ele>496.17999268</ele><time>2015-05-25T09:40:54.000Z</time></trkpt>
        <trkpt lat="53.47096601" lon="-1.71104458"><ele>496.17999268</ele><time>2015-05-25T09:41:22.000Z</time></trkpt>
        <trkpt lat="53.47095905" lon="-1.71105196"><ele>495.70001221</ele><time>2015-05-25T09:41:59.000Z</time></trkpt>
        <trkpt lat="53.47086878" lon="-1.71105397"><ele>496.17999268</ele><time>2015-05-25T09:42:12.000Z</time></trkpt>
        <trkpt lat="53.47080222" lon="-1.71102807"><ele>496.66000366</ele><time>2015-05-25T09:42:18.000Z</time></trkpt>
        <trkpt lat="53.47073123" lon="-1.71099706"><ele>497.14001465</ele><time>2015-05-25T09:42:25.000Z</time></trkpt>
        <trkpt lat="53.47060072" lon="-1.71090377"><ele>497.61999512</ele><time>2015-05-25T09:42:38.000Z</time></trkpt>
        <trkpt lat="53.47043401" lon="-1.71086269"><ele>499.54000854</ele><time>2015-05-25T09:42:54.000Z</time></trkpt>
        <trkpt lat="53.47025011" lon="-1.71081433"><ele>500.01998901</ele><time>2015-05-25T09:43:10.000Z</time></trkpt>
        <trkpt lat="53.47021666" lon="-1.71081391"><ele>500.01998901</ele><time>2015-05-25T09:43:13.000Z</time></trkpt>
        <trkpt lat="53.47013796" lon="-1.71080469"><ele>500.50000000</ele><time>2015-05-25T09:43:20.000Z</time></trkpt>
        <trkpt lat="53.47011616" lon="-1.71080176"><ele>500.50000000</ele><time>2015-05-25T09:43:22.000Z</time></trkpt>
        <trkpt lat="53.46993729" lon="-1.71090527"><ele>501.45999146</ele><time>2015-05-25T09:43:39.000Z</time></trkpt>
        <trkpt lat="53.46979044" lon="-1.71100460"><ele>502.91000366</ele><time>2015-05-25T09:43:53.000Z</time></trkpt>
        <trkpt lat="53.46977888" lon="-1.71100728"><ele>502.91000366</ele><time>2015-05-25T09:43:54.000Z</time></trkpt>
        <trkpt lat="53.46972674" lon="-1.71104014"><ele>502.91000366</ele><time>2015-05-25T09:43:59.000Z</time></trkpt>
        <trkpt lat="53.46952868" lon="-1.71112974"><ele>503.86999512</ele><time>2015-05-25T09:44:17.000Z</time></trkpt>
        <trkpt lat="53.46938208" lon="-1.71126402"><ele>504.35000610</ele><time>2015-05-25T09:44:32.000Z</time></trkpt>
        <trkpt lat="53.46930731" lon="-1.71133795"><ele>504.35000610</ele><time>2015-05-25T09:44:40.000Z</time></trkpt>
        <trkpt lat="53.46927663" lon="-1.71134943"><ele>504.35000610</ele><time>2015-05-25T09:44:43.000Z</time></trkpt>
        <trkpt lat="53.46926012" lon="-1.71137055"><ele>504.35000610</ele><time>2015-05-25T09:44:45.000Z</time></trkpt>
        <trkpt lat="53.46919558" lon="-1.71140366"><ele>504.35000610</ele><time>2015-05-25T09:44:51.000Z</time></trkpt>
        <trkpt lat="53.46911637" lon="-1.71147030"><ele>505.30999756</ele><time>2015-05-25T09:44:59.000Z</time></trkpt>
        <trkpt lat="53.46897145" lon="-1.71159519"><ele>506.75000000</ele><time>2015-05-25T09:45:14.000Z</time></trkpt>
        <trkpt lat="53.46882560" lon="-1.71171522"><ele>507.23001099</ele><time>2015-05-25T09:45:29.000Z</time></trkpt>
        <trkpt lat="53.46867515" lon="-1.71182997"><ele>508.67001343</ele><time>2015-05-25T09:45:43.000Z</time></trkpt>
        <trkpt lat="53.46857297" lon="-1.71193097"><ele>508.67001343</ele><time>2015-05-25T09:45:53.000Z</time></trkpt>
        <trkpt lat="53.46842210" lon="-1.71204320"><ele>510.60000610</ele><time>2015-05-25T09:46:08.000Z</time></trkpt>
        <trkpt lat="53.46835135" lon="-1.71212015"><ele>511.55999756</ele><time>2015-05-25T09:46:24.000Z</time></trkpt>
        <trkpt lat="53.46824641" lon="-1.71232760"><ele>510.11999512</ele><time>2015-05-25T09:46:38.000Z</time></trkpt>
        <trkpt lat="53.46812387" lon="-1.71251418"><ele>510.11999512</ele><time>2015-05-25T09:46:53.000Z</time></trkpt>
        <trkpt lat="53.46811188" lon="-1.71255659"><ele>509.64001465</ele><time>2015-05-25T09:46:56.000Z</time></trkpt>
        <trkpt lat="53.46812278" lon="-1.71262449"><ele>510.11999512</ele><time>2015-05-25T09:47:00.000Z</time></trkpt>
        <trkpt lat="53.46809495" lon="-1.71264553"><ele>509.64001465</ele><time>2015-05-25T09:47:03.000Z</time></trkpt>
        <trkpt lat="53.46804407" lon="-1.71276639"><ele>509.64001465</ele><time>2015-05-25T09:47:11.000Z</time></trkpt>
        <trkpt lat="53.46800007" lon="-1.71291291"><ele>509.64001465</ele><time>2015-05-25T09:47:22.000Z</time></trkpt>
        <trkpt lat="53.46797903" lon="-1.71299907"><ele>509.64001465</ele><time>2015-05-25T09:47:27.000Z</time></trkpt>
        <trkpt lat="53.46798096" lon="-1.71307476"><ele>510.60000610</ele><time>2015-05-25T09:47:32.000Z</time></trkpt>
        <trkpt lat="53.46795053" lon="-1.71321650"><ele>510.60000610</ele><time>2015-05-25T09:47:40.000Z</time></trkpt>
        <trkpt lat="53.46794483" lon="-1.71325464"><ele>510.60000610</ele><time>2015-05-25T09:47:42.000Z</time></trkpt>
        <trkpt lat="53.46790787" lon="-1.71332119"><ele>510.60000610</ele><time>2015-05-25T09:47:47.000Z</time></trkpt>
        <trkpt lat="53.46787107" lon="-1.71337282"><ele>510.60000610</ele><time>2015-05-25T09:47:51.000Z</time></trkpt>
        <trkpt lat="53.46780125" lon="-1.71366619"><ele>513.00000000</ele><time>2015-05-25T09:48:08.000Z</time></trkpt>
        <trkpt lat="53.46767535" lon="-1.71389535"><ele>514.44000244</ele><time>2015-05-25T09:48:25.000Z</time></trkpt>
        <trkpt lat="53.46747377" lon="-1.71400230"><ele>515.40002441</ele><time>2015-05-25T09:48:44.000Z</time></trkpt>
        <trkpt lat="53.46729850" lon="-1.71405109"><ele>515.40002441</ele><time>2015-05-25T09:49:00.000Z</time></trkpt>
        <trkpt lat="53.46712810" lon="-1.71414848"><ele>515.40002441</ele><time>2015-05-25T09:49:16.000Z</time></trkpt>
        <trkpt lat="53.46695753" lon="-1.71420263"><ele>515.88000488</ele><time>2015-05-25T09:49:31.000Z</time></trkpt>
        <trkpt lat="53.46674966" lon="-1.71426625"><ele>515.40002441</ele><time>2015-05-25T09:49:49.000Z</time></trkpt>
        <trkpt lat="53.46657774" lon="-1.71439567"><ele>512.52001953</ele><time>2015-05-25T09:50:05.000Z</time></trkpt>
        <trkpt lat="53.46641128" lon="-1.71449231"><ele>511.07998657</ele><time>2015-05-25T09:50:21.000Z</time></trkpt>
        <trkpt lat="53.46639292" lon="-1.71450840"><ele>511.07998657</ele><time>2015-05-25T09:50:23.000Z</time></trkpt>
        <trkpt lat="53.46638278" lon="-1.71454897"><ele>511.07998657</ele><time>2015-05-25T09:50:26.000Z</time></trkpt>
        <trkpt lat="53.46631656" lon="-1.71456305"><ele>511.55999756</ele><time>2015-05-25T09:50:41.000Z</time></trkpt>
        <trkpt lat="53.46631120" lon="-1.71457102"><ele>510.60000610</ele><time>2015-05-25T09:51:09.000Z</time></trkpt>
        <trkpt lat="53.46630969" lon="-1.71457219"><ele>510.11999512</ele><time>2015-05-25T09:51:35.000Z</time></trkpt>
        <trkpt lat="53.46630734" lon="-1.71454654"><ele>510.11999512</ele><time>2015-05-25T09:51:55.000Z</time></trkpt>
        <trkpt lat="53.46630860" lon="-1.71454906"><ele>510.11999512</ele><time>2015-05-25T09:52:20.000Z</time></trkpt>
        <trkpt lat="53.46636007" lon="-1.71467420"><ele>511.07998657</ele><time>2015-05-25T09:52:30.000Z</time></trkpt>
        <trkpt lat="53.46636987" lon="-1.71477620"><ele>511.55999756</ele><time>2015-05-25T09:52:37.000Z</time></trkpt>
        <trkpt lat="53.46638856" lon="-1.71492138"><ele>511.55999756</ele><time>2015-05-25T09:52:49.000Z</time></trkpt>
        <trkpt lat="53.46637574" lon="-1.71499321"><ele>512.52001953</ele><time>2015-05-25T09:52:58.000Z</time></trkpt>
        <trkpt lat="53.46635336" lon="-1.71500285"><ele>513.00000000</ele><time>2015-05-25T09:53:02.000Z</time></trkpt>
        <trkpt lat="53.46632495" lon="-1.71496086"><ele>513.47998047</ele><time>2015-05-25T09:53:06.000Z</time></trkpt>
        <trkpt lat="53.46626862" lon="-1.71495633"><ele>513.47998047</ele><time>2015-05-25T09:53:12.000Z</time></trkpt>
        <trkpt lat="53.46625018" lon="-1.71494552"><ele>513.47998047</ele><time>2015-05-25T09:53:14.000Z</time></trkpt>
        <trkpt lat="53.46622948" lon="-1.71494912"><ele>513.00000000</ele><time>2015-05-25T09:53:16.000Z</time></trkpt>
        <trkpt lat="53.46609880" lon="-1.71496086"><ele>514.44000244</ele><time>2015-05-25T09:53:29.000Z</time></trkpt>
        <trkpt lat="53.46604616" lon="-1.71502272"><ele>513.96002197</ele><time>2015-05-25T09:53:35.000Z</time></trkpt>
        <trkpt lat="53.46598330" lon="-1.71505826"><ele>513.00000000</ele><time>2015-05-25T09:53:42.000Z</time></trkpt>
        <trkpt lat="53.46595380" lon="-1.71504199"><ele>511.55999756</ele><time>2015-05-25T09:53:45.000Z</time></trkpt>
        <trkpt lat="53.46590032" lon="-1.71503722"><ele>511.07998657</ele><time>2015-05-25T09:53:50.000Z</time></trkpt>
        <trkpt lat="53.46585078" lon="-1.71507737"><ele>511.07998657</ele><time>2015-05-25T09:53:55.000Z</time></trkpt>
        <trkpt lat="53.46575925" lon="-1.71521659"><ele>511.55999756</ele><time>2015-05-25T09:54:06.000Z</time></trkpt>
        <trkpt lat="53.46569446" lon="-1.71526060"><ele>512.03997803</ele><time>2015-05-25T09:54:12.000Z</time></trkpt>
        <trkpt lat="53.46559647" lon="-1.71539102"><ele>512.52001953</ele><time>2015-05-25T09:54:23.000Z</time></trkpt>
        <trkpt lat="53.46549673" lon="-1.71559403"><ele>513.00000000</ele><time>2015-05-25T09:54:38.000Z</time></trkpt>
        <trkpt lat="53.46538064" lon="-1.71576887"><ele>513.96002197</ele><time>2015-05-25T09:54:53.000Z</time></trkpt>
        <trkpt lat="53.46530965" lon="-1.71588086"><ele>514.44000244</ele><time>2015-05-25T09:55:03.000Z</time></trkpt>
        <trkpt lat="53.46528190" lon="-1.71593618"><ele>514.91998291</ele><time>2015-05-25T09:55:07.000Z</time></trkpt>
        <trkpt lat="53.46524703" lon="-1.71598353"><ele>514.91998291</ele><time>2015-05-25T09:55:11.000Z</time></trkpt>
        <trkpt lat="53.46521585" lon="-1.71603726"><ele>514.91998291</ele><time>2015-05-25T09:55:15.000Z</time></trkpt>
        <trkpt lat="53.46510546" lon="-1.71628512"><ele>515.88000488</ele><time>2015-05-25T09:55:32.000Z</time></trkpt>
        <trkpt lat="53.46504671" lon="-1.71651704"><ele>517.33001709</ele><time>2015-05-25T09:55:46.000Z</time></trkpt>
        <trkpt lat="53.46500371" lon="-1.71675023"><ele>518.28997803</ele><time>2015-05-25T09:56:00.000Z</time></trkpt>
        <trkpt lat="53.46497227" lon="-1.71691803"><ele>519.25000000</ele><time>2015-05-25T09:56:09.000Z</time></trkpt>
        <trkpt lat="53.46490857" lon="-1.71716949"><ele>519.72998047</ele><time>2015-05-25T09:56:24.000Z</time></trkpt>
        <trkpt lat="53.46485451" lon="-1.71730955"><ele>520.21002197</ele><time>2015-05-25T09:56:33.000Z</time></trkpt>
        <trkpt lat="53.46483666" lon="-1.71738097"><ele>520.21002197</ele><time>2015-05-25T09:56:37.000Z</time></trkpt>
        <trkpt lat="53.46463968" lon="-1.71757543"><ele>520.21002197</ele><time>2015-05-25T09:56:56.000Z</time></trkpt>
        <trkpt lat="53.46449685" lon="-1.71766360"><ele>519.72998047</ele><time>2015-05-25T09:57:09.000Z</time></trkpt>
        <trkpt lat="53.46436249" lon="-1.71776092"><ele>518.28997803</ele><time>2015-05-25T09:57:23.000Z</time></trkpt>
        <trkpt lat="53.46433827" lon="-1.71780827"><ele>516.84997559</ele><time>2015-05-25T09:57:37.000Z</time></trkpt>
        <trkpt lat="53.46433156" lon="-1.71781330"><ele>516.36999512</ele><time>2015-05-25T09:58:20.000Z</time></trkpt>
        <trkpt lat="53.46433475" lon="-1.71780970"><ele>516.36999512</ele><time>2015-05-25T09:58:33.000Z</time></trkpt>
        <trkpt lat="53.46422494" lon="-1.71781087"><ele>517.80999756</ele><time>2015-05-25T09:58:46.000Z</time></trkpt>
        <trkpt lat="53.46415428" lon="-1.71794808"><ele>518.28997803</ele><time>2015-05-25T09:58:56.000Z</time></trkpt>
        <trkpt lat="53.46401967" lon="-1.71812025"><ele>520.21002197</ele><time>2015-05-25T09:59:12.000Z</time></trkpt>
        <trkpt lat="53.46400307" lon="-1.71814313"><ele>520.21002197</ele><time>2015-05-25T09:59:14.000Z</time></trkpt>
        <trkpt lat="53.46386695" lon="-1.71827347"><ele>520.69000244</ele><time>2015-05-25T09:59:29.000Z</time></trkpt>
        <trkpt lat="53.46371281" lon="-1.71841680"><ele>522.13000488</ele><time>2015-05-25T09:59:45.000Z</time></trkpt>
        <trkpt lat="53.46369278" lon="-1.71842652"><ele>522.13000488</ele><time>2015-05-25T09:59:47.000Z</time></trkpt>
        <trkpt lat="53.46367484" lon="-1.71844136"><ele>522.13000488</ele><time>2015-05-25T09:59:49.000Z</time></trkpt>
        <trkpt lat="53.46356705" lon="-1.71850657"><ele>523.58001709</ele><time>2015-05-25T10:00:01.000Z</time></trkpt>
        <trkpt lat="53.46352933" lon="-1.71856768"><ele>523.58001709</ele><time>2015-05-25T10:00:06.000Z</time></trkpt>
        <trkpt lat="53.46342053" lon="-1.71871922"><ele>524.53997803</ele><time>2015-05-25T10:00:19.000Z</time></trkpt>
        <trkpt lat="53.46338885" lon="-1.71872785"><ele>525.50000000</ele><time>2015-05-25T10:00:22.000Z</time></trkpt>
        <trkpt lat="53.46325164" lon="-1.71885358"><ele>525.97998047</ele><time>2015-05-25T10:00:37.000Z</time></trkpt>
        <trkpt lat="53.46324694" lon="-1.71889834"><ele>526.46002197</ele><time>2015-05-25T10:00:40.000Z</time></trkpt>
        <trkpt lat="53.46310101" lon="-1.71900647"><ele>526.94000244</ele><time>2015-05-25T10:00:55.000Z</time></trkpt>
        <trkpt lat="53.46301175" lon="-1.71903916"><ele>526.46002197</ele><time>2015-05-25T10:01:03.000Z</time></trkpt>
        <trkpt lat="53.46295098" lon="-1.71905701"><ele>526.46002197</ele><time>2015-05-25T10:01:09.000Z</time></trkpt>
        <trkpt lat="53.46291837" lon="-1.71913262"><ele>526.46002197</ele><time>2015-05-25T10:01:14.000Z</time></trkpt>
        <trkpt lat="53.46288602" lon="-1.71917302"><ele>526.46002197</ele><time>2015-05-25T10:01:18.000Z</time></trkpt>
        <trkpt lat="53.46285953" lon="-1.71923504"><ele>526.46002197</ele><time>2015-05-25T10:01:22.000Z</time></trkpt>
        <trkpt lat="53.46276767" lon="-1.71929288"><ele>527.41998291</ele><time>2015-05-25T10:01:31.000Z</time></trkpt>
        <trkpt lat="53.46272777" lon="-1.71929338"><ele>527.41998291</ele><time>2015-05-25T10:01:35.000Z</time></trkpt>
        <trkpt lat="53.46265183" lon="-1.71931894"><ele>527.41998291</ele><time>2015-05-25T10:01:42.000Z</time></trkpt>
        <trkpt lat="53.46263121" lon="-1.71933487"><ele>527.90002441</ele><time>2015-05-25T10:01:44.000Z</time></trkpt>
        <trkpt lat="53.46259399" lon="-1.71942883"><ele>527.90002441</ele><time>2015-05-25T10:01:50.000Z</time></trkpt>
        <trkpt lat="53.46257497" lon="-1.71943143"><ele>527.90002441</ele><time>2015-05-25T10:01:52.000Z</time></trkpt>
        <trkpt lat="53.46253850" lon="-1.71939807"><ele>528.38000488</ele><time>2015-05-25T10:01:56.000Z</time></trkpt>
        <trkpt lat="53.46241269" lon="-1.71952665"><ele>527.90002441</ele><time>2015-05-25T10:02:09.000Z</time></trkpt>
        <trkpt lat="53.46233675" lon="-1.71954500"><ele>528.38000488</ele><time>2015-05-25T10:02:16.000Z</time></trkpt>
        <trkpt lat="53.46228529" lon="-1.71955246"><ele>528.85998535</ele><time>2015-05-25T10:02:21.000Z</time></trkpt>
        <trkpt lat="53.46225159" lon="-1.71955330"><ele>529.34002686</ele><time>2015-05-25T10:02:25.000Z</time></trkpt>
        <trkpt lat="53.46224899" lon="-1.71958339"><ele>529.34002686</ele><time>2015-05-25T10:02:27.000Z</time></trkpt>
        <trkpt lat="53.46222251" lon="-1.71967627"><ele>528.85998535</ele><time>2015-05-25T10:02:33.000Z</time></trkpt>
        <trkpt lat="53.46218370" lon="-1.71970753"><ele>529.34002686</ele><time>2015-05-25T10:02:37.000Z</time></trkpt>
        <trkpt lat="53.46211069" lon="-1.71971248"><ele>529.82000732</ele><time>2015-05-25T10:02:44.000Z</time></trkpt>
        <trkpt lat="53.46206417" lon="-1.71970560"><ele>530.29998779</ele><time>2015-05-25T10:02:49.000Z</time></trkpt>
        <trkpt lat="53.46203920" lon="-1.71972102"><ele>530.78997803</ele><time>2015-05-25T10:02:52.000Z</time></trkpt>
        <trkpt lat="53.46194934" lon="-1.71974055"><ele>530.78997803</ele><time>2015-05-25T10:03:01.000Z</time></trkpt>
        <trkpt lat="53.46184096" lon="-1.71975782"><ele>531.27001953</ele><time>2015-05-25T10:03:11.000Z</time></trkpt>
        <trkpt lat="53.46180911" lon="-1.71976511"><ele>531.75000000</ele><time>2015-05-25T10:03:14.000Z</time></trkpt>
        <trkpt lat="53.46179159" lon="-1.71978766"><ele>532.22998047</ele><time>2015-05-25T10:03:16.000Z</time></trkpt>
        <trkpt lat="53.46175890" lon="-1.71978515"><ele>531.75000000</ele><time>2015-05-25T10:03:19.000Z</time></trkpt>
        <trkpt lat="53.46171959" lon="-1.71983552"><ele>531.75000000</ele><time>2015-05-25T10:03:24.000Z</time></trkpt>
        <trkpt lat="53.46164298" lon="-1.71996846"><ele>531.27001953</ele><time>2015-05-25T10:03:35.000Z</time></trkpt>
        <trkpt lat="53.46157090" lon="-1.72002235"><ele>531.27001953</ele><time>2015-05-25T10:03:43.000Z</time></trkpt>
        <trkpt lat="53.46147752" lon="-1.72012176"><ele>531.27001953</ele><time>2015-05-25T10:03:53.000Z</time></trkpt>
        <trkpt lat="53.46140385" lon="-1.72023073"><ele>530.78997803</ele><time>2015-05-25T10:04:06.000Z</time></trkpt>
        <trkpt lat="53.46140427" lon="-1.72022637"><ele>531.27001953</ele><time>2015-05-25T10:04:27.000Z</time></trkpt>
        <trkpt lat="53.46139982" lon="-1.72023894"><ele>531.27001953</ele><time>2015-05-25T10:04:29.000Z</time></trkpt>
        <trkpt lat="53.46138675" lon="-1.72045126"><ele>531.27001953</ele><time>2015-05-25T10:04:42.000Z</time></trkpt>
        <trkpt lat="53.46136152" lon="-1.72052896"><ele>531.75000000</ele><time>2015-05-25T10:04:51.000Z</time></trkpt>
        <trkpt lat="53.46131550" lon="-1.72065879"><ele>531.75000000</ele><time>2015-05-25T10:05:00.000Z</time></trkpt>
        <trkpt lat="53.46127460" lon="-1.72082291"><ele>532.22998047</ele><time>2015-05-25T10:05:10.000Z</time></trkpt>
        <trkpt lat="53.46119304" lon="-1.72101804"><ele>532.22998047</ele><time>2015-05-25T10:05:24.000Z</time></trkpt>
        <trkpt lat="53.46108517" lon="-1.72120001"><ele>532.71002197</ele><time>2015-05-25T10:05:41.000Z</time></trkpt>
        <trkpt lat="53.46105549" lon="-1.72129741"><ele>532.22998047</ele><time>2015-05-25T10:05:59.000Z</time></trkpt>
        <trkpt lat="53.46102892" lon="-1.72136480"><ele>532.71002197</ele><time>2015-05-25T10:06:04.000Z</time></trkpt>
        <trkpt lat="53.46097545" lon="-1.72144208"><ele>532.71002197</ele><time>2015-05-25T10:06:19.000Z</time></trkpt>
        <trkpt lat="53.46095215" lon="-1.72147695"><ele>532.22998047</ele><time>2015-05-25T10:06:37.000Z</time></trkpt>
        <trkpt lat="53.46094209" lon="-1.72150025"><ele>532.71002197</ele><time>2015-05-25T10:06:53.000Z</time></trkpt>
        <trkpt lat="53.46094636" lon="-1.72151433"><ele>533.19000244</ele><time>2015-05-25T10:07:21.000Z</time></trkpt>
        <trkpt lat="53.46095072" lon="-1.72151987"><ele>533.66998291</ele><time>2015-05-25T10:07:52.000Z</time></trkpt>
        <trkpt lat="53.46095223" lon="-1.72152448"><ele>533.66998291</ele><time>2015-05-25T10:08:09.000Z</time></trkpt>
        <trkpt lat="53.46098525" lon="-1.72153118"><ele>534.15002441</ele><time>2015-05-25T10:08:20.000Z</time></trkpt>
        <trkpt lat="53.46098064" lon="-1.72153135"><ele>533.66998291</ele><time>2015-05-25T10:08:43.000Z</time></trkpt>
        <trkpt lat="53.46098031" lon="-1.72152858"><ele>533.66998291</ele><time>2015-05-25T10:09:20.000Z</time></trkpt>
        <trkpt lat="53.46097989" lon="-1.72152473"><ele>533.66998291</ele><time>2015-05-25T10:09:57.000Z</time></trkpt>
        <trkpt lat="53.46097838" lon="-1.72152221"><ele>534.15002441</ele><time>2015-05-25T10:10:35.000Z</time></trkpt>
        <trkpt lat="53.46097872" lon="-1.72152020"><ele>534.15002441</ele><time>2015-05-25T10:11:19.000Z</time></trkpt>
        <trkpt lat="53.46097930" lon="-1.72152163"><ele>534.15002441</ele><time>2015-05-25T10:11:52.000Z</time></trkpt>
        <trkpt lat="53.46097855" lon="-1.72152003"><ele>533.66998291</ele><time>2015-05-25T10:12:28.000Z</time></trkpt>
        <trkpt lat="53.46098601" lon="-1.72151090"><ele>533.66998291</ele><time>2015-05-25T10:12:40.000Z</time></trkpt>
        <trkpt lat="53.46098148" lon="-1.72150855"><ele>533.66998291</ele><time>2015-05-25T10:13:04.000Z</time></trkpt>
        <trkpt lat="53.46097704" lon="-1.72150905"><ele>533.66998291</ele><time>2015-05-25T10:13:29.000Z</time></trkpt>
        <trkpt lat="53.46098006" lon="-1.72151232"><ele>533.19000244</ele><time>2015-05-25T10:13:38.000Z</time></trkpt>
        <trkpt lat="53.46098215" lon="-1.72151023"><ele>533.19000244</ele><time>2015-05-25T10:13:46.000Z</time></trkpt>
        <trkpt lat="53.46098131" lon="-1.72151676"><ele>533.19000244</ele><time>2015-05-25T10:13:57.000Z</time></trkpt>
        <trkpt lat="53.46098098" lon="-1.72152188"><ele>533.19000244</ele><time>2015-05-25T10:14:27.000Z</time></trkpt>
        <trkpt lat="53.46098131" lon="-1.72152355"><ele>533.19000244</ele><time>2015-05-25T10:15:03.000Z</time></trkpt>
        <trkpt lat="53.46098173" lon="-1.72152640"><ele>533.19000244</ele><time>2015-05-25T10:15:52.000Z</time></trkpt>
        <trkpt lat="53.46098131" lon="-1.72152665"><ele>533.19000244</ele><time>2015-05-25T10:15:55.000Z</time></trkpt>
        <trkpt lat="53.46098567" lon="-1.72151861"><ele>533.19000244</ele><time>2015-05-25T10:16:06.000Z</time></trkpt>
        <trkpt lat="53.46099875" lon="-1.72152297"><ele>533.19000244</ele><time>2015-05-25T10:16:16.000Z</time></trkpt>
        <trkpt lat="53.46107201" lon="-1.72163587"><ele>532.22998047</ele><time>2015-05-25T10:16:29.000Z</time></trkpt>
        <trkpt lat="53.46115708" lon="-1.72169295"><ele>532.22998047</ele><time>2015-05-25T10:16:42.000Z</time></trkpt>
        <trkpt lat="53.46116672" lon="-1.72167233"><ele>532.22998047</ele><time>2015-05-25T10:16:44.000Z</time></trkpt>
        <trkpt lat="53.46122246" lon="-1.72156261"><ele>532.22998047</ele><time>2015-05-25T10:16:56.000Z</time></trkpt>
        <trkpt lat="53.46122716" lon="-1.72161056"><ele>532.22998047</ele><time>2015-05-25T10:17:00.000Z</time></trkpt>
        <trkpt lat="53.46123168" lon="-1.72164040"><ele>532.22998047</ele><time>2015-05-25T10:17:02.000Z</time></trkpt>
        <trkpt lat="53.46128675" lon="-1.72180921"><ele>532.22998047</ele><time>2015-05-25T10:17:15.000Z</time></trkpt>
        <trkpt lat="53.46129807" lon="-1.72184081"><ele>532.22998047</ele><time>2015-05-25T10:17:17.000Z</time></trkpt>
        <trkpt lat="53.46132606" lon="-1.72189781"><ele>531.75000000</ele><time>2015-05-25T10:17:21.000Z</time></trkpt>
        <trkpt lat="53.46145866" lon="-1.72196746"><ele>532.71002197</ele><time>2015-05-25T10:17:34.000Z</time></trkpt>
        <trkpt lat="53.46153712" lon="-1.72199227"><ele>532.22998047</ele><time>2015-05-25T10:17:43.000Z</time></trkpt>
        <trkpt lat="53.46156335" lon="-1.72196243"><ele>531.27001953</ele><time>2015-05-25T10:17:46.000Z</time></trkpt>
        <trkpt lat="53.46160996" lon="-1.72192278"><ele>530.78997803</ele><time>2015-05-25T10:17:52.000Z</time></trkpt>
        <trkpt lat="53.46165237" lon="-1.72190744"><ele>530.78997803</ele><time>2015-05-25T10:17:56.000Z</time></trkpt>
        <trkpt lat="53.46167626" lon="-1.72197291"><ele>530.29998779</ele><time>2015-05-25T10:18:01.000Z</time></trkpt>
        <trkpt lat="53.46170434" lon="-1.72202420"><ele>530.29998779</ele><time>2015-05-25T10:18:05.000Z</time></trkpt>
        <trkpt lat="53.46173393" lon="-1.72215111"><ele>530.29998779</ele><time>2015-05-25T10:18:13.000Z</time></trkpt>
        <trkpt lat="53.46186074" lon="-1.72236057"><ele>529.34002686</ele><time>2015-05-25T10:18:29.000Z</time></trkpt>
        <trkpt lat="53.46198622" lon="-1.72243869"><ele>529.82000732</ele><time>2015-05-25T10:18:44.000Z</time></trkpt>
        <trkpt lat="53.46201816" lon="-1.72245855"><ele>529.34002686</ele><time>2015-05-25T10:18:47.000Z</time></trkpt>
        <trkpt lat="53.46217766" lon="-1.72261496"><ele>528.38000488</ele><time>2015-05-25T10:19:03.000Z</time></trkpt>
        <trkpt lat="53.46218781" lon="-1.72262569"><ele>527.90002441</ele><time>2015-05-25T10:19:04.000Z</time></trkpt>
        <trkpt lat="53.46222544" lon="-1.72267196"><ele>527.90002441</ele><time>2015-05-25T10:19:09.000Z</time></trkpt>
        <trkpt lat="53.46229384" lon="-1.72266668"><ele>528.38000488</ele><time>2015-05-25T10:19:15.000Z</time></trkpt>
        <trkpt lat="53.46241118" lon="-1.72273382"><ele>528.85998535</ele><time>2015-05-25T10:19:26.000Z</time></trkpt>
        <trkpt lat="53.46247304" lon="-1.72288075"><ele>528.38000488</ele><time>2015-05-25T10:19:37.000Z</time></trkpt>
        <trkpt lat="53.46255133" lon="-1.72297404"><ele>527.41998291</ele><time>2015-05-25T10:19:46.000Z</time></trkpt>
        <trkpt lat="53.46259299" lon="-1.72301696"><ele>527.41998291</ele><time>2015-05-25T10:19:53.000Z</time></trkpt>
        <trkpt lat="53.46259911" lon="-1.72304864"><ele>527.41998291</ele><time>2015-05-25T10:19:55.000Z</time></trkpt>
        <trkpt lat="53.46263573" lon="-1.72313120"><ele>527.41998291</ele><time>2015-05-25T10:20:01.000Z</time></trkpt>
        <trkpt lat="53.46276230" lon="-1.72314805"><ele>527.90002441</ele><time>2015-05-25T10:20:14.000Z</time></trkpt>
        <trkpt lat="53.46278192" lon="-1.72316029"><ele>527.90002441</ele><time>2015-05-25T10:20:16.000Z</time></trkpt>
        <trkpt lat="53.46293430" lon="-1.72321284"><ele>526.94000244</ele><time>2015-05-25T10:20:31.000Z</time></trkpt>
        <trkpt lat="53.46294201" lon="-1.72322265"><ele>528.38000488</ele><time>2015-05-25T10:20:47.000Z</time></trkpt>
        <trkpt lat="53.46294235" lon="-1.72322416"><ele>527.90002441</ele><time>2015-05-25T10:21:18.000Z</time></trkpt>
        <trkpt lat="53.46297034" lon="-1.72324117"><ele>527.90002441</ele><time>2015-05-25T10:21:21.000Z</time></trkpt>
        <trkpt lat="53.46300052" lon="-1.72324880"><ele>527.90002441</ele><time>2015-05-25T10:21:24.000Z</time></trkpt>
        <trkpt lat="53.46302658" lon="-1.72327487"><ele>527.41998291</ele><time>2015-05-25T10:21:27.000Z</time></trkpt>
        <trkpt lat="53.46317276" lon="-1.72335039"><ele>526.94000244</ele><time>2015-05-25T10:21:41.000Z</time></trkpt>
        <trkpt lat="53.46318257" lon="-1.72335584"><ele>526.94000244</ele><time>2015-05-25T10:21:42.000Z</time></trkpt>
        <trkpt lat="53.46323772" lon="-1.72334754"><ele>526.46002197</ele><time>2015-05-25T10:21:47.000Z</time></trkpt>
        <trkpt lat="53.46326639" lon="-1.72338048"><ele>525.97998047</ele><time>2015-05-25T10:21:50.000Z</time></trkpt>
        <trkpt lat="53.46336915" lon="-1.72341418"><ele>525.50000000</ele><time>2015-05-25T10:22:00.000Z</time></trkpt>
        <trkpt lat="53.46353017" lon="-1.72352976"><ele>524.05999756</ele><time>2015-05-25T10:22:15.000Z</time></trkpt>
        <trkpt lat="53.46360368" lon="-1.72360696"><ele>523.58001709</ele><time>2015-05-25T10:22:23.000Z</time></trkpt>
        <trkpt lat="53.46365053" lon="-1.72362096"><ele>523.58001709</ele><time>2015-05-25T10:22:27.000Z</time></trkpt>
        <trkpt lat="53.46377400" lon="-1.72372573"><ele>524.53997803</ele><time>2015-05-25T10:22:40.000Z</time></trkpt>
        <trkpt lat="53.46391045" lon="-1.72384886"><ele>524.05999756</ele><time>2015-05-25T10:22:54.000Z</time></trkpt>
        <trkpt lat="53.46407893" lon="-1.72400518"><ele>523.58001709</ele><time>2015-05-25T10:23:10.000Z</time></trkpt>
        <trkpt lat="53.46417331" lon="-1.72413209"><ele>524.05999756</ele><time>2015-05-25T10:23:21.000Z</time></trkpt>
        <trkpt lat="53.46421354" lon="-1.72416897"><ele>523.58001709</ele><time>2015-05-25T10:23:25.000Z</time></trkpt>
        <trkpt lat="53.46432544" lon="-1.72434675"><ele>524.05999756</ele><time>2015-05-25T10:23:39.000Z</time></trkpt>
        <trkpt lat="53.46436040" lon="-1.72439083"><ele>524.05999756</ele><time>2015-05-25T10:23:43.000Z</time></trkpt>
        <trkpt lat="53.46444773" lon="-1.72453752"><ele>522.60998535</ele><time>2015-05-25T10:23:54.000Z</time></trkpt>
        <trkpt lat="53.46456802" lon="-1.72474044"><ele>524.05999756</ele><time>2015-05-25T10:24:09.000Z</time></trkpt>
        <trkpt lat="53.46458830" lon="-1.72482703"><ele>523.58001709</ele><time>2015-05-25T10:24:14.000Z</time></trkpt>
        <trkpt lat="53.46459526" lon="-1.72486240"><ele>523.58001709</ele><time>2015-05-25T10:24:16.000Z</time></trkpt>
        <trkpt lat="53.46459266" lon="-1.72492024"><ele>524.05999756</ele><time>2015-05-25T10:24:20.000Z</time></trkpt>
        <trkpt lat="53.46457229" lon="-1.72495812"><ele>523.58001709</ele><time>2015-05-25T10:24:23.000Z</time></trkpt>
        <trkpt lat="53.46457489" lon="-1.72504697"><ele>523.09002686</ele><time>2015-05-25T10:24:28.000Z</time></trkpt>
        <trkpt lat="53.46459484" lon="-1.72506197"><ele>523.09002686</ele><time>2015-05-25T10:24:30.000Z</time></trkpt>
        <trkpt lat="53.46468461" lon="-1.72509148"><ele>522.60998535</ele><time>2015-05-25T10:24:37.000Z</time></trkpt>
        <trkpt lat="53.46476281" lon="-1.72514412"><ele>523.09002686</ele><time>2015-05-25T10:24:45.000Z</time></trkpt>
        <trkpt lat="53.46483959" lon="-1.72535601"><ele>523.09002686</ele><time>2015-05-25T10:24:59.000Z</time></trkpt>
        <trkpt lat="53.46486012" lon="-1.72539515"><ele>522.60998535</ele><time>2015-05-25T10:25:02.000Z</time></trkpt>
        <trkpt lat="53.46485878" lon="-1.72544595"><ele>523.09002686</ele><time>2015-05-25T10:25:05.000Z</time></trkpt>
        <trkpt lat="53.46485803" lon="-1.72549943"><ele>522.60998535</ele><time>2015-05-25T10:25:13.000Z</time></trkpt>
        <trkpt lat="53.46485719" lon="-1.72551309"><ele>523.09002686</ele><time>2015-05-25T10:25:24.000Z</time></trkpt>
        <trkpt lat="53.46487815" lon="-1.72552859"><ele>522.60998535</ele><time>2015-05-25T10:25:26.000Z</time></trkpt>
        <trkpt lat="53.46492559" lon="-1.72560504"><ele>522.13000488</ele><time>2015-05-25T10:25:32.000Z</time></trkpt>
        <trkpt lat="53.46498401" lon="-1.72570579"><ele>521.65002441</ele><time>2015-05-25T10:25:40.000Z</time></trkpt>
        <trkpt lat="53.46506121" lon="-1.72589086"><ele>521.65002441</ele><time>2015-05-25T10:25:53.000Z</time></trkpt>
        <trkpt lat="53.46507562" lon="-1.72592305"><ele>521.65002441</ele><time>2015-05-25T10:25:55.000Z</time></trkpt>
        <trkpt lat="53.46513245" lon="-1.72600393"><ele>522.13000488</ele><time>2015-05-25T10:26:03.000Z</time></trkpt>
        <trkpt lat="53.46516279" lon="-1.72606696"><ele>522.13000488</ele><time>2015-05-25T10:26:09.000Z</time></trkpt>
        <trkpt lat="53.46523999" lon="-1.72601583"><ele>521.65002441</ele><time>2015-05-25T10:26:17.000Z</time></trkpt>
        <trkpt lat="53.46526254" lon="-1.72603779"><ele>521.16998291</ele><time>2015-05-25T10:26:21.000Z</time></trkpt>
        <trkpt lat="53.46526220" lon="-1.72614944"><ele>520.21002197</ele><time>2015-05-25T10:26:35.000Z</time></trkpt>
        <trkpt lat="53.46523111" lon="-1.72614659"><ele>520.69000244</ele><time>2015-05-25T10:26:45.000Z</time></trkpt>
        <trkpt lat="53.46519833" lon="-1.72613611"><ele>521.65002441</ele><time>2015-05-25T10:26:52.000Z</time></trkpt>
        <trkpt lat="53.46517067" lon="-1.72610871"><ele>522.60998535</ele><time>2015-05-25T10:26:59.000Z</time></trkpt>
        <trkpt lat="53.46513798" lon="-1.72615984"><ele>522.60998535</ele><time>2015-05-25T10:27:07.000Z</time></trkpt>
        <trkpt lat="53.46512667" lon="-1.72623175"><ele>523.09002686</ele><time>2015-05-25T10:27:12.000Z</time></trkpt>
        <trkpt lat="53.46509540" lon="-1.72627743"><ele>524.05999756</ele><time>2015-05-25T10:27:16.000Z</time></trkpt>
        <trkpt lat="53.46507839" lon="-1.72634340"><ele>524.53997803</ele><time>2015-05-25T10:27:21.000Z</time></trkpt>
        <trkpt lat="53.46518585" lon="-1.72639377"><ele>523.58001709</ele><time>2015-05-25T10:27:33.000Z</time></trkpt>
        <trkpt lat="53.46519372" lon="-1.72639964"><ele>523.58001709</ele><time>2015-05-25T10:27:34.000Z</time></trkpt>
        <trkpt lat="53.46522583" lon="-1.72644147"><ele>523.58001709</ele><time>2015-05-25T10:27:38.000Z</time></trkpt>
        <trkpt lat="53.46526346" lon="-1.72653694"><ele>522.60998535</ele><time>2015-05-25T10:27:44.000Z</time></trkpt>
        <trkpt lat="53.46529464" lon="-1.72658346"><ele>522.13000488</ele><time>2015-05-25T10:27:48.000Z</time></trkpt>
        <trkpt lat="53.46536270" lon="-1.72668572"><ele>522.60998535</ele><time>2015-05-25T10:27:57.000Z</time></trkpt>
        <trkpt lat="53.46538827" lon="-1.72678504"><ele>523.09002686</ele><time>2015-05-25T10:28:03.000Z</time></trkpt>
        <trkpt lat="53.46546362" lon="-1.72705812"><ele>522.60998535</ele><time>2015-05-25T10:28:19.000Z</time></trkpt>
        <trkpt lat="53.46549371" lon="-1.72717832"><ele>522.13000488</ele><time>2015-05-25T10:28:26.000Z</time></trkpt>
        <trkpt lat="53.46551676" lon="-1.72724496"><ele>522.13000488</ele><time>2015-05-25T10:28:30.000Z</time></trkpt>
        <trkpt lat="53.46554685" lon="-1.72738904"><ele>522.13000488</ele><time>2015-05-25T10:28:38.000Z</time></trkpt>
        <trkpt lat="53.46558130" lon="-1.72743062"><ele>522.60998535</ele><time>2015-05-25T10:28:42.000Z</time></trkpt>
        <trkpt lat="53.46559706" lon="-1.72752064"><ele>523.09002686</ele><time>2015-05-25T10:28:47.000Z</time></trkpt>
        <trkpt lat="53.46566185" lon="-1.72767956"><ele>523.09002686</ele><time>2015-05-25T10:28:57.000Z</time></trkpt>
        <trkpt lat="53.46567091" lon="-1.72772164"><ele>523.09002686</ele><time>2015-05-25T10:29:00.000Z</time></trkpt>
        <trkpt lat="53.46568348" lon="-1.72785952"><ele>522.60998535</ele><time>2015-05-25T10:29:08.000Z</time></trkpt>
        <trkpt lat="53.46570737" lon="-1.72788475"><ele>522.60998535</ele><time>2015-05-25T10:29:11.000Z</time></trkpt>
        <trkpt lat="53.46577023" lon="-1.72787217"><ele>523.09002686</ele><time>2015-05-25T10:29:17.000Z</time></trkpt>
        <trkpt lat="53.46586562" lon="-1.72795071"><ele>524.05999756</ele><time>2015-05-25T10:29:36.000Z</time></trkpt>
        <trkpt lat="53.46591909" lon="-1.72801735"><ele>525.02001953</ele><time>2015-05-25T10:29:48.000Z</time></trkpt>
        <trkpt lat="53.46601423" lon="-1.72815381"><ele>525.02001953</ele><time>2015-05-25T10:29:59.000Z</time></trkpt>
        <trkpt lat="53.46603703" lon="-1.72816789"><ele>525.50000000</ele><time>2015-05-25T10:30:01.000Z</time></trkpt>
        <trkpt lat="53.46613023" lon="-1.72825322"><ele>525.97998047</ele><time>2015-05-25T10:30:10.000Z</time></trkpt>
        <trkpt lat="53.46621741" lon="-1.72840786"><ele>526.46002197</ele><time>2015-05-25T10:30:21.000Z</time></trkpt>
        <trkpt lat="53.46628438" lon="-1.72856159"><ele>527.41998291</ele><time>2015-05-25T10:30:32.000Z</time></trkpt>
        <trkpt lat="53.46628865" lon="-1.72866041"><ele>527.90002441</ele><time>2015-05-25T10:30:38.000Z</time></trkpt>
        <trkpt lat="53.46628555" lon="-1.72877700"><ele>528.38000488</ele><time>2015-05-25T10:30:45.000Z</time></trkpt>
        <trkpt lat="53.46631614" lon="-1.72889083"><ele>527.90002441</ele><time>2015-05-25T10:30:53.000Z</time></trkpt>
        <trkpt lat="53.46637457" lon="-1.72894942"><ele>528.85998535</ele><time>2015-05-25T10:30:59.000Z</time></trkpt>
        <trkpt lat="53.46640675" lon="-1.72903550"><ele>528.85998535</ele><time>2015-05-25T10:31:04.000Z</time></trkpt>
        <trkpt lat="53.46647699" lon="-1.72932057"><ele>529.34002686</ele><time>2015-05-25T10:31:20.000Z</time></trkpt>
        <trkpt lat="53.46652905" lon="-1.72955710"><ele>530.29998779</ele><time>2015-05-25T10:31:34.000Z</time></trkpt>
        <trkpt lat="53.46653307" lon="-1.72969859"><ele>531.27001953</ele><time>2015-05-25T10:31:42.000Z</time></trkpt>
        <trkpt lat="53.46657389" lon="-1.72982600"><ele>531.75000000</ele><time>2015-05-25T10:31:50.000Z</time></trkpt>
        <trkpt lat="53.46669341" lon="-1.72990655"><ele>531.27001953</ele><time>2015-05-25T10:32:02.000Z</time></trkpt>
        <trkpt lat="53.46674798" lon="-1.72990336"><ele>532.71002197</ele><time>2015-05-25T10:32:13.000Z</time></trkpt>
        <trkpt lat="53.46677430" lon="-1.72992004"><ele>533.19000244</ele><time>2015-05-25T10:32:30.000Z</time></trkpt>
        <trkpt lat="53.46678386" lon="-1.72994158"><ele>533.19000244</ele><time>2015-05-25T10:32:41.000Z</time></trkpt>
        <trkpt lat="53.46680523" lon="-1.72997855"><ele>532.71002197</ele><time>2015-05-25T10:32:57.000Z</time></trkpt>
        <trkpt lat="53.46678436" lon="-1.73000545"><ele>532.71002197</ele><time>2015-05-25T10:33:16.000Z</time></trkpt>
        <trkpt lat="53.46678553" lon="-1.73000922"><ele>532.71002197</ele><time>2015-05-25T10:33:34.000Z</time></trkpt>
        <trkpt lat="53.46678176" lon="-1.73004284"><ele>532.71002197</ele><time>2015-05-25T10:33:36.000Z</time></trkpt>
        <trkpt lat="53.46678805" lon="-1.73007485"><ele>532.71002197</ele><time>2015-05-25T10:33:38.000Z</time></trkpt>
        <trkpt lat="53.46676759" lon="-1.73013160"><ele>532.71002197</ele><time>2015-05-25T10:33:42.000Z</time></trkpt>
        <trkpt lat="53.46677061" lon="-1.73019379"><ele>532.71002197</ele><time>2015-05-25T10:33:46.000Z</time></trkpt>
        <trkpt lat="53.46684303" lon="-1.73028851"><ele>533.66998291</ele><time>2015-05-25T10:33:55.000Z</time></trkpt>
        <trkpt lat="53.46694194" lon="-1.73049160"><ele>534.63000488</ele><time>2015-05-25T10:34:10.000Z</time></trkpt>
        <trkpt lat="53.46698385" lon="-1.73060300"><ele>535.10998535</ele><time>2015-05-25T10:34:18.000Z</time></trkpt>
        <trkpt lat="53.46699391" lon="-1.73063762"><ele>535.10998535</ele><time>2015-05-25T10:34:20.000Z</time></trkpt>
        <trkpt lat="53.46701251" lon="-1.73066729"><ele>535.10998535</ele><time>2015-05-25T10:34:23.000Z</time></trkpt>
        <trkpt lat="53.46703397" lon="-1.73068732"><ele>535.10998535</ele><time>2015-05-25T10:34:26.000Z</time></trkpt>
        <trkpt lat="53.46706809" lon="-1.73073434"><ele>535.59002686</ele><time>2015-05-25T10:34:31.000Z</time></trkpt>
        <trkpt lat="53.46709449" lon="-1.73077919"><ele>536.07000732</ele><time>2015-05-25T10:34:35.000Z</time></trkpt>
        <trkpt lat="53.46709566" lon="-1.73081372"><ele>536.07000732</ele><time>2015-05-25T10:34:37.000Z</time></trkpt>
        <trkpt lat="53.46722030" lon="-1.73103257"><ele>536.07000732</ele><time>2015-05-25T10:34:54.000Z</time></trkpt>
        <trkpt lat="53.46724000" lon="-1.73111002"><ele>536.54998779</ele><time>2015-05-25T10:34:59.000Z</time></trkpt>
        <trkpt lat="53.46729406" lon="-1.73126852"><ele>536.07000732</ele><time>2015-05-25T10:35:10.000Z</time></trkpt>
        <trkpt lat="53.46732038" lon="-1.73132870"><ele>536.07000732</ele><time>2015-05-25T10:35:14.000Z</time></trkpt>
        <trkpt lat="53.46735056" lon="-1.73132719"><ele>536.54998779</ele><time>2015-05-25T10:35:17.000Z</time></trkpt>
        <trkpt lat="53.46748240" lon="-1.73134790"><ele>539.44000244</ele><time>2015-05-25T10:35:30.000Z</time></trkpt>
        <trkpt lat="53.46750068" lon="-1.73140523"><ele>539.44000244</ele><time>2015-05-25T10:35:34.000Z</time></trkpt>
        <trkpt lat="53.46752046" lon="-1.73154395"><ele>539.91998291</ele><time>2015-05-25T10:35:43.000Z</time></trkpt>
        <trkpt lat="53.46754627" lon="-1.73164780"><ele>540.40002441</ele><time>2015-05-25T10:35:50.000Z</time></trkpt>
        <trkpt lat="53.46755491" lon="-1.73171846"><ele>539.44000244</ele><time>2015-05-25T10:35:54.000Z</time></trkpt>
        <trkpt lat="53.46756656" lon="-1.73179608"><ele>538.47998047</ele><time>2015-05-25T10:35:59.000Z</time></trkpt>
        <trkpt lat="53.46765205" lon="-1.73205215"><ele>537.98999023</ele><time>2015-05-25T10:36:15.000Z</time></trkpt>
        <trkpt lat="53.46767007" lon="-1.73207779"><ele>537.98999023</ele><time>2015-05-25T10:36:17.000Z</time></trkpt>
        <trkpt lat="53.46779664" lon="-1.73226245"><ele>537.98999023</ele><time>2015-05-25T10:36:32.000Z</time></trkpt>
        <trkpt lat="53.46786378" lon="-1.73242279"><ele>537.98999023</ele><time>2015-05-25T10:36:43.000Z</time></trkpt>
        <trkpt lat="53.46791918" lon="-1.73252899"><ele>539.91998291</ele><time>2015-05-25T10:36:51.000Z</time></trkpt>
        <trkpt lat="53.46795967" lon="-1.73266210"><ele>539.91998291</ele><time>2015-05-25T10:36:59.000Z</time></trkpt>
        <trkpt lat="53.46798808" lon="-1.73271826"><ele>540.40002441</ele><time>2015-05-25T10:37:03.000Z</time></trkpt>
        <trkpt lat="53.46802521" lon="-1.73279881"><ele>541.35998535</ele><time>2015-05-25T10:37:09.000Z</time></trkpt>
        <trkpt lat="53.46814139" lon="-1.73302788"><ele>542.79998779</ele><time>2015-05-25T10:37:25.000Z</time></trkpt>
        <trkpt lat="53.46824759" lon="-1.73332267"><ele>543.76000977</ele><time>2015-05-25T10:37:43.000Z</time></trkpt>
        <trkpt lat="53.46826561" lon="-1.73335117"><ele>543.76000977</ele><time>2015-05-25T10:37:45.000Z</time></trkpt>
        <trkpt lat="53.46827793" lon="-1.73337967"><ele>543.76000977</ele><time>2015-05-25T10:37:47.000Z</time></trkpt>
        <trkpt lat="53.46838304" lon="-1.73356223"><ele>545.20001221</ele><time>2015-05-25T10:38:01.000Z</time></trkpt>
        <trkpt lat="53.46839762" lon="-1.73362602"><ele>546.16998291</ele><time>2015-05-25T10:38:06.000Z</time></trkpt>
        <trkpt lat="53.46841372" lon="-1.73364764"><ele>546.16998291</ele><time>2015-05-25T10:38:08.000Z</time></trkpt>
        <trkpt lat="53.46849100" lon="-1.73372325"><ele>546.65002441</ele><time>2015-05-25T10:38:16.000Z</time></trkpt>
        <trkpt lat="53.46851380" lon="-1.73380581"><ele>547.13000488</ele><time>2015-05-25T10:38:21.000Z</time></trkpt>
        <trkpt lat="53.46853810" lon="-1.73383875"><ele>547.13000488</ele><time>2015-05-25T10:38:24.000Z</time></trkpt>
        <trkpt lat="53.46861203" lon="-1.73385903"><ele>547.13000488</ele><time>2015-05-25T10:38:31.000Z</time></trkpt>
        <trkpt lat="53.46863022" lon="-1.73387940"><ele>547.13000488</ele><time>2015-05-25T10:38:33.000Z</time></trkpt>
        <trkpt lat="53.46868940" lon="-1.73407118"><ele>547.13000488</ele><time>2015-05-25T10:38:45.000Z</time></trkpt>
        <trkpt lat="53.46875637" lon="-1.73411082"><ele>547.60998535</ele><time>2015-05-25T10:38:51.000Z</time></trkpt>
        <trkpt lat="53.46882317" lon="-1.73426212"><ele>547.13000488</ele><time>2015-05-25T10:39:02.000Z</time></trkpt>
        <trkpt lat="53.46892116" lon="-1.73438609"><ele>546.16998291</ele><time>2015-05-25T10:39:13.000Z</time></trkpt>
        <trkpt lat="53.46906407" lon="-1.73458423"><ele>547.13000488</ele><time>2015-05-25T10:39:30.000Z</time></trkpt>
        <trkpt lat="53.46913003" lon="-1.73464199"><ele>546.65002441</ele><time>2015-05-25T10:39:42.000Z</time></trkpt>
        <trkpt lat="53.46919692" lon="-1.73471457"><ele>544.71997070</ele><time>2015-05-25T10:39:55.000Z</time></trkpt>
        <trkpt lat="53.46920757" lon="-1.73472254"><ele>544.71997070</ele><time>2015-05-25T10:40:10.000Z</time></trkpt>
        <trkpt lat="53.46921469" lon="-1.73472689"><ele>545.69000244</ele><time>2015-05-25T10:40:32.000Z</time></trkpt>
        <trkpt lat="53.46921905" lon="-1.73472564"><ele>546.16998291</ele><time>2015-05-25T10:41:06.000Z</time></trkpt>
        <trkpt lat="53.46921964" lon="-1.73473033"><ele>546.65002441</ele><time>2015-05-25T10:41:37.000Z</time></trkpt>
        <trkpt lat="53.46921980" lon="-1.73472689"><ele>545.69000244</ele><time>2015-05-25T10:42:08.000Z</time></trkpt>
        <trkpt lat="53.46920002" lon="-1.73473293"><ele>545.20001221</ele><time>2015-05-25T10:42:22.000Z</time></trkpt>
        <trkpt lat="53.46919985" lon="-1.73473662"><ele>545.20001221</ele><time>2015-05-25T10:42:41.000Z</time></trkpt>
        <trkpt lat="53.46925409" lon="-1.73481868"><ele>544.71997070</ele><time>2015-05-25T10:42:51.000Z</time></trkpt>
        <trkpt lat="53.46929499" lon="-1.73484139"><ele>544.71997070</ele><time>2015-05-25T10:42:55.000Z</time></trkpt>
        <trkpt lat="53.46944670" lon="-1.73492923"><ele>545.69000244</ele><time>2015-05-25T10:43:09.000Z</time></trkpt>
        <trkpt lat="53.46957218" lon="-1.73505924"><ele>544.71997070</ele><time>2015-05-25T10:43:23.000Z</time></trkpt>
        <trkpt lat="53.46963898" lon="-1.73508807"><ele>544.23999023</ele><time>2015-05-25T10:43:34.000Z</time></trkpt>
        <trkpt lat="53.46968123" lon="-1.73514054"><ele>545.20001221</ele><time>2015-05-25T10:43:39.000Z</time></trkpt>
        <trkpt lat="53.46982598" lon="-1.73532587"><ele>544.23999023</ele><time>2015-05-25T10:43:55.000Z</time></trkpt>
        <trkpt lat="53.46985666" lon="-1.73535244"><ele>544.23999023</ele><time>2015-05-25T10:43:58.000Z</time></trkpt>
        <trkpt lat="53.46992170" lon="-1.73538345"><ele>544.71997070</ele><time>2015-05-25T10:44:04.000Z</time></trkpt>
        <trkpt lat="53.46999966" lon="-1.73541983"><ele>543.28002930</ele><time>2015-05-25T10:44:11.000Z</time></trkpt>
        <trkpt lat="53.47002916" lon="-1.73544950"><ele>542.79998779</ele><time>2015-05-25T10:44:14.000Z</time></trkpt>
        <trkpt lat="53.47012740" lon="-1.73549552"><ele>540.88000488</ele><time>2015-05-25T10:44:23.000Z</time></trkpt>
        <trkpt lat="53.47017224" lon="-1.73549920"><ele>540.40002441</ele><time>2015-05-25T10:44:27.000Z</time></trkpt>
        <trkpt lat="53.47021733" lon="-1.73550440"><ele>540.40002441</ele><time>2015-05-25T10:44:31.000Z</time></trkpt>
        <trkpt lat="53.47037475" lon="-1.73564144"><ele>539.44000244</ele><time>2015-05-25T10:44:47.000Z</time></trkpt>
        <trkpt lat="53.47052294" lon="-1.73567497"><ele>538.47998047</ele><time>2015-05-25T10:45:00.000Z</time></trkpt>
        <trkpt lat="53.47067641" lon="-1.73570573"><ele>538.47998047</ele><time>2015-05-25T10:45:13.000Z</time></trkpt>
        <trkpt lat="53.47075009" lon="-1.73574773"><ele>537.98999023</ele><time>2015-05-25T10:45:20.000Z</time></trkpt>
        <trkpt lat="53.47081672" lon="-1.73568361"><ele>537.98999023</ele><time>2015-05-25T10:45:27.000Z</time></trkpt>
        <trkpt lat="53.47103993" lon="-1.73564564"><ele>536.07000732</ele><time>2015-05-25T10:45:46.000Z</time></trkpt>
        <trkpt lat="53.47112484" lon="-1.73566106"><ele>534.63000488</ele><time>2015-05-25T10:45:53.000Z</time></trkpt>
        <trkpt lat="53.47129039" lon="-1.73566332"><ele>533.19000244</ele><time>2015-05-25T10:46:07.000Z</time></trkpt>
        <trkpt lat="53.47135023" lon="-1.73567095"><ele>532.71002197</ele><time>2015-05-25T10:46:12.000Z</time></trkpt>
        <trkpt lat="53.47141033" lon="-1.73566525"><ele>532.22998047</ele><time>2015-05-25T10:46:17.000Z</time></trkpt>
        <trkpt lat="53.47145492" lon="-1.73568226"><ele>531.75000000</ele><time>2015-05-25T10:46:21.000Z</time></trkpt>
        <trkpt lat="53.47160705" lon="-1.73576063"><ele>529.82000732</ele><time>2015-05-25T10:46:34.000Z</time></trkpt>
        <trkpt lat="53.47168551" lon="-1.73579928"><ele>530.78997803</ele><time>2015-05-25T10:46:41.000Z</time></trkpt>
        <trkpt lat="53.47180168" lon="-1.73580137"><ele>530.29998779</ele><time>2015-05-25T10:46:51.000Z</time></trkpt>
        <trkpt lat="53.47197628" lon="-1.73588092"><ele>529.34002686</ele><time>2015-05-25T10:47:06.000Z</time></trkpt>
        <trkpt lat="53.47213143" lon="-1.73588175"><ele>527.90002441</ele><time>2015-05-25T10:47:20.000Z</time></trkpt>
        <trkpt lat="53.47226319" lon="-1.73587530"><ele>526.94000244</ele><time>2015-05-25T10:47:31.000Z</time></trkpt>
        <trkpt lat="53.47239177" lon="-1.73589592"><ele>526.46002197</ele><time>2015-05-25T10:47:42.000Z</time></trkpt>
        <trkpt lat="53.47242454" lon="-1.73588787"><ele>526.46002197</ele><time>2015-05-25T10:47:45.000Z</time></trkpt>
        <trkpt lat="53.47245765" lon="-1.73589659"><ele>526.94000244</ele><time>2015-05-25T10:47:48.000Z</time></trkpt>
        <trkpt lat="53.47251356" lon="-1.73590941"><ele>525.97998047</ele><time>2015-05-25T10:47:53.000Z</time></trkpt>
        <trkpt lat="53.47254968" lon="-1.73595937"><ele>525.97998047</ele><time>2015-05-25T10:47:57.000Z</time></trkpt>
        <trkpt lat="53.47255136" lon="-1.73599172"><ele>525.97998047</ele><time>2015-05-25T10:47:59.000Z</time></trkpt>
        <trkpt lat="53.47265932" lon="-1.73601972"><ele>525.50000000</ele><time>2015-05-25T10:48:09.000Z</time></trkpt>
        <trkpt lat="53.47274381" lon="-1.73603171"><ele>525.02001953</ele><time>2015-05-25T10:48:16.000Z</time></trkpt>
        <trkpt lat="53.47284162" lon="-1.73603715"><ele>522.60998535</ele><time>2015-05-25T10:48:25.000Z</time></trkpt>
        <trkpt lat="53.47295805" lon="-1.73601930"><ele>522.13000488</ele><time>2015-05-25T10:48:36.000Z</time></trkpt>
        <trkpt lat="53.47302603" lon="-1.73603028"><ele>520.69000244</ele><time>2015-05-25T10:48:42.000Z</time></trkpt>
        <trkpt lat="53.47305737" lon="-1.73603204"><ele>519.72998047</ele><time>2015-05-25T10:48:45.000Z</time></trkpt>
        <trkpt lat="53.47313943" lon="-1.73601896"><ele>519.72998047</ele><time>2015-05-25T10:48:52.000Z</time></trkpt>
        <trkpt lat="53.47318528" lon="-1.73601829"><ele>519.72998047</ele><time>2015-05-25T10:48:56.000Z</time></trkpt>
        <trkpt lat="53.47325016" lon="-1.73601310"><ele>518.77001953</ele><time>2015-05-25T10:49:11.000Z</time></trkpt>
        <trkpt lat="53.47326139" lon="-1.73601536"><ele>519.25000000</ele><time>2015-05-25T10:49:45.000Z</time></trkpt>
        <trkpt lat="53.47345359" lon="-1.73611368"><ele>519.25000000</ele><time>2015-05-25T10:50:02.000Z</time></trkpt>
        <trkpt lat="53.47353824" lon="-1.73609566"><ele>518.77001953</ele><time>2015-05-25T10:50:09.000Z</time></trkpt>
        <trkpt lat="53.47360966" lon="-1.73605526"><ele>520.21002197</ele><time>2015-05-25T10:50:15.000Z</time></trkpt>
        <trkpt lat="53.47371519" lon="-1.73606666"><ele>519.72998047</ele><time>2015-05-25T10:50:24.000Z</time></trkpt>
        <trkpt lat="53.47376372" lon="-1.73606984"><ele>520.21002197</ele><time>2015-05-25T10:50:28.000Z</time></trkpt>
        <trkpt lat="53.47389045" lon="-1.73613774"><ele>518.77001953</ele><time>2015-05-25T10:50:39.000Z</time></trkpt>
        <trkpt lat="53.47390839" lon="-1.73616045"><ele>518.77001953</ele><time>2015-05-25T10:50:41.000Z</time></trkpt>
        <trkpt lat="53.47397209" lon="-1.73616833"><ele>519.25000000</ele><time>2015-05-25T10:50:47.000Z</time></trkpt>
        <trkpt lat="53.47402775" lon="-1.73614905"><ele>519.72998047</ele><time>2015-05-25T10:50:52.000Z</time></trkpt>
        <trkpt lat="53.47405323" lon="-1.73615023"><ele>519.72998047</ele><time>2015-05-25T10:50:54.000Z</time></trkpt>
        <trkpt lat="53.47411031" lon="-1.73609080"><ele>519.25000000</ele><time>2015-05-25T10:51:00.000Z</time></trkpt>
        <trkpt lat="53.47425389" lon="-1.73615123"><ele>517.80999756</ele><time>2015-05-25T10:51:13.000Z</time></trkpt>
        <trkpt lat="53.47434810" lon="-1.73614494"><ele>518.28997803</ele><time>2015-05-25T10:51:21.000Z</time></trkpt>
        <trkpt lat="53.47438306" lon="-1.73617546"><ele>517.33001709</ele><time>2015-05-25T10:51:25.000Z</time></trkpt>
        <trkpt lat="53.47451239" lon="-1.73620253"><ele>517.33001709</ele><time>2015-05-25T10:51:37.000Z</time></trkpt>
        <trkpt lat="53.47450510" lon="-1.73631703"><ele>516.36999512</ele><time>2015-05-25T10:51:44.000Z</time></trkpt>
        <trkpt lat="53.47452119" lon="-1.73634024"><ele>515.88000488</ele><time>2015-05-25T10:51:46.000Z</time></trkpt>
        <trkpt lat="53.47464122" lon="-1.73631971"><ele>514.44000244</ele><time>2015-05-25T10:51:56.000Z</time></trkpt>
        <trkpt lat="53.47469981" lon="-1.73629506"><ele>514.91998291</ele><time>2015-05-25T10:52:01.000Z</time></trkpt>
        <trkpt lat="53.47474608" lon="-1.73630202"><ele>515.40002441</ele><time>2015-05-25T10:52:05.000Z</time></trkpt>
        <trkpt lat="53.47478690" lon="-1.73633002"><ele>514.44000244</ele><time>2015-05-25T10:52:09.000Z</time></trkpt>
        <trkpt lat="53.47485119" lon="-1.73641409"><ele>513.96002197</ele><time>2015-05-25T10:52:16.000Z</time></trkpt>
        <trkpt lat="53.47486904" lon="-1.73646396"><ele>513.00000000</ele><time>2015-05-25T10:52:20.000Z</time></trkpt>
        <trkpt lat="53.47505704" lon="-1.73649707"><ele>512.03997803</ele><time>2015-05-25T10:52:36.000Z</time></trkpt>
        <trkpt lat="53.47512092" lon="-1.73652867"><ele>511.07998657</ele><time>2015-05-25T10:52:43.000Z</time></trkpt>
        <trkpt lat="53.47513525" lon="-1.73649372"><ele>510.60000610</ele><time>2015-05-25T10:52:46.000Z</time></trkpt>
        <trkpt lat="53.47513441" lon="-1.73646061"><ele>510.60000610</ele><time>2015-05-25T10:53:03.000Z</time></trkpt>
        <trkpt lat="53.47514011" lon="-1.73645005"><ele>511.07998657</ele><time>2015-05-25T10:53:14.000Z</time></trkpt>
        <trkpt lat="53.47513424" lon="-1.73648022"><ele>511.07998657</ele><time>2015-05-25T10:53:24.000Z</time></trkpt>
        <trkpt lat="53.47510348" lon="-1.73654686"><ele>511.07998657</ele><time>2015-05-25T10:53:33.000Z</time></trkpt>
        <trkpt lat="53.47508353" lon="-1.73652641"><ele>511.07998657</ele><time>2015-05-25T10:53:47.000Z</time></trkpt>
        <trkpt lat="53.47512418" lon="-1.73651978"><ele>510.60000610</ele><time>2015-05-25T10:53:54.000Z</time></trkpt>
        <trkpt lat="53.47513139" lon="-1.73647578"><ele>510.60000610</ele><time>2015-05-25T10:54:08.000Z</time></trkpt>
        <trkpt lat="53.47513190" lon="-1.73647595"><ele>511.07998657</ele><time>2015-05-25T10:54:28.000Z</time></trkpt>
        <trkpt lat="53.47513240" lon="-1.73647854"><ele>511.07998657</ele><time>2015-05-25T10:54:54.000Z</time></trkpt>
        <trkpt lat="53.47513273" lon="-1.73648156"><ele>511.07998657</ele><time>2015-05-25T10:55:23.000Z</time></trkpt>
        <trkpt lat="53.47513223" lon="-1.73647854"><ele>511.07998657</ele><time>2015-05-25T10:55:39.000Z</time></trkpt>
        <trkpt lat="53.47513231" lon="-1.73648282"><ele>511.55999756</ele><time>2015-05-25T10:55:52.000Z</time></trkpt>
        <trkpt lat="53.47513106" lon="-1.73648475"><ele>511.55999756</ele><time>2015-05-25T10:56:07.000Z</time></trkpt>
        <trkpt lat="53.47513072" lon="-1.73648383"><ele>511.55999756</ele><time>2015-05-25T10:56:32.000Z</time></trkpt>
        <trkpt lat="53.47510256" lon="-1.73643622"><ele>512.03997803</ele><time>2015-05-25T10:56:57.000Z</time></trkpt>
        <trkpt lat="53.47511295" lon="-1.73635399"><ele>513.47998047</ele><time>2015-05-25T10:57:22.000Z</time></trkpt>
        <trkpt lat="53.47512938" lon="-1.73648525"><ele>513.00000000</ele><time>2015-05-25T10:57:45.000Z</time></trkpt>
        <trkpt lat="53.47512938" lon="-1.73648818"><ele>513.00000000</ele><time>2015-05-25T10:57:46.000Z</time></trkpt>
        <trkpt lat="53.47513617" lon="-1.73649732"><ele>512.52001953</ele><time>2015-05-25T10:57:59.000Z</time></trkpt>
        <trkpt lat="53.47513382" lon="-1.73649279"><ele>513.00000000</ele><time>2015-05-25T10:58:15.000Z</time></trkpt>
        <trkpt lat="53.47512745" lon="-1.73649137"><ele>513.00000000</ele><time>2015-05-25T10:58:28.000Z</time></trkpt>
        <trkpt lat="53.47512905" lon="-1.73648584"><ele>512.52001953</ele><time>2015-05-25T10:58:36.000Z</time></trkpt>
        <trkpt lat="53.47512930" lon="-1.73648659"><ele>512.52001953</ele><time>2015-05-25T10:58:39.000Z</time></trkpt>
        <trkpt lat="53.47515897" lon="-1.73647938"><ele>512.03997803</ele><time>2015-05-25T10:58:42.000Z</time></trkpt>
        <trkpt lat="53.47517741" lon="-1.73646161"><ele>512.03997803</ele><time>2015-05-25T10:58:44.000Z</time></trkpt>
        <trkpt lat="53.47523357" lon="-1.73647611"><ele>511.55999756</ele><time>2015-05-25T10:58:49.000Z</time></trkpt>
        <trkpt lat="53.47542669" lon="-1.73665809"><ele>510.11999512</ele><time>2015-05-25T10:59:07.000Z</time></trkpt>
        <trkpt lat="53.47558779" lon="-1.73685573"><ele>508.19000244</ele><time>2015-05-25T10:59:23.000Z</time></trkpt>
        <trkpt lat="53.47576121" lon="-1.73702664"><ele>506.75000000</ele><time>2015-05-25T10:59:39.000Z</time></trkpt>
        <trkpt lat="53.47597453" lon="-1.73719905"><ele>505.79000854</ele><time>2015-05-25T10:59:58.000Z</time></trkpt>
        <trkpt lat="53.47615566" lon="-1.73737658"><ele>505.30999756</ele><time>2015-05-25T11:00:15.000Z</time></trkpt>
        <trkpt lat="53.47631911" lon="-1.73753617"><ele>505.30999756</ele><time>2015-05-25T11:00:31.000Z</time></trkpt>
        <trkpt lat="53.47649806" lon="-1.73772812"><ele>504.82998657</ele><time>2015-05-25T11:00:49.000Z</time></trkpt>
        <trkpt lat="53.47665941" lon="-1.73790154"><ele>504.82998657</ele><time>2015-05-25T11:01:05.000Z</time></trkpt>
        <trkpt lat="53.47681657" lon="-1.73809047"><ele>502.91000366</ele><time>2015-05-25T11:01:21.000Z</time></trkpt>
        <trkpt lat="53.47687810" lon="-1.73817395"><ele>502.91000366</ele><time>2015-05-25T11:01:34.000Z</time></trkpt>
        <trkpt lat="53.47688254" lon="-1.73819063"><ele>502.42999268</ele><time>2015-05-25T11:01:51.000Z</time></trkpt>
        <trkpt lat="53.47688472" lon="-1.73819063"><ele>502.42999268</ele><time>2015-05-25T11:02:08.000Z</time></trkpt>
        <trkpt lat="53.47688631" lon="-1.73818904"><ele>502.42999268</ele><time>2015-05-25T11:02:42.000Z</time></trkpt>
        <trkpt lat="53.47691121" lon="-1.73823254"><ele>501.95001221</ele><time>2015-05-25T11:02:58.000Z</time></trkpt>
        <trkpt lat="53.47705219" lon="-1.73837746"><ele>500.98001099</ele><time>2015-05-25T11:03:12.000Z</time></trkpt>
        <trkpt lat="53.47717976" lon="-1.73846598"><ele>500.50000000</ele><time>2015-05-25T11:03:24.000Z</time></trkpt>
        <trkpt lat="53.47722913" lon="-1.73849054"><ele>500.01998901</ele><time>2015-05-25T11:03:28.000Z</time></trkpt>
        <trkpt lat="53.47727305" lon="-1.73852457"><ele>499.54000854</ele><time>2015-05-25T11:03:32.000Z</time></trkpt>
        <trkpt lat="53.47730759" lon="-1.73854192"><ele>499.54000854</ele><time>2015-05-25T11:03:35.000Z</time></trkpt>
        <trkpt lat="53.47733759" lon="-1.73855642"><ele>500.01998901</ele><time>2015-05-25T11:03:38.000Z</time></trkpt>
        <trkpt lat="53.47735494" lon="-1.73857402"><ele>500.01998901</ele><time>2015-05-25T11:03:40.000Z</time></trkpt>
        <trkpt lat="53.47742166" lon="-1.73867636"><ele>500.01998901</ele><time>2015-05-25T11:03:48.000Z</time></trkpt>
        <trkpt lat="53.47748428" lon="-1.73880377"><ele>499.05999756</ele><time>2015-05-25T11:03:57.000Z</time></trkpt>
        <trkpt lat="53.47750188" lon="-1.73881332"><ele>498.57998657</ele><time>2015-05-25T11:03:59.000Z</time></trkpt>
        <trkpt lat="53.47752216" lon="-1.73882053"><ele>498.57998657</ele><time>2015-05-25T11:04:01.000Z</time></trkpt>
        <trkpt lat="53.47753767" lon="-1.73885750"><ele>498.10000610</ele><time>2015-05-25T11:04:18.000Z</time></trkpt>
        <trkpt lat="53.47753918" lon="-1.73886093"><ele>497.61999512</ele><time>2015-05-25T11:04:40.000Z</time></trkpt>
        <trkpt lat="53.47754773" lon="-1.73889035"><ele>497.14001465</ele><time>2015-05-25T11:05:04.000Z</time></trkpt>
        <trkpt lat="53.47757405" lon="-1.73894551"><ele>496.66000366</ele><time>2015-05-25T11:05:12.000Z</time></trkpt>
        <trkpt lat="53.47760481" lon="-1.73901583"><ele>498.10000610</ele><time>2015-05-25T11:05:19.000Z</time></trkpt>
        <trkpt lat="53.47762736" lon="-1.73901742"><ele>497.61999512</ele><time>2015-05-25T11:05:21.000Z</time></trkpt>
        <trkpt lat="53.47764722" lon="-1.73902924"><ele>497.14001465</ele><time>2015-05-25T11:05:23.000Z</time></trkpt>
        <trkpt lat="53.47767723" lon="-1.73902773"><ele>497.61999512</ele><time>2015-05-25T11:05:26.000Z</time></trkpt>
        <trkpt lat="53.47772375" lon="-1.73907442"><ele>497.14001465</ele><time>2015-05-25T11:05:31.000Z</time></trkpt>
        <trkpt lat="53.47779826" lon="-1.73916033"><ele>495.70001221</ele><time>2015-05-25T11:05:41.000Z</time></trkpt>
        <trkpt lat="53.47782492" lon="-1.73924860"><ele>495.22000122</ele><time>2015-05-25T11:05:47.000Z</time></trkpt>
        <trkpt lat="53.47781612" lon="-1.73928204"><ele>494.73999023</ele><time>2015-05-25T11:05:49.000Z</time></trkpt>
        <trkpt lat="53.47781528" lon="-1.73933099"><ele>494.73999023</ele><time>2015-05-25T11:05:52.000Z</time></trkpt>
        <trkpt lat="53.47782567" lon="-1.73944021"><ele>494.26000977</ele><time>2015-05-25T11:06:02.000Z</time></trkpt>
        <trkpt lat="53.47784294" lon="-1.73951154"><ele>494.73999023</ele><time>2015-05-25T11:06:07.000Z</time></trkpt>
        <trkpt lat="53.47791536" lon="-1.73958505"><ele>494.26000977</ele><time>2015-05-25T11:06:19.000Z</time></trkpt>
        <trkpt lat="53.47794763" lon="-1.73967859"><ele>494.73999023</ele><time>2015-05-25T11:06:27.000Z</time></trkpt>
        <trkpt lat="53.47795442" lon="-1.73968915"><ele>494.73999023</ele><time>2015-05-25T11:06:28.000Z</time></trkpt>
        <trkpt lat="53.47806003" lon="-1.73974514"><ele>494.73999023</ele><time>2015-05-25T11:06:38.000Z</time></trkpt>
        <trkpt lat="53.47811677" lon="-1.73983390"><ele>493.76998901</ele><time>2015-05-25T11:06:45.000Z</time></trkpt>
        <trkpt lat="53.47814184" lon="-1.73995025"><ele>493.76998901</ele><time>2015-05-25T11:07:00.000Z</time></trkpt>
        <trkpt lat="53.47814444" lon="-1.73994421"><ele>493.76998901</ele><time>2015-05-25T11:07:16.000Z</time></trkpt>
        <trkpt lat="53.47814678" lon="-1.73994354"><ele>493.76998901</ele><time>2015-05-25T11:07:41.000Z</time></trkpt>
        <trkpt lat="53.47815055" lon="-1.73994388"><ele>493.29000854</ele><time>2015-05-25T11:08:06.000Z</time></trkpt>
        <trkpt lat="53.47815022" lon="-1.73994714"><ele>493.76998901</ele><time>2015-05-25T11:08:27.000Z</time></trkpt>
        <trkpt lat="53.47815122" lon="-1.73994899"><ele>493.76998901</ele><time>2015-05-25T11:08:50.000Z</time></trkpt>
        <trkpt lat="53.47815206" lon="-1.73998411"><ele>493.76998901</ele><time>2015-05-25T11:09:02.000Z</time></trkpt>
        <trkpt lat="53.47815433" lon="-1.73999174"><ele>494.26000977</ele><time>2015-05-25T11:09:12.000Z</time></trkpt>
        <trkpt lat="53.47827737" lon="-1.74016164"><ele>494.26000977</ele><time>2015-05-25T11:09:27.000Z</time></trkpt>
        <trkpt lat="53.47829388" lon="-1.74018427"><ele>493.76998901</ele><time>2015-05-25T11:09:29.000Z</time></trkpt>
        <trkpt lat="53.47838600" lon="-1.74027647"><ele>493.29000854</ele><time>2015-05-25T11:09:44.000Z</time></trkpt>
        <trkpt lat="53.47839053" lon="-1.74028653"><ele>493.29000854</ele><time>2015-05-25T11:09:45.000Z</time></trkpt>
        <trkpt lat="53.47839690" lon="-1.74038024"><ele>493.76998901</ele><time>2015-05-25T11:09:51.000Z</time></trkpt>
        <trkpt lat="53.47842087" lon="-1.74060420"><ele>494.26000977</ele><time>2015-05-25T11:10:05.000Z</time></trkpt>
        <trkpt lat="53.47842087" lon="-1.74062105"><ele>494.26000977</ele><time>2015-05-25T11:10:06.000Z</time></trkpt>
        <trkpt lat="53.47842255" lon="-1.74072666"><ele>493.76998901</ele><time>2015-05-25T11:10:12.000Z</time></trkpt>
        <trkpt lat="53.47845742" lon="-1.74079933"><ele>493.29000854</ele><time>2015-05-25T11:10:18.000Z</time></trkpt>
        <trkpt lat="53.47860536" lon="-1.74090352"><ele>493.29000854</ele><time>2015-05-25T11:10:33.000Z</time></trkpt>
        <trkpt lat="53.47862304" lon="-1.74099371"><ele>492.80999756</ele><time>2015-05-25T11:10:43.000Z</time></trkpt>
        <trkpt lat="53.47862849" lon="-1.74097301"><ele>492.80999756</ele><time>2015-05-25T11:11:09.000Z</time></trkpt>
        <trkpt lat="53.47862522" lon="-1.74097577"><ele>492.80999756</ele><time>2015-05-25T11:11:31.000Z</time></trkpt>
        <trkpt lat="53.47862271" lon="-1.74098097"><ele>492.32998657</ele><time>2015-05-25T11:11:46.000Z</time></trkpt>
        <trkpt lat="53.47863520" lon="-1.74101885"><ele>492.32998657</ele><time>2015-05-25T11:12:01.000Z</time></trkpt>
        <trkpt lat="53.47863821" lon="-1.74103428"><ele>492.80999756</ele><time>2015-05-25T11:12:12.000Z</time></trkpt>
        <trkpt lat="53.47858817" lon="-1.74107979"><ele>491.85000610</ele><time>2015-05-25T11:12:25.000Z</time></trkpt>
        <trkpt lat="53.47858910" lon="-1.74108415"><ele>491.85000610</ele><time>2015-05-25T11:12:40.000Z</time></trkpt>
        <trkpt lat="53.47866571" lon="-1.74098860"><ele>491.36999512</ele><time>2015-05-25T11:12:48.000Z</time></trkpt>
        <trkpt lat="53.47881733" lon="-1.74095448"><ele>491.36999512</ele><time>2015-05-25T11:13:02.000Z</time></trkpt>
        <trkpt lat="53.47882069" lon="-1.74095280"><ele>491.85000610</ele><time>2015-05-25T11:13:07.000Z</time></trkpt>
        <trkpt lat="53.47887903" lon="-1.74096672"><ele>491.85000610</ele><time>2015-05-25T11:13:12.000Z</time></trkpt>
        <trkpt lat="53.47907399" lon="-1.74098969"><ele>491.36999512</ele><time>2015-05-25T11:13:28.000Z</time></trkpt>
        <trkpt lat="53.47916510" lon="-1.74089857"><ele>491.36999512</ele><time>2015-05-25T11:13:37.000Z</time></trkpt>
        <trkpt lat="53.47921916" lon="-1.74086002"><ele>490.41000366</ele><time>2015-05-25T11:13:42.000Z</time></trkpt>
        <trkpt lat="53.47932888" lon="-1.74074477"><ele>489.45001221</ele><time>2015-05-25T11:13:53.000Z</time></trkpt>
        <trkpt lat="53.47948831" lon="-1.74059263"><ele>488.48999023</ele><time>2015-05-25T11:14:09.000Z</time></trkpt>
        <trkpt lat="53.47957849" lon="-1.74054167"><ele>487.52999878</ele><time>2015-05-25T11:14:17.000Z</time></trkpt>
        <trkpt lat="53.47967573" lon="-1.74045224"><ele>487.04998779</ele><time>2015-05-25T11:14:27.000Z</time></trkpt>
        <trkpt lat="53.47970095" lon="-1.74045492"><ele>487.04998779</ele><time>2015-05-25T11:14:29.000Z</time></trkpt>
        <trkpt lat="53.47985711" lon="-1.74039222"><ele>486.07998657</ele><time>2015-05-25T11:14:43.000Z</time></trkpt>
        <trkpt lat="53.47991645" lon="-1.74038359"><ele>485.11999512</ele><time>2015-05-25T11:14:48.000Z</time></trkpt>
        <trkpt lat="53.47996918" lon="-1.74034738"><ele>484.64001465</ele><time>2015-05-25T11:14:53.000Z</time></trkpt>
        <trkpt lat="53.48011946" lon="-1.74034319"><ele>484.64001465</ele><time>2015-05-25T11:15:06.000Z</time></trkpt>
        <trkpt lat="53.48032281" lon="-1.74036473"><ele>482.23999023</ele><time>2015-05-25T11:15:23.000Z</time></trkpt>
        <trkpt lat="53.48048961" lon="-1.74047244"><ele>481.76000977</ele><time>2015-05-25T11:15:38.000Z</time></trkpt>
        <trkpt lat="53.48053738" lon="-1.74049549"><ele>481.27999878</ele><time>2015-05-25T11:15:42.000Z</time></trkpt>
        <trkpt lat="53.48061039" lon="-1.74061401"><ele>481.27999878</ele><time>2015-05-25T11:15:51.000Z</time></trkpt>
        <trkpt lat="53.48077451" lon="-1.74073747"><ele>479.83999634</ele><time>2015-05-25T11:16:06.000Z</time></trkpt>
        <trkpt lat="53.48095313" lon="-1.74081224"><ele>478.86999512</ele><time>2015-05-25T11:16:21.000Z</time></trkpt>
        <trkpt lat="53.48113686" lon="-1.74093185"><ele>478.39001465</ele><time>2015-05-25T11:16:38.000Z</time></trkpt>
        <trkpt lat="53.48133216" lon="-1.74092573"><ele>476.95001221</ele><time>2015-05-25T11:16:55.000Z</time></trkpt>
        <trkpt lat="53.48152343" lon="-1.74093110"><ele>475.02999878</ele><time>2015-05-25T11:17:12.000Z</time></trkpt>
        <trkpt lat="53.48172518" lon="-1.74098994"><ele>474.07000732</ele><time>2015-05-25T11:17:29.000Z</time></trkpt>
        <trkpt lat="53.48186860" lon="-1.74111843"><ele>472.14001465</ele><time>2015-05-25T11:17:43.000Z</time></trkpt>
        <trkpt lat="53.48193632" lon="-1.74117191"><ele>471.17999268</ele><time>2015-05-25T11:17:49.000Z</time></trkpt>
        <trkpt lat="53.48214294" lon="-1.74112078"><ele>469.26000977</ele><time>2015-05-25T11:18:07.000Z</time></trkpt>
        <trkpt lat="53.48222173" lon="-1.74106470"><ele>469.26000977</ele><time>2015-05-25T11:18:14.000Z</time></trkpt>
        <trkpt lat="53.48231317" lon="-1.74102028"><ele>468.77999878</ele><time>2015-05-25T11:18:22.000Z</time></trkpt>
        <trkpt lat="53.48239104" lon="-1.74106990"><ele>468.77999878</ele><time>2015-05-25T11:18:29.000Z</time></trkpt>
        <trkpt lat="53.48243429" lon="-1.74116051"><ele>469.26000977</ele><time>2015-05-25T11:18:35.000Z</time></trkpt>
        <trkpt lat="53.48247830" lon="-1.74118138"><ele>469.26000977</ele><time>2015-05-25T11:18:39.000Z</time></trkpt>
        <trkpt lat="53.48253781" lon="-1.74122748"><ele>468.77999878</ele><time>2015-05-25T11:18:44.000Z</time></trkpt>
        <trkpt lat="53.48269405" lon="-1.74136637"><ele>467.33999634</ele><time>2015-05-25T11:18:59.000Z</time></trkpt>
        <trkpt lat="53.48272959" lon="-1.74142974"><ele>466.38000488</ele><time>2015-05-25T11:19:03.000Z</time></trkpt>
        <trkpt lat="53.48288842" lon="-1.74154968"><ele>465.42001343</ele><time>2015-05-25T11:19:18.000Z</time></trkpt>
        <trkpt lat="53.48306260" lon="-1.74162193"><ele>463.97000122</ele><time>2015-05-25T11:19:33.000Z</time></trkpt>
        <trkpt lat="53.48315631" lon="-1.74163300"><ele>463.01000977</ele><time>2015-05-25T11:19:41.000Z</time></trkpt>
        <trkpt lat="53.48331682" lon="-1.74173199"><ele>461.08999634</ele><time>2015-05-25T11:19:56.000Z</time></trkpt>
        <trkpt lat="53.48336561" lon="-1.74174297"><ele>460.60998535</ele><time>2015-05-25T11:20:00.000Z</time></trkpt>
        <trkpt lat="53.48344046" lon="-1.74178169"><ele>460.13000488</ele><time>2015-05-25T11:20:07.000Z</time></trkpt>
        <trkpt lat="53.48346108" lon="-1.74180273"><ele>459.64999390</ele><time>2015-05-25T11:20:09.000Z</time></trkpt>
        <trkpt lat="53.48350449" lon="-1.74181614"><ele>459.64999390</ele><time>2015-05-25T11:20:13.000Z</time></trkpt>
        <trkpt lat="53.48355621" lon="-1.74184254"><ele>459.17001343</ele><time>2015-05-25T11:20:18.000Z</time></trkpt>
        <trkpt lat="53.48366291" lon="-1.74178043"><ele>458.20999146</ele><time>2015-05-25T11:20:32.000Z</time></trkpt>
        <trkpt lat="53.48380574" lon="-1.74168614"><ele>455.79998779</ele><time>2015-05-25T11:20:46.000Z</time></trkpt>
        <trkpt lat="53.48383592" lon="-1.74166460"><ele>455.32000732</ele><time>2015-05-25T11:20:49.000Z</time></trkpt>
        <trkpt lat="53.48387162" lon="-1.74166040"><ele>455.32000732</ele><time>2015-05-25T11:20:53.000Z</time></trkpt>
        <trkpt lat="53.48391479" lon="-1.74164808"><ele>454.35998535</ele><time>2015-05-25T11:20:58.000Z</time></trkpt>
        <trkpt lat="53.48392191" lon="-1.74168413"><ele>454.83999634</ele><time>2015-05-25T11:21:02.000Z</time></trkpt>
        <trkpt lat="53.48394102" lon="-1.74168714"><ele>454.83999634</ele><time>2015-05-25T11:21:04.000Z</time></trkpt>
        <trkpt lat="53.48397388" lon="-1.74167926"><ele>453.88000488</ele><time>2015-05-25T11:21:07.000Z</time></trkpt>
        <trkpt lat="53.48399266" lon="-1.74168907"><ele>453.39999390</ele><time>2015-05-25T11:21:09.000Z</time></trkpt>
        <trkpt lat="53.48408779" lon="-1.74167315"><ele>451.48001099</ele><time>2015-05-25T11:21:18.000Z</time></trkpt>
        <trkpt lat="53.48410657" lon="-1.74169435"><ele>451.48001099</ele><time>2015-05-25T11:21:21.000Z</time></trkpt>
        <trkpt lat="53.48420405" lon="-1.74169888"><ele>449.07000732</ele><time>2015-05-25T11:21:30.000Z</time></trkpt>
        <trkpt lat="53.48424981" lon="-1.74166292"><ele>448.58999634</ele><time>2015-05-25T11:21:35.000Z</time></trkpt>
        <trkpt lat="53.48429407" lon="-1.74163979"><ele>448.10998535</ele><time>2015-05-25T11:21:40.000Z</time></trkpt>
        <trkpt lat="53.48438359" lon="-1.74161866"><ele>446.67001343</ele><time>2015-05-25T11:21:48.000Z</time></trkpt>
        <trkpt lat="53.48451946" lon="-1.74154105"><ele>444.26998901</ele><time>2015-05-25T11:22:02.000Z</time></trkpt>
        <trkpt lat="53.48458073" lon="-1.74153049"><ele>442.82000732</ele><time>2015-05-25T11:22:08.000Z</time></trkpt>
        <trkpt lat="53.48462432" lon="-1.74152085"><ele>441.85998535</ele><time>2015-05-25T11:22:12.000Z</time></trkpt>
        <trkpt lat="53.48466891" lon="-1.74151397"><ele>441.38000488</ele><time>2015-05-25T11:22:17.000Z</time></trkpt>
        <trkpt lat="53.48470889" lon="-1.74152629"><ele>440.89999390</ele><time>2015-05-25T11:22:21.000Z</time></trkpt>
        <trkpt lat="53.48473546" lon="-1.74155764"><ele>439.94000244</ele><time>2015-05-25T11:22:24.000Z</time></trkpt>
        <trkpt lat="53.48480553" lon="-1.74159461"><ele>439.45999146</ele><time>2015-05-25T11:22:33.000Z</time></trkpt>
        <trkpt lat="53.48483504" lon="-1.74157600"><ele>438.98001099</ele><time>2015-05-25T11:22:37.000Z</time></trkpt>
        <trkpt lat="53.48485658" lon="-1.74154867"><ele>438.50000000</ele><time>2015-05-25T11:22:40.000Z</time></trkpt>
        <trkpt lat="53.48491550" lon="-1.74149101"><ele>437.54000854</ele><time>2015-05-25T11:22:47.000Z</time></trkpt>
        <trkpt lat="53.48496613" lon="-1.74148707"><ele>436.57998657</ele><time>2015-05-25T11:22:52.000Z</time></trkpt>
        <trkpt lat="53.48511374" lon="-1.74145564"><ele>432.73001099</ele><time>2015-05-25T11:23:06.000Z</time></trkpt>
        <trkpt lat="53.48517627" lon="-1.74144675"><ele>432.25000000</ele><time>2015-05-25T11:23:12.000Z</time></trkpt>
        <trkpt lat="53.48530082" lon="-1.74138104"><ele>430.80999756</ele><time>2015-05-25T11:23:26.000Z</time></trkpt>
        <trkpt lat="53.48531314" lon="-1.74137584"><ele>430.80999756</ele><time>2015-05-25T11:23:27.000Z</time></trkpt>
        <trkpt lat="53.48547466" lon="-1.74124835"><ele>427.44000244</ele><time>2015-05-25T11:23:44.000Z</time></trkpt>
        <trkpt lat="53.48552252" lon="-1.74120803"><ele>426.95999146</ele><time>2015-05-25T11:23:49.000Z</time></trkpt>
        <trkpt lat="53.48558832" lon="-1.74119831"><ele>426.00000000</ele><time>2015-05-25T11:23:55.000Z</time></trkpt>
        <trkpt lat="53.48574774" lon="-1.74106780"><ele>423.60000610</ele><time>2015-05-25T11:24:11.000Z</time></trkpt>
        <trkpt lat="53.48576434" lon="-1.74105079"><ele>423.11999512</ele><time>2015-05-25T11:24:13.000Z</time></trkpt>
        <trkpt lat="53.48593349" lon="-1.74100159"><ele>420.23001099</ele><time>2015-05-25T11:24:29.000Z</time></trkpt>
        <trkpt lat="53.48599778" lon="-1.74096814"><ele>419.75000000</ele><time>2015-05-25T11:24:36.000Z</time></trkpt>
        <trkpt lat="53.48605477" lon="-1.74094040"><ele>418.79000854</ele><time>2015-05-25T11:24:46.000Z</time></trkpt>
        <trkpt lat="53.48614429" lon="-1.74091584"><ele>416.86999512</ele><time>2015-05-25T11:24:55.000Z</time></trkpt>
        <trkpt lat="53.48634001" lon="-1.74090511"><ele>414.95001221</ele><time>2015-05-25T11:25:12.000Z</time></trkpt>
        <trkpt lat="53.48647764" lon="-1.74088692"><ele>413.50000000</ele><time>2015-05-25T11:25:25.000Z</time></trkpt>
        <trkpt lat="53.48657948" lon="-1.74087619"><ele>411.57998657</ele><time>2015-05-25T11:25:34.000Z</time></trkpt>
        <trkpt lat="53.48670831" lon="-1.74085340"><ele>409.17999268</ele><time>2015-05-25T11:25:48.000Z</time></trkpt>
        <trkpt lat="53.48688726" lon="-1.74086580"><ele>406.29000854</ele><time>2015-05-25T11:26:04.000Z</time></trkpt>
        <trkpt lat="53.48695055" lon="-1.74081853"><ele>405.32998657</ele><time>2015-05-25T11:26:10.000Z</time></trkpt>
        <trkpt lat="53.48697033" lon="-1.74081853"><ele>404.85000610</ele><time>2015-05-25T11:26:12.000Z</time></trkpt>
        <trkpt lat="53.48710167" lon="-1.74075902"><ele>403.41000366</ele><time>2015-05-25T11:26:26.000Z</time></trkpt>
        <trkpt lat="53.48711844" lon="-1.74077662"><ele>402.92999268</ele><time>2015-05-25T11:26:30.000Z</time></trkpt>
        <trkpt lat="53.48715314" lon="-1.74081920"><ele>402.92999268</ele><time>2015-05-25T11:26:36.000Z</time></trkpt>
        <trkpt lat="53.48719605" lon="-1.74085013"><ele>402.45001221</ele><time>2015-05-25T11:26:48.000Z</time></trkpt>
        <trkpt lat="53.48718817" lon="-1.74085440"><ele>402.45001221</ele><time>2015-05-25T11:27:05.000Z</time></trkpt>
        <trkpt lat="53.48718742" lon="-1.74083990"><ele>402.45001221</ele><time>2015-05-25T11:27:24.000Z</time></trkpt>
        <trkpt lat="53.48718734" lon="-1.74083328"><ele>401.97000122</ele><time>2015-05-25T11:27:59.000Z</time></trkpt>
        <trkpt lat="53.48718784" lon="-1.74082892"><ele>401.48999023</ele><time>2015-05-25T11:28:24.000Z</time></trkpt>
        <trkpt lat="53.48718474" lon="-1.74082674"><ele>401.01000977</ele><time>2015-05-25T11:28:56.000Z</time></trkpt>
        <trkpt lat="53.48718365" lon="-1.74082054"><ele>400.04998779</ele><time>2015-05-25T11:29:26.000Z</time></trkpt>
        <trkpt lat="53.48718164" lon="-1.74082045"><ele>399.57000732</ele><time>2015-05-25T11:30:06.000Z</time></trkpt>
        <trkpt lat="53.48718029" lon="-1.74081878"><ele>399.57000732</ele><time>2015-05-25T11:30:47.000Z</time></trkpt>
        <trkpt lat="53.48718071" lon="-1.74081165"><ele>398.60000610</ele><time>2015-05-25T11:31:23.000Z</time></trkpt>
        <trkpt lat="53.48717895" lon="-1.74080436"><ele>397.64001465</ele><time>2015-05-25T11:32:02.000Z</time></trkpt>
        <trkpt lat="53.48718390" lon="-1.74081794"><ele>398.11999512</ele><time>2015-05-25T11:32:32.000Z</time></trkpt>
        <trkpt lat="53.48718868" lon="-1.74082750"><ele>398.60000610</ele><time>2015-05-25T11:33:01.000Z</time></trkpt>
        <trkpt lat="53.48718935" lon="-1.74083219"><ele>398.60000610</ele><time>2015-05-25T11:33:21.000Z</time></trkpt>
        <trkpt lat="53.48718256" lon="-1.74082456"><ele>399.57000732</ele><time>2015-05-25T11:33:53.000Z</time></trkpt>
        <trkpt lat="53.48718432" lon="-1.74082523"><ele>399.57000732</ele><time>2015-05-25T11:34:22.000Z</time></trkpt>
        <trkpt lat="53.48718608" lon="-1.74082322"><ele>400.04998779</ele><time>2015-05-25T11:34:46.000Z</time></trkpt>
        <trkpt lat="53.48718750" lon="-1.74082783"><ele>400.52999878</ele><time>2015-05-25T11:35:11.000Z</time></trkpt>
        <trkpt lat="53.48718524" lon="-1.74083177"><ele>400.52999878</ele><time>2015-05-25T11:35:43.000Z</time></trkpt>
        <trkpt lat="53.48718205" lon="-1.74082456"><ele>401.48999023</ele><time>2015-05-25T11:36:12.000Z</time></trkpt>
        <trkpt lat="53.48717954" lon="-1.74081853"><ele>401.01000977</ele><time>2015-05-25T11:36:48.000Z</time></trkpt>
        <trkpt lat="53.48718432" lon="-1.74081920"><ele>400.52999878</ele><time>2015-05-25T11:37:22.000Z</time></trkpt>
        <trkpt lat="53.48718641" lon="-1.74082540"><ele>401.01000977</ele><time>2015-05-25T11:37:50.000Z</time></trkpt>
        <trkpt lat="53.48718063" lon="-1.74083118"><ele>401.01000977</ele><time>2015-05-25T11:38:17.000Z</time></trkpt>
        <trkpt lat="53.48717468" lon="-1.74082984"><ele>401.48999023</ele><time>2015-05-25T11:38:57.000Z</time></trkpt>
        <trkpt lat="53.48718172" lon="-1.74082020"><ele>401.97000122</ele><time>2015-05-25T11:39:36.000Z</time></trkpt>
        <trkpt lat="53.48718348" lon="-1.74081400"><ele>401.97000122</ele><time>2015-05-25T11:39:57.000Z</time></trkpt>
        <trkpt lat="53.48718608" lon="-1.74082054"><ele>401.48999023</ele><time>2015-05-25T11:40:21.000Z</time></trkpt>
        <trkpt lat="53.48718482" lon="-1.74082649"><ele>401.48999023</ele><time>2015-05-25T11:40:40.000Z</time></trkpt>
        <trkpt lat="53.48718465" lon="-1.74081710"><ele>401.48999023</ele><time>2015-05-25T11:41:05.000Z</time></trkpt>
        <trkpt lat="53.48718583" lon="-1.74082481"><ele>400.52999878</ele><time>2015-05-25T11:41:41.000Z</time></trkpt>
        <trkpt lat="53.48718901" lon="-1.74084174"><ele>401.01000977</ele><time>2015-05-25T11:41:51.000Z</time></trkpt>
        <trkpt lat="53.48719119" lon="-1.74084669"><ele>401.48999023</ele><time>2015-05-25T11:42:11.000Z</time></trkpt>
        <trkpt lat="53.48719094" lon="-1.74083563"><ele>401.01000977</ele><time>2015-05-25T11:42:29.000Z</time></trkpt>
        <trkpt lat="53.48717602" lon="-1.74084485"><ele>401.48999023</ele><time>2015-05-25T11:42:41.000Z</time></trkpt>
        <trkpt lat="53.48711475" lon="-1.74075935"><ele>402.92999268</ele><time>2015-05-25T11:42:54.000Z</time></trkpt>
        <trkpt lat="53.48714006" lon="-1.74074762"><ele>402.45001221</ele><time>2015-05-25T11:42:58.000Z</time></trkpt>
        <trkpt lat="53.48718180" lon="-1.74072406"><ele>401.97000122</ele><time>2015-05-25T11:43:03.000Z</time></trkpt>
        <trkpt lat="53.48724023" lon="-1.74068525"><ele>401.01000977</ele><time>2015-05-25T11:43:09.000Z</time></trkpt>
        <trkpt lat="53.48731130" lon="-1.74063555"><ele>399.07998657</ele><time>2015-05-25T11:43:16.000Z</time></trkpt>
        <trkpt lat="53.48734324" lon="-1.74060462"><ele>398.60000610</ele><time>2015-05-25T11:43:20.000Z</time></trkpt>
        <trkpt lat="53.48742203" lon="-1.74052424"><ele>397.16000366</ele><time>2015-05-25T11:43:28.000Z</time></trkpt>
        <trkpt lat="53.48752798" lon="-1.74052885"><ele>394.76000977</ele><time>2015-05-25T11:43:38.000Z</time></trkpt>
        <trkpt lat="53.48765890" lon="-1.74050136"><ele>392.35998535</ele><time>2015-05-25T11:43:50.000Z</time></trkpt>
        <trkpt lat="53.48767910" lon="-1.74049851"><ele>392.35998535</ele><time>2015-05-25T11:43:52.000Z</time></trkpt>
        <trkpt lat="53.48772244" lon="-1.74049591"><ele>391.39001465</ele><time>2015-05-25T11:43:56.000Z</time></trkpt>
        <trkpt lat="53.48782612" lon="-1.74046129"><ele>389.47000122</ele><time>2015-05-25T11:44:08.000Z</time></trkpt>
        <trkpt lat="53.48794078" lon="-1.74044344"><ele>388.51000977</ele><time>2015-05-25T11:44:20.000Z</time></trkpt>
        <trkpt lat="53.48795554" lon="-1.74043011"><ele>388.02999878</ele><time>2015-05-25T11:44:22.000Z</time></trkpt>
        <trkpt lat="53.48798387" lon="-1.74041108"><ele>387.54998779</ele><time>2015-05-25T11:44:27.000Z</time></trkpt>
        <trkpt lat="53.48811043" lon="-1.74037655"><ele>385.14999390</ele><time>2015-05-25T11:44:39.000Z</time></trkpt>
        <trkpt lat="53.48815829" lon="-1.74040547"><ele>384.66000366</ele><time>2015-05-25T11:44:44.000Z</time></trkpt>
        <trkpt lat="53.48823700" lon="-1.74043346"><ele>383.22000122</ele><time>2015-05-25T11:44:53.000Z</time></trkpt>
        <trkpt lat="53.48825033" lon="-1.74041913"><ele>382.73999023</ele><time>2015-05-25T11:44:55.000Z</time></trkpt>
        <trkpt lat="53.48832677" lon="-1.74036934"><ele>380.82000732</ele><time>2015-05-25T11:45:04.000Z</time></trkpt>
        <trkpt lat="53.48835443" lon="-1.74032659"><ele>379.85998535</ele><time>2015-05-25T11:45:08.000Z</time></trkpt>
        <trkpt lat="53.48842291" lon="-1.74029575"><ele>378.42001343</ele><time>2015-05-25T11:45:15.000Z</time></trkpt>
        <trkpt lat="53.48848594" lon="-1.74012912"><ele>378.42001343</ele><time>2015-05-25T11:45:27.000Z</time></trkpt>
        <trkpt lat="53.48858929" lon="-1.74003331"><ele>376.48999023</ele><time>2015-05-25T11:45:40.000Z</time></trkpt>
        <trkpt lat="53.48869096" lon="-1.73986173"><ele>374.57000732</ele><time>2015-05-25T11:45:54.000Z</time></trkpt>
        <trkpt lat="53.48870337" lon="-1.73980415"><ele>373.60998535</ele><time>2015-05-25T11:45:57.000Z</time></trkpt>
        <trkpt lat="53.48879448" lon="-1.73969770"><ele>372.64999390</ele><time>2015-05-25T11:46:09.000Z</time></trkpt>
        <trkpt lat="53.48881334" lon="-1.73963735"><ele>372.64999390</ele><time>2015-05-25T11:46:13.000Z</time></trkpt>
        <trkpt lat="53.48887922" lon="-1.73955286"><ele>371.69000244</ele><time>2015-05-25T11:46:21.000Z</time></trkpt>
        <trkpt lat="53.48890554" lon="-1.73954230"><ele>370.23999023</ele><time>2015-05-25T11:46:24.000Z</time></trkpt>
        <trkpt lat="53.48894645" lon="-1.73949695"><ele>369.76000977</ele><time>2015-05-25T11:46:29.000Z</time></trkpt>
        <trkpt lat="53.48896941" lon="-1.73945068"><ele>369.76000977</ele><time>2015-05-25T11:46:32.000Z</time></trkpt>
        <trkpt lat="53.48906103" lon="-1.73934222"><ele>367.83999634</ele><time>2015-05-25T11:46:43.000Z</time></trkpt>
        <trkpt lat="53.48914593" lon="-1.73927911"><ele>366.39999390</ele><time>2015-05-25T11:46:52.000Z</time></trkpt>
        <trkpt lat="53.48926730" lon="-1.73912991"><ele>363.04000854</ele><time>2015-05-25T11:47:05.000Z</time></trkpt>
        <trkpt lat="53.48934836" lon="-1.73906612"><ele>361.10998535</ele><time>2015-05-25T11:47:13.000Z</time></trkpt>
        <trkpt lat="53.48945129" lon="-1.73901860"><ele>359.67001343</ele><time>2015-05-25T11:47:25.000Z</time></trkpt>
        <trkpt lat="53.48957048" lon="-1.73895347"><ele>357.26998901</ele><time>2015-05-25T11:47:39.000Z</time></trkpt>
        <trkpt lat="53.48963217" lon="-1.73888373"><ele>355.82998657</ele><time>2015-05-25T11:47:46.000Z</time></trkpt>
        <trkpt lat="53.48965078" lon="-1.73888013"><ele>355.82998657</ele><time>2015-05-25T11:47:48.000Z</time></trkpt>
        <trkpt lat="53.48980735" lon="-1.73881098"><ele>352.45999146</ele><time>2015-05-25T11:48:05.000Z</time></trkpt>
        <trkpt lat="53.48991003" lon="-1.73880628"><ele>349.57998657</ele><time>2015-05-25T11:48:17.000Z</time></trkpt>
        <trkpt lat="53.48994163" lon="-1.73881123"><ele>349.10000610</ele><time>2015-05-25T11:48:20.000Z</time></trkpt>
        <trkpt lat="53.49007281" lon="-1.73879036"><ele>345.25000000</ele><time>2015-05-25T11:48:34.000Z</time></trkpt>
        <trkpt lat="53.49018286" lon="-1.73878181"><ele>342.85000610</ele><time>2015-05-25T11:48:48.000Z</time></trkpt>
        <trkpt lat="53.49022301" lon="-1.73875859"><ele>341.41000366</ele><time>2015-05-25T11:48:54.000Z</time></trkpt>
        <trkpt lat="53.49030205" lon="-1.73871308"><ele>338.04000854</ele><time>2015-05-25T11:49:08.000Z</time></trkpt>
        <trkpt lat="53.49030524" lon="-1.73869413"><ele>337.07998657</ele><time>2015-05-25T11:49:22.000Z</time></trkpt>
        <trkpt lat="53.49030825" lon="-1.73868676"><ele>337.07998657</ele><time>2015-05-25T11:49:36.000Z</time></trkpt>
        <trkpt lat="53.49031504" lon="-1.73870243"><ele>336.60000610</ele><time>2015-05-25T11:50:00.000Z</time></trkpt>
        <trkpt lat="53.49032351" lon="-1.73882020"><ele>335.64001465</ele><time>2015-05-25T11:50:14.000Z</time></trkpt>
        <trkpt lat="53.49035888" lon="-1.73881894"><ele>334.20001221</ele><time>2015-05-25T11:50:26.000Z</time></trkpt>
        <trkpt lat="53.49042158" lon="-1.73866890"><ele>333.23001099</ele><time>2015-05-25T11:50:40.000Z</time></trkpt>
        <trkpt lat="53.49050196" lon="-1.73856631"><ele>329.86999512</ele><time>2015-05-25T11:50:54.000Z</time></trkpt>
        <trkpt lat="53.49052576" lon="-1.73857385"><ele>329.86999512</ele><time>2015-05-25T11:50:57.000Z</time></trkpt>
        <trkpt lat="53.49055326" lon="-1.73856187"><ele>330.35000610</ele><time>2015-05-25T11:51:00.000Z</time></trkpt>
        <trkpt lat="53.49058536" lon="-1.73855944"><ele>330.35000610</ele><time>2015-05-25T11:51:03.000Z</time></trkpt>
        <trkpt lat="53.49069893" lon="-1.73852482"><ele>331.30999756</ele><time>2015-05-25T11:51:14.000Z</time></trkpt>
        <trkpt lat="53.49074897" lon="-1.73851778"><ele>331.30999756</ele><time>2015-05-25T11:51:21.000Z</time></trkpt>
        <trkpt lat="53.49090924" lon="-1.73844595"><ele>333.70999146</ele><time>2015-05-25T11:51:36.000Z</time></trkpt>
        <trkpt lat="53.49100915" lon="-1.73839398"><ele>336.11999512</ele><time>2015-05-25T11:51:48.000Z</time></trkpt>
        <trkpt lat="53.49110638" lon="-1.73828644"><ele>337.55999756</ele><time>2015-05-25T11:52:01.000Z</time></trkpt>
        <trkpt lat="53.49113496" lon="-1.73823145"><ele>339.00000000</ele><time>2015-05-25T11:52:06.000Z</time></trkpt>
        <trkpt lat="53.49117251" lon="-1.73815090"><ele>339.95999146</ele><time>2015-05-25T11:52:12.000Z</time></trkpt>
        <trkpt lat="53.49123244" lon="-1.73797891"><ele>339.95999146</ele><time>2015-05-25T11:52:23.000Z</time></trkpt>
        <trkpt lat="53.49130486" lon="-1.73776441"><ele>341.41000366</ele><time>2015-05-25T11:52:38.000Z</time></trkpt>
        <trkpt lat="53.49135398" lon="-1.73751916"><ele>341.41000366</ele><time>2015-05-25T11:52:51.000Z</time></trkpt>
        <trkpt lat="53.49143662" lon="-1.73731950"><ele>343.80999756</ele><time>2015-05-25T11:53:05.000Z</time></trkpt>
        <trkpt lat="53.49149840" lon="-1.73713803"><ele>343.32998657</ele><time>2015-05-25T11:53:17.000Z</time></trkpt>
        <trkpt lat="53.49155892" lon="-1.73690602"><ele>345.25000000</ele><time>2015-05-25T11:53:32.000Z</time></trkpt>
        <trkpt lat="53.49164718" lon="-1.73657695"><ele>347.17001343</ele><time>2015-05-25T11:53:52.000Z</time></trkpt>
        <trkpt lat="53.49169462" lon="-1.73634527"><ele>349.10000610</ele><time>2015-05-25T11:54:07.000Z</time></trkpt>
        <trkpt lat="53.49173594" lon="-1.73606448"><ele>350.05999756</ele><time>2015-05-25T11:54:22.000Z</time></trkpt>
        <trkpt lat="53.49174717" lon="-1.73599306"><ele>351.98001099</ele><time>2015-05-25T11:54:27.000Z</time></trkpt>
        <trkpt lat="53.49181809" lon="-1.73570699"><ele>355.82998657</ele><time>2015-05-25T11:54:45.000Z</time></trkpt>
        <trkpt lat="53.49192864" lon="-1.73550314"><ele>358.23001099</ele><time>2015-05-25T11:55:00.000Z</time></trkpt>
        <trkpt lat="53.49202042" lon="-1.73542896"><ele>359.67001343</ele><time>2015-05-25T11:55:11.000Z</time></trkpt>
        <trkpt lat="53.49213601" lon="-1.73538554"><ele>363.04000854</ele><time>2015-05-25T11:55:26.000Z</time></trkpt>
        <trkpt lat="53.49223668" lon="-1.73533835"><ele>365.92001343</ele><time>2015-05-25T11:55:42.000Z</time></trkpt>
        <trkpt lat="53.49232184" lon="-1.73529183"><ele>367.35998535</ele><time>2015-05-25T11:55:56.000Z</time></trkpt>
        <trkpt lat="53.49241337" lon="-1.73527272"><ele>370.73001099</ele><time>2015-05-25T11:56:09.000Z</time></trkpt>
        <trkpt lat="53.49249216" lon="-1.73531505"><ele>374.08999634</ele><time>2015-05-25T11:56:20.000Z</time></trkpt>
        <trkpt lat="53.49254278" lon="-1.73533668"><ele>374.57000732</ele><time>2015-05-25T11:56:34.000Z</time></trkpt>
        <trkpt lat="53.49269316" lon="-1.73527583"><ele>375.04998779</ele><time>2015-05-25T11:56:49.000Z</time></trkpt>
        <trkpt lat="53.49272291" lon="-1.73525797"><ele>375.52999878</ele><time>2015-05-25T11:56:52.000Z</time></trkpt>
        <trkpt lat="53.49281176" lon="-1.73516393"><ele>376.48999023</ele><time>2015-05-25T11:57:06.000Z</time></trkpt>
        <trkpt lat="53.49284571" lon="-1.73514146"><ele>376.97000122</ele><time>2015-05-25T11:57:29.000Z</time></trkpt>
        <trkpt lat="53.49287043" lon="-1.73510659"><ele>377.45001221</ele><time>2015-05-25T11:57:43.000Z</time></trkpt>
        <trkpt lat="53.49287664" lon="-1.73509033"><ele>378.42001343</ele><time>2015-05-25T11:58:05.000Z</time></trkpt>
        <trkpt lat="53.49290882" lon="-1.73508019"><ele>380.33999634</ele><time>2015-05-25T11:58:19.000Z</time></trkpt>
        <trkpt lat="53.49291779" lon="-1.73494692"><ele>379.38000488</ele><time>2015-05-25T11:58:29.000Z</time></trkpt>
        <trkpt lat="53.49296523" lon="-1.73474140"><ele>378.42001343</ele><time>2015-05-25T11:58:44.000Z</time></trkpt>
        <trkpt lat="53.49303916" lon="-1.73458574"><ele>378.42001343</ele><time>2015-05-25T11:58:57.000Z</time></trkpt>
        <trkpt lat="53.49307981" lon="-1.73454911"><ele>379.38000488</ele><time>2015-05-25T11:59:01.000Z</time></trkpt>
        <trkpt lat="53.49314595" lon="-1.73448818"><ele>382.26000977</ele><time>2015-05-25T11:59:10.000Z</time></trkpt>
        <trkpt lat="53.49325776" lon="-1.73442230"><ele>383.70001221</ele><time>2015-05-25T11:59:23.000Z</time></trkpt>
        <trkpt lat="53.49326447" lon="-1.73442054"><ele>383.70001221</ele><time>2015-05-25T11:59:25.000Z</time></trkpt>
        <trkpt lat="53.49334292" lon="-1.73432272"><ele>384.17999268</ele><time>2015-05-25T11:59:37.000Z</time></trkpt>
        <trkpt lat="53.49337142" lon="-1.73428358"><ele>385.14999390</ele><time>2015-05-25T11:59:56.000Z</time></trkpt>
        <trkpt lat="53.49337905" lon="-1.73416791"><ele>385.63000488</ele><time>2015-05-25T12:00:02.000Z</time></trkpt>
        <trkpt lat="53.49341241" lon="-1.73374747"><ele>384.17999268</ele><time>2015-05-25T12:00:22.000Z</time></trkpt>
        <trkpt lat="53.49345331" lon="-1.73341529"><ele>383.70001221</ele><time>2015-05-25T12:00:38.000Z</time></trkpt>
        <trkpt lat="53.49348826" lon="-1.73302361"><ele>382.73999023</ele><time>2015-05-25T12:00:56.000Z</time></trkpt>
        <trkpt lat="53.49349354" lon="-1.73262589"><ele>380.33999634</ele><time>2015-05-25T12:01:14.000Z</time></trkpt>
        <trkpt lat="53.49353814" lon="-1.73223177"><ele>378.89999390</ele><time>2015-05-25T12:01:32.000Z</time></trkpt>
        <trkpt lat="53.49357426" lon="-1.73178594"><ele>376.97000122</ele><time>2015-05-25T12:01:53.000Z</time></trkpt>
        <trkpt lat="53.49360821" lon="-1.73141244"><ele>375.52999878</ele><time>2015-05-25T12:02:10.000Z</time></trkpt>
        <trkpt lat="53.49364056" lon="-1.73105478"><ele>374.08999634</ele><time>2015-05-25T12:02:27.000Z</time></trkpt>
        <trkpt lat="53.49367409" lon="-1.73070190"><ele>373.13000488</ele><time>2015-05-25T12:02:44.000Z</time></trkpt>
        <trkpt lat="53.49372405" lon="-1.73030829"><ele>373.13000488</ele><time>2015-05-25T12:03:03.000Z</time></trkpt>
        <trkpt lat="53.49377316" lon="-1.72994502"><ele>372.64999390</ele><time>2015-05-25T12:03:20.000Z</time></trkpt>
        <trkpt lat="53.49380376" lon="-1.72961854"><ele>369.76000977</ele><time>2015-05-25T12:03:37.000Z</time></trkpt>
        <trkpt lat="53.49385187" lon="-1.72929592"><ele>368.32000732</ele><time>2015-05-25T12:03:52.000Z</time></trkpt>
        <trkpt lat="53.49392127" lon="-1.72895210"><ele>367.83999634</ele><time>2015-05-25T12:04:09.000Z</time></trkpt>
        <trkpt lat="53.49398514" lon="-1.72863199"><ele>369.27999878</ele><time>2015-05-25T12:04:24.000Z</time></trkpt>
        <trkpt lat="53.49405295" lon="-1.72821231"><ele>369.76000977</ele><time>2015-05-25T12:04:44.000Z</time></trkpt>
        <trkpt lat="53.49413174" lon="-1.72775491"><ele>366.39999390</ele><time>2015-05-25T12:05:03.000Z</time></trkpt>
        <trkpt lat="53.49419779" lon="-1.72744671"><ele>364.95999146</ele><time>2015-05-25T12:05:18.000Z</time></trkpt>
        <trkpt lat="53.49430156" lon="-1.72713356"><ele>364.95999146</ele><time>2015-05-25T12:05:34.000Z</time></trkpt>
        <trkpt lat="53.49434640" lon="-1.72674020"><ele>364.00000000</ele><time>2015-05-25T12:05:52.000Z</time></trkpt>
        <trkpt lat="53.49433961" lon="-1.72627467"><ele>362.07000732</ele><time>2015-05-25T12:06:12.000Z</time></trkpt>
        <trkpt lat="53.49432939" lon="-1.72620853"><ele>361.58999634</ele><time>2015-05-25T12:06:15.000Z</time></trkpt>
        <trkpt lat="53.49434297" lon="-1.72600276"><ele>363.51998901</ele><time>2015-05-25T12:06:32.000Z</time></trkpt>
        <trkpt lat="53.49434540" lon="-1.72599832"><ele>364.95999146</ele><time>2015-05-25T12:06:59.000Z</time></trkpt>
        <trkpt lat="53.49433701" lon="-1.72598105"><ele>363.51998901</ele><time>2015-05-25T12:07:17.000Z</time></trkpt>
        <trkpt lat="53.49434003" lon="-1.72599714"><ele>363.51998901</ele><time>2015-05-25T12:07:36.000Z</time></trkpt>
        <trkpt lat="53.49434984" lon="-1.72596563"><ele>363.04000854</ele><time>2015-05-25T12:07:50.000Z</time></trkpt>
        <trkpt lat="53.49441396" lon="-1.72579346"><ele>363.04000854</ele><time>2015-05-25T12:08:01.000Z</time></trkpt>
        <trkpt lat="53.49461814" lon="-1.72552004"><ele>360.63000488</ele><time>2015-05-25T12:08:22.000Z</time></trkpt>
        <trkpt lat="53.49478293" lon="-1.72533019"><ele>358.70999146</ele><time>2015-05-25T12:08:38.000Z</time></trkpt>
        <trkpt lat="53.49494487" lon="-1.72509416"><ele>355.82998657</ele><time>2015-05-25T12:08:56.000Z</time></trkpt>
        <trkpt lat="53.49508787" lon="-1.72489056"><ele>353.89999390</ele><time>2015-05-25T12:09:12.000Z</time></trkpt>
        <trkpt lat="53.49525467" lon="-1.72467465"><ele>351.01998901</ele><time>2015-05-25T12:09:29.000Z</time></trkpt>
        <trkpt lat="53.49543085" lon="-1.72443719"><ele>348.13000488</ele><time>2015-05-25T12:09:48.000Z</time></trkpt>
        <trkpt lat="53.49559338" lon="-1.72421540"><ele>345.25000000</ele><time>2015-05-25T12:10:06.000Z</time></trkpt>
        <trkpt lat="53.49577183" lon="-1.72397099"><ele>341.89001465</ele><time>2015-05-25T12:10:25.000Z</time></trkpt>
        <trkpt lat="53.49593301" lon="-1.72376957"><ele>339.48001099</ele><time>2015-05-25T12:10:42.000Z</time></trkpt>
        <trkpt lat="53.49610082" lon="-1.72354359"><ele>337.07998657</ele><time>2015-05-25T12:11:00.000Z</time></trkpt>
        <trkpt lat="53.49618548" lon="-1.72344552"><ele>335.64001465</ele><time>2015-05-25T12:11:08.000Z</time></trkpt>
        <trkpt lat="53.49633308" lon="-1.72323983"><ele>333.70999146</ele><time>2015-05-25T12:11:24.000Z</time></trkpt>
        <trkpt lat="53.49648379" lon="-1.72305794"><ele>330.82998657</ele><time>2015-05-25T12:11:40.000Z</time></trkpt>
        <trkpt lat="53.49663743" lon="-1.72308234"><ele>328.91000366</ele><time>2015-05-25T12:11:54.000Z</time></trkpt>
        <trkpt lat="53.49668554" lon="-1.72311494"><ele>328.42999268</ele><time>2015-05-25T12:12:11.000Z</time></trkpt>
        <trkpt lat="53.49670339" lon="-1.72313380"><ele>327.95001221</ele><time>2015-05-25T12:12:26.000Z</time></trkpt>
        <trkpt lat="53.49674975" lon="-1.72321653"><ele>326.98999023</ele><time>2015-05-25T12:12:32.000Z</time></trkpt>
        <trkpt lat="53.49677808" lon="-1.72331192"><ele>326.01998901</ele><time>2015-05-25T12:12:38.000Z</time></trkpt>
        <trkpt lat="53.49680909" lon="-1.72338241"><ele>326.50000000</ele><time>2015-05-25T12:12:55.000Z</time></trkpt>
        <trkpt lat="53.49683206" lon="-1.72353672"><ele>326.98999023</ele><time>2015-05-25T12:13:12.000Z</time></trkpt>
        <trkpt lat="53.49684337" lon="-1.72368374"><ele>326.98999023</ele><time>2015-05-25T12:13:20.000Z</time></trkpt>
        <trkpt lat="53.49685905" lon="-1.72370754"><ele>326.98999023</ele><time>2015-05-25T12:13:22.000Z</time></trkpt>
        <trkpt lat="53.49686827" lon="-1.72375725"><ele>327.47000122</ele><time>2015-05-25T12:13:25.000Z</time></trkpt>
        <trkpt lat="53.49688277" lon="-1.72377979"><ele>327.95001221</ele><time>2015-05-25T12:13:27.000Z</time></trkpt>
        <trkpt lat="53.49699416" lon="-1.72388415"><ele>328.42999268</ele><time>2015-05-25T12:13:41.000Z</time></trkpt>
        <trkpt lat="53.49704688" lon="-1.72380251"><ele>329.39001465</ele><time>2015-05-25T12:13:49.000Z</time></trkpt>
        <trkpt lat="53.49712609" lon="-1.72360403"><ele>331.30999756</ele><time>2015-05-25T12:14:04.000Z</time></trkpt>
        <trkpt lat="53.49722642" lon="-1.72341074"><ele>332.26998901</ele><time>2015-05-25T12:14:19.000Z</time></trkpt>
        <trkpt lat="53.49732969" lon="-1.72321854"><ele>334.67999268</ele><time>2015-05-25T12:14:35.000Z</time></trkpt>
        <trkpt lat="53.49735425" lon="-1.72316817"><ele>335.16000366</ele><time>2015-05-25T12:14:48.000Z</time></trkpt>
        <trkpt lat="53.49742122" lon="-1.72307186"><ele>336.11999512</ele><time>2015-05-25T12:15:07.000Z</time></trkpt>
        <trkpt lat="53.49745559" lon="-1.72303657"><ele>336.11999512</ele><time>2015-05-25T12:15:23.000Z</time></trkpt>
        <trkpt lat="53.49747679" lon="-1.72299810"><ele>334.20001221</ele><time>2015-05-25T12:15:35.000Z</time></trkpt>
        <trkpt lat="53.49746841" lon="-1.72300170"><ele>334.67999268</ele><time>2015-05-25T12:16:06.000Z</time></trkpt>
        <trkpt lat="53.49746414" lon="-1.72298318"><ele>335.16000366</ele><time>2015-05-25T12:16:10.000Z</time></trkpt>
        <trkpt lat="53.49745156" lon="-1.72284144"><ele>334.67999268</ele><time>2015-05-25T12:16:17.000Z</time></trkpt>
        <trkpt lat="53.49743027" lon="-1.72259225"><ele>333.23001099</ele><time>2015-05-25T12:16:29.000Z</time></trkpt>
        <trkpt lat="53.49742047" lon="-1.72247046"><ele>332.75000000</ele><time>2015-05-25T12:16:35.000Z</time></trkpt>
        <trkpt lat="53.49743614" lon="-1.72206846"><ele>332.75000000</ele><time>2015-05-25T12:16:54.000Z</time></trkpt>
        <trkpt lat="53.49748526" lon="-1.72167954"><ele>331.79000854</ele><time>2015-05-25T12:17:13.000Z</time></trkpt>
        <trkpt lat="53.49751828" lon="-1.72129674"><ele>330.82998657</ele><time>2015-05-25T12:17:31.000Z</time></trkpt>
        <trkpt lat="53.49755935" lon="-1.72100647"><ele>330.35000610</ele><time>2015-05-25T12:17:46.000Z</time></trkpt>
        <trkpt lat="53.49756472" lon="-1.72096817"><ele>330.35000610</ele><time>2015-05-25T12:18:05.000Z</time></trkpt>
        <trkpt lat="53.49758123" lon="-1.72089516"><ele>330.82998657</ele><time>2015-05-25T12:18:28.000Z</time></trkpt>
        <trkpt lat="53.49767754" lon="-1.72063063"><ele>331.30999756</ele><time>2015-05-25T12:18:44.000Z</time></trkpt>
        <trkpt lat="53.49775239" lon="-1.72035260"><ele>330.35000610</ele><time>2015-05-25T12:18:59.000Z</time></trkpt>
        <trkpt lat="53.49782783" lon="-1.72006016"><ele>329.86999512</ele><time>2015-05-25T12:19:15.000Z</time></trkpt>
        <trkpt lat="53.49790611" lon="-1.71972798"><ele>329.39001465</ele><time>2015-05-25T12:19:32.000Z</time></trkpt>
        <trkpt lat="53.49795439" lon="-1.71957568"><ele>330.35000610</ele><time>2015-05-25T12:19:41.000Z</time></trkpt>
        <trkpt lat="53.49798373" lon="-1.71942892"><ele>332.26998901</ele><time>2015-05-25T12:19:50.000Z</time></trkpt>
        <trkpt lat="53.49801684" lon="-1.71913899"><ele>330.82998657</ele><time>2015-05-25T12:20:06.000Z</time></trkpt>
        <trkpt lat="53.49803553" lon="-1.71877563"><ele>327.95001221</ele><time>2015-05-25T12:20:23.000Z</time></trkpt>
        <trkpt lat="53.49806696" lon="-1.71845083"><ele>328.42999268</ele><time>2015-05-25T12:20:40.000Z</time></trkpt>
        <trkpt lat="53.49811725" lon="-1.71809946"><ele>327.95001221</ele><time>2015-05-25T12:20:57.000Z</time></trkpt>
        <trkpt lat="53.49816796" lon="-1.71773611"><ele>327.47000122</ele><time>2015-05-25T12:21:15.000Z</time></trkpt>
        <trkpt lat="53.49821817" lon="-1.71735071"><ele>324.57998657</ele><time>2015-05-25T12:21:34.000Z</time></trkpt>
        <trkpt lat="53.49825807" lon="-1.71701627"><ele>323.61999512</ele><time>2015-05-25T12:21:50.000Z</time></trkpt>
        <trkpt lat="53.49834700" lon="-1.71671167"><ele>322.66000366</ele><time>2015-05-25T12:22:06.000Z</time></trkpt>
        <trkpt lat="53.49847751" lon="-1.71640858"><ele>321.70001221</ele><time>2015-05-25T12:22:24.000Z</time></trkpt>
        <trkpt lat="53.49864313" lon="-1.71611773"><ele>320.26000977</ele><time>2015-05-25T12:22:42.000Z</time></trkpt>
        <trkpt lat="53.49884631" lon="-1.71590240"><ele>319.29998779</ele><time>2015-05-25T12:23:00.000Z</time></trkpt>
        <trkpt lat="53.49899048" lon="-1.71571380"><ele>318.80999756</ele><time>2015-05-25T12:23:15.000Z</time></trkpt>
        <trkpt lat="53.49913934" lon="-1.71546788"><ele>315.92999268</ele><time>2015-05-25T12:23:32.000Z</time></trkpt>
        <trkpt lat="53.49932014" lon="-1.71528683"><ele>314.97000122</ele><time>2015-05-25T12:23:49.000Z</time></trkpt>
        <trkpt lat="53.49953421" lon="-1.71506756"><ele>312.57000732</ele><time>2015-05-25T12:24:08.000Z</time></trkpt>
        <trkpt lat="53.49969883" lon="-1.71492716"><ele>311.60000610</ele><time>2015-05-25T12:24:22.000Z</time></trkpt>
        <trkpt lat="53.49988642" lon="-1.71479255"><ele>311.60000610</ele><time>2015-05-25T12:24:39.000Z</time></trkpt>
        <trkpt lat="53.50008398" lon="-1.71460086"><ele>309.20001221</ele><time>2015-05-25T12:24:58.000Z</time></trkpt>
        <trkpt lat="53.50008583" lon="-1.71460781"><ele>308.23999023</ele><time>2015-05-25T12:25:21.000Z</time></trkpt>
        <trkpt lat="53.50011768" lon="-1.71450748"><ele>306.79998779</ele><time>2015-05-25T12:25:44.000Z</time></trkpt>
        <trkpt lat="53.50019136" lon="-1.71428754"><ele>303.42999268</ele><time>2015-05-25T12:25:58.000Z</time></trkpt>
        <trkpt lat="53.50021248" lon="-1.71402544"><ele>300.07000732</ele><time>2015-05-25T12:26:13.000Z</time></trkpt>
        <trkpt lat="53.50020619" lon="-1.71396081"><ele>298.63000488</ele><time>2015-05-25T12:26:17.000Z</time></trkpt>
        <trkpt lat="53.50018440" lon="-1.71373651"><ele>298.14999390</ele><time>2015-05-25T12:26:32.000Z</time></trkpt>
        <trkpt lat="53.50021231" lon="-1.71355211"><ele>294.77999878</ele><time>2015-05-25T12:26:46.000Z</time></trkpt>
        <trkpt lat="53.50021734" lon="-1.71349059"><ele>292.85998535</ele><time>2015-05-25T12:26:51.000Z</time></trkpt>
        <trkpt lat="53.50026830" lon="-1.71325858"><ele>289.01000977</ele><time>2015-05-25T12:27:08.000Z</time></trkpt>
        <trkpt lat="53.50033276" lon="-1.71303562"><ele>286.13000488</ele><time>2015-05-25T12:27:23.000Z</time></trkpt>
        <trkpt lat="53.50036662" lon="-1.71290017"><ele>282.76998901</ele><time>2015-05-25T12:27:33.000Z</time></trkpt>
        <trkpt lat="53.50041063" lon="-1.71274988"><ele>277.95999146</ele><time>2015-05-25T12:27:46.000Z</time></trkpt>
        <trkpt lat="53.50046217" lon="-1.71260169"><ele>274.10998535</ele><time>2015-05-25T12:27:59.000Z</time></trkpt>
        <trkpt lat="53.50046620" lon="-1.71243338"><ele>276.51998901</ele><time>2015-05-25T12:28:14.000Z</time></trkpt>
        <trkpt lat="53.50046737" lon="-1.71241854"><ele>281.32000732</ele><time>2015-05-25T12:28:36.000Z</time></trkpt>
        <trkpt lat="53.50046569" lon="-1.71242106"><ele>281.79998779</ele><time>2015-05-25T12:29:11.000Z</time></trkpt>
        <trkpt lat="53.50046670" lon="-1.71241544"><ele>282.27999878</ele><time>2015-05-25T12:29:28.000Z</time></trkpt>
        <trkpt lat="53.50045245" lon="-1.71238510"><ele>284.69000244</ele><time>2015-05-25T12:29:45.000Z</time></trkpt>
        <trkpt lat="53.50044105" lon="-1.71238560"><ele>284.20999146</ele><time>2015-05-25T12:30:13.000Z</time></trkpt>
        <trkpt lat="53.50045983" lon="-1.71236674"><ele>284.69000244</ele><time>2015-05-25T12:30:21.000Z</time></trkpt>
        <trkpt lat="53.50049981" lon="-1.71227085"><ele>288.52999878</ele><time>2015-05-25T12:30:34.000Z</time></trkpt>
        <trkpt lat="53.50049017" lon="-1.71221989"><ele>289.48999023</ele><time>2015-05-25T12:30:39.000Z</time></trkpt>
        <trkpt lat="53.50049579" lon="-1.71218410"><ele>290.94000244</ele><time>2015-05-25T12:30:49.000Z</time></trkpt>
        <trkpt lat="53.50048598" lon="-1.71215242"><ele>292.85998535</ele><time>2015-05-25T12:31:00.000Z</time></trkpt>
        <trkpt lat="53.50046461" lon="-1.71209911"><ele>293.82000732</ele><time>2015-05-25T12:31:20.000Z</time></trkpt>
        <trkpt lat="53.50047676" lon="-1.71207857"><ele>294.29998779</ele><time>2015-05-25T12:31:38.000Z</time></trkpt>
        <trkpt lat="53.50049704" lon="-1.71207220"><ele>296.22000122</ele><time>2015-05-25T12:31:50.000Z</time></trkpt>
        <trkpt lat="53.50050434" lon="-1.71207463"><ele>299.10998535</ele><time>2015-05-25T12:32:07.000Z</time></trkpt>
        <trkpt lat="53.50052093" lon="-1.71204622"><ele>300.54998779</ele><time>2015-05-25T12:32:32.000Z</time></trkpt>
        <trkpt lat="53.50052060" lon="-1.71204379"><ele>300.54998779</ele><time>2015-05-25T12:32:34.000Z</time></trkpt>
        <trkpt lat="53.50054977" lon="-1.71201780"><ele>301.02999878</ele><time>2015-05-25T12:32:37.000Z</time></trkpt>
        <trkpt lat="53.50058514" lon="-1.71199308"><ele>301.51000977</ele><time>2015-05-25T12:32:41.000Z</time></trkpt>
        <trkpt lat="53.50061917" lon="-1.71195444"><ele>303.42999268</ele><time>2015-05-25T12:32:45.000Z</time></trkpt>
        <trkpt lat="53.50062822" lon="-1.71192376"><ele>303.91000366</ele><time>2015-05-25T12:32:47.000Z</time></trkpt>
        <trkpt lat="53.50063208" lon="-1.71188713"><ele>304.39001465</ele><time>2015-05-25T12:32:49.000Z</time></trkpt>
        <trkpt lat="53.50068706" lon="-1.71183952"><ele>304.88000488</ele><time>2015-05-25T12:32:53.000Z</time></trkpt>
        <trkpt lat="53.50074096" lon="-1.71179418"><ele>305.35998535</ele><time>2015-05-25T12:32:57.000Z</time></trkpt>
        <trkpt lat="53.50079745" lon="-1.71171614"><ele>306.79998779</ele><time>2015-05-25T12:33:04.000Z</time></trkpt>
        <trkpt lat="53.50092796" lon="-1.71160759"><ele>307.76000977</ele><time>2015-05-25T12:33:17.000Z</time></trkpt>
        <trkpt lat="53.50095042" lon="-1.71152109"><ele>308.72000122</ele><time>2015-05-25T12:33:28.000Z</time></trkpt>
        <trkpt lat="53.50095863" lon="-1.71145571"><ele>309.20001221</ele><time>2015-05-25T12:33:37.000Z</time></trkpt>
        <trkpt lat="53.50096702" lon="-1.71139151"><ele>310.64001465</ele><time>2015-05-25T12:33:50.000Z</time></trkpt>
        <trkpt lat="53.50100935" lon="-1.71131557"><ele>311.11999512</ele><time>2015-05-25T12:34:01.000Z</time></trkpt>
        <trkpt lat="53.50104379" lon="-1.71119981"><ele>312.08999634</ele><time>2015-05-25T12:34:08.000Z</time></trkpt>
        <trkpt lat="53.50105536" lon="-1.71114617"><ele>312.57000732</ele><time>2015-05-25T12:34:10.000Z</time></trkpt>
        <trkpt lat="53.50114320" lon="-1.71100913"><ele>315.92999268</ele><time>2015-05-25T12:34:16.000Z</time></trkpt>
        <trkpt lat="53.50133473" lon="-1.71072875"><ele>315.45001221</ele><time>2015-05-25T12:34:30.000Z</time></trkpt>
        <trkpt lat="53.50143498" lon="-1.71052272"><ele>314.48999023</ele><time>2015-05-25T12:34:40.000Z</time></trkpt>
        <trkpt lat="53.50143640" lon="-1.71045818"><ele>312.57000732</ele><time>2015-05-25T12:34:43.000Z</time></trkpt>
        <trkpt lat="53.50145878" lon="-1.71041921"><ele>312.57000732</ele><time>2015-05-25T12:34:45.000Z</time></trkpt>
        <trkpt lat="53.50147773" lon="-1.71031267"><ele>311.11999512</ele><time>2015-05-25T12:34:50.000Z</time></trkpt>
        <trkpt lat="53.50157085" lon="-1.71012408"><ele>310.16000366</ele><time>2015-05-25T12:35:03.000Z</time></trkpt>
        <trkpt lat="53.50163790" lon="-1.70995845"><ele>309.67999268</ele><time>2015-05-25T12:35:14.000Z</time></trkpt>
        <trkpt lat="53.50164888" lon="-1.70980657"><ele>310.16000366</ele><time>2015-05-25T12:35:21.000Z</time></trkpt>
        <trkpt lat="53.50167680" lon="-1.70966324"><ele>309.20001221</ele><time>2015-05-25T12:35:29.000Z</time></trkpt>
        <trkpt lat="53.50171837" lon="-1.70955344"><ele>309.20001221</ele><time>2015-05-25T12:35:37.000Z</time></trkpt>
        <trkpt lat="53.50175248" lon="-1.70945914"><ele>308.23999023</ele><time>2015-05-25T12:35:41.000Z</time></trkpt>
        <trkpt lat="53.50183127" lon="-1.70923962"><ele>306.79998779</ele><time>2015-05-25T12:35:53.000Z</time></trkpt>
        <trkpt lat="53.50183790" lon="-1.70922210"><ele>306.79998779</ele><time>2015-05-25T12:35:54.000Z</time></trkpt>
        <trkpt lat="53.50184569" lon="-1.70911239"><ele>306.79998779</ele><time>2015-05-25T12:35:58.000Z</time></trkpt>
        <trkpt lat="53.50183957" lon="-1.70883629"><ele>306.32000732</ele><time>2015-05-25T12:36:10.000Z</time></trkpt>
        <trkpt lat="53.50188056" lon="-1.70863420"><ele>307.76000977</ele><time>2015-05-25T12:36:20.000Z</time></trkpt>
        <trkpt lat="53.50193848" lon="-1.70850361"><ele>304.88000488</ele><time>2015-05-25T12:36:36.000Z</time></trkpt>
        <trkpt lat="53.50196010" lon="-1.70841803"><ele>303.42999268</ele><time>2015-05-25T12:36:56.000Z</time></trkpt>
        <trkpt lat="53.50197947" lon="-1.70828744"><ele>307.76000977</ele><time>2015-05-25T12:37:08.000Z</time></trkpt>
        <trkpt lat="53.50199791" lon="-1.70803296"><ele>312.08999634</ele><time>2015-05-25T12:37:22.000Z</time></trkpt>
        <trkpt lat="53.50194954" lon="-1.70796163"><ele>312.57000732</ele><time>2015-05-25T12:37:35.000Z</time></trkpt>
        <trkpt lat="53.50191845" lon="-1.70795325"><ele>312.57000732</ele><time>2015-05-25T12:37:50.000Z</time></trkpt>
        <trkpt lat="53.50191216" lon="-1.70796105"><ele>310.64001465</ele><time>2015-05-25T12:38:19.000Z</time></trkpt>
        <trkpt lat="53.50191467" lon="-1.70786155"><ele>313.52999878</ele><time>2015-05-25T12:38:30.000Z</time></trkpt>
        <trkpt lat="53.50189565" lon="-1.70776927"><ele>316.89001465</ele><time>2015-05-25T12:38:36.000Z</time></trkpt>
        <trkpt lat="53.50187520" lon="-1.70762225"><ele>317.36999512</ele><time>2015-05-25T12:38:44.000Z</time></trkpt>
        <trkpt lat="53.50182725" lon="-1.70744405"><ele>317.36999512</ele><time>2015-05-25T12:38:55.000Z</time></trkpt>
        <trkpt lat="53.50181694" lon="-1.70723777"><ele>316.89001465</ele><time>2015-05-25T12:39:05.000Z</time></trkpt>
        <trkpt lat="53.50179682" lon="-1.70714775"><ele>317.36999512</ele><time>2015-05-25T12:39:12.000Z</time></trkpt>
        <trkpt lat="53.50176564" lon="-1.70701926"><ele>317.36999512</ele><time>2015-05-25T12:39:22.000Z</time></trkpt>
        <trkpt lat="53.50175877" lon="-1.70664961"><ele>309.67999268</ele><time>2015-05-25T12:39:34.000Z</time></trkpt>
        <trkpt lat="53.50177059" lon="-1.70646823"><ele>309.20001221</ele><time>2015-05-25T12:39:45.000Z</time></trkpt>
        <trkpt lat="53.50178073" lon="-1.70637812"><ele>297.17999268</ele><time>2015-05-25T12:39:55.000Z</time></trkpt>
        <trkpt lat="53.50178895" lon="-1.70630612"><ele>290.45999146</ele><time>2015-05-25T12:40:12.000Z</time></trkpt>
        <trkpt lat="53.50170672" lon="-1.70612684"><ele>286.60998535</ele><time>2015-05-25T12:40:23.000Z</time></trkpt>
        <trkpt lat="53.50168920" lon="-1.70609934"><ele>284.69000244</ele><time>2015-05-25T12:40:25.000Z</time></trkpt>
        <trkpt lat="53.50161301" lon="-1.70591125"><ele>274.10998535</ele><time>2015-05-25T12:40:37.000Z</time></trkpt>
        <trkpt lat="53.50161376" lon="-1.70580883"><ele>266.42001343</ele><time>2015-05-25T12:40:53.000Z</time></trkpt>
        <trkpt lat="53.50160974" lon="-1.70579089"><ele>265.94000244</ele><time>2015-05-25T12:41:08.000Z</time></trkpt>
        <trkpt lat="53.50158501" lon="-1.70572945"><ele>261.61999512</ele><time>2015-05-25T12:41:27.000Z</time></trkpt>
        <trkpt lat="53.50159407" lon="-1.70562141"><ele>261.14001465</ele><time>2015-05-25T12:41:39.000Z</time></trkpt>
        <trkpt lat="53.50157236" lon="-1.70550398"><ele>261.14001465</ele><time>2015-05-25T12:41:54.000Z</time></trkpt>
        <trkpt lat="53.50156188" lon="-1.70538755"><ele>263.54000854</ele><time>2015-05-25T12:42:06.000Z</time></trkpt>
        <trkpt lat="53.50157328" lon="-1.70525260"><ele>267.85998535</ele><time>2015-05-25T12:42:20.000Z</time></trkpt>
        <trkpt lat="53.50157588" lon="-1.70523475"><ele>268.82998657</ele><time>2015-05-25T12:42:22.000Z</time></trkpt>
        <trkpt lat="53.50159826" lon="-1.70500567"><ele>268.82998657</ele><time>2015-05-25T12:42:36.000Z</time></trkpt>
        <trkpt lat="53.50160530" lon="-1.70495597"><ele>267.38000488</ele><time>2015-05-25T12:42:47.000Z</time></trkpt>
        <trkpt lat="53.50159440" lon="-1.70484507"><ele>267.38000488</ele><time>2015-05-25T12:43:06.000Z</time></trkpt>
        <trkpt lat="53.50159457" lon="-1.70479948"><ele>266.89999390</ele><time>2015-05-25T12:43:21.000Z</time></trkpt>
        <trkpt lat="53.50160262" lon="-1.70475237"><ele>265.45999146</ele><time>2015-05-25T12:43:34.000Z</time></trkpt>
        <trkpt lat="53.50159951" lon="-1.70474608"><ele>264.98001099</ele><time>2015-05-25T12:43:42.000Z</time></trkpt>
        <trkpt lat="53.50165852" lon="-1.70470996"><ele>265.94000244</ele><time>2015-05-25T12:43:54.000Z</time></trkpt>
        <trkpt lat="53.50174117" lon="-1.70470267"><ele>269.30999756</ele><time>2015-05-25T12:44:06.000Z</time></trkpt>
        <trkpt lat="53.50178978" lon="-1.70469060"><ele>274.58999634</ele><time>2015-05-25T12:44:16.000Z</time></trkpt>
        <trkpt lat="53.50188978" lon="-1.70458490"><ele>280.83999634</ele><time>2015-05-25T12:44:29.000Z</time></trkpt>
        <trkpt lat="53.50193303" lon="-1.70451466"><ele>285.17001343</ele><time>2015-05-25T12:44:40.000Z</time></trkpt>
        <trkpt lat="53.50200444" lon="-1.70444014"><ele>289.48999023</ele><time>2015-05-25T12:44:50.000Z</time></trkpt>
        <trkpt lat="53.50198776" lon="-1.70444526"><ele>289.48999023</ele><time>2015-05-25T12:45:12.000Z</time></trkpt>
        <trkpt lat="53.50199807" lon="-1.70438658"><ele>288.52999878</ele><time>2015-05-25T12:45:29.000Z</time></trkpt>
        <trkpt lat="53.50203630" lon="-1.70435909"><ele>290.94000244</ele><time>2015-05-25T12:45:34.000Z</time></trkpt>
        <trkpt lat="53.50210796" lon="-1.70428961"><ele>293.82000732</ele><time>2015-05-25T12:45:43.000Z</time></trkpt>
        <trkpt lat="53.50211115" lon="-1.70426614"><ele>293.82000732</ele><time>2015-05-25T12:45:45.000Z</time></trkpt>
        <trkpt lat="53.50217024" lon="-1.70420201"><ele>298.14999390</ele><time>2015-05-25T12:45:55.000Z</time></trkpt>
        <trkpt lat="53.50222112" lon="-1.70412222"><ele>304.88000488</ele><time>2015-05-25T12:46:05.000Z</time></trkpt>
        <trkpt lat="53.50226437" lon="-1.70407880"><ele>312.57000732</ele><time>2015-05-25T12:46:18.000Z</time></trkpt>
        <trkpt lat="53.50225439" lon="-1.70404360"><ele>317.85000610</ele><time>2015-05-25T12:46:33.000Z</time></trkpt>
        <trkpt lat="53.50227384" lon="-1.70401686"><ele>323.61999512</ele><time>2015-05-25T12:46:44.000Z</time></trkpt>
        <trkpt lat="53.50252639" lon="-1.70390178"><ele>315.92999268</ele><time>2015-05-25T12:46:56.000Z</time></trkpt>
        <trkpt lat="53.50256419" lon="-1.70386842"><ele>315.45001221</ele><time>2015-05-25T12:46:59.000Z</time></trkpt>
        <trkpt lat="53.50271204" lon="-1.70371301"><ele>313.04998779</ele><time>2015-05-25T12:47:13.000Z</time></trkpt>
        <trkpt lat="53.50278698" lon="-1.70355904"><ele>312.08999634</ele><time>2015-05-25T12:47:25.000Z</time></trkpt>
        <trkpt lat="53.50281154" lon="-1.70341445"><ele>312.57000732</ele><time>2015-05-25T12:47:34.000Z</time></trkpt>
        <trkpt lat="53.50285093" lon="-1.70333088"><ele>314.48999023</ele><time>2015-05-25T12:47:46.000Z</time></trkpt>
        <trkpt lat="53.50290089" lon="-1.70330741"><ele>314.97000122</ele><time>2015-05-25T12:48:05.000Z</time></trkpt>
        <trkpt lat="53.50289770" lon="-1.70332971"><ele>313.04998779</ele><time>2015-05-25T12:48:24.000Z</time></trkpt>
        <trkpt lat="53.50289678" lon="-1.70332711"><ele>313.04998779</ele><time>2015-05-25T12:48:39.000Z</time></trkpt>
        <trkpt lat="53.50289276" lon="-1.70333742"><ele>310.64001465</ele><time>2015-05-25T12:48:58.000Z</time></trkpt>
        <trkpt lat="53.50288480" lon="-1.70334128"><ele>310.16000366</ele><time>2015-05-25T12:49:18.000Z</time></trkpt>
        <trkpt lat="53.50287373" lon="-1.70318487"><ele>312.08999634</ele><time>2015-05-25T12:49:27.000Z</time></trkpt>
        <trkpt lat="53.50288295" lon="-1.70310206"><ele>315.92999268</ele><time>2015-05-25T12:49:33.000Z</time></trkpt>
        <trkpt lat="53.50287708" lon="-1.70295613"><ele>324.10000610</ele><time>2015-05-25T12:49:43.000Z</time></trkpt>
        <trkpt lat="53.50287625" lon="-1.70286091"><ele>329.86999512</ele><time>2015-05-25T12:49:50.000Z</time></trkpt>
        <trkpt lat="53.50290424" lon="-1.70279570"><ele>332.26998901</ele><time>2015-05-25T12:49:55.000Z</time></trkpt>
        <trkpt lat="53.50290701" lon="-1.70261758"><ele>330.82998657</ele><time>2015-05-25T12:50:08.000Z</time></trkpt>
        <trkpt lat="53.50291279" lon="-1.70254014"><ele>332.26998901</ele><time>2015-05-25T12:50:11.000Z</time></trkpt>
        <trkpt lat="53.50291128" lon="-1.70247216"><ele>332.26998901</ele><time>2015-05-25T12:50:13.000Z</time></trkpt>
        <trkpt lat="53.50290935" lon="-1.70240561"><ele>332.26998901</ele><time>2015-05-25T12:50:16.000Z</time></trkpt>
        <trkpt lat="53.50292285" lon="-1.70210151"><ele>328.42999268</ele><time>2015-05-25T12:50:29.000Z</time></trkpt>
        <trkpt lat="53.50292352" lon="-1.70208659"><ele>328.42999268</ele><time>2015-05-25T12:50:30.000Z</time></trkpt>
        <trkpt lat="53.50297515" lon="-1.70181116"><ele>325.05999756</ele><time>2015-05-25T12:50:44.000Z</time></trkpt>
        <trkpt lat="53.50299041" lon="-1.70168124"><ele>325.54000854</ele><time>2015-05-25T12:50:52.000Z</time></trkpt>
        <trkpt lat="53.50303114" lon="-1.70157052"><ele>326.98999023</ele><time>2015-05-25T12:51:01.000Z</time></trkpt>
        <trkpt lat="53.50305730" lon="-1.70147471"><ele>328.91000366</ele><time>2015-05-25T12:51:06.000Z</time></trkpt>
        <trkpt lat="53.50305830" lon="-1.70116140"><ele>328.42999268</ele><time>2015-05-25T12:51:20.000Z</time></trkpt>
        <trkpt lat="53.50303877" lon="-1.70107456"><ele>332.26998901</ele><time>2015-05-25T12:51:25.000Z</time></trkpt>
        <trkpt lat="53.50304439" lon="-1.70096149"><ele>338.51998901</ele><time>2015-05-25T12:51:33.000Z</time></trkpt>
        <trkpt lat="53.50302419" lon="-1.70070391"><ele>339.00000000</ele><time>2015-05-25T12:51:47.000Z</time></trkpt>
        <trkpt lat="53.50300994" lon="-1.70062772"><ele>337.55999756</ele><time>2015-05-25T12:51:51.000Z</time></trkpt>
        <trkpt lat="53.50297272" lon="-1.70045195"><ele>338.04000854</ele><time>2015-05-25T12:51:59.000Z</time></trkpt>
        <trkpt lat="53.50295722" lon="-1.70036696"><ele>337.07998657</ele><time>2015-05-25T12:52:03.000Z</time></trkpt>
        <trkpt lat="53.50294699" lon="-1.70031273"><ele>336.11999512</ele><time>2015-05-25T12:52:05.000Z</time></trkpt>
        <trkpt lat="53.50289955" lon="-1.70008935"><ele>330.35000610</ele><time>2015-05-25T12:52:15.000Z</time></trkpt>
        <trkpt lat="53.50288362" lon="-1.69998684"><ele>329.39001465</ele><time>2015-05-25T12:52:19.000Z</time></trkpt>
        <trkpt lat="53.50285437" lon="-1.69991031"><ele>330.82998657</ele><time>2015-05-25T12:52:24.000Z</time></trkpt>
        <trkpt lat="53.50281925" lon="-1.69971518"><ele>334.20001221</ele><time>2015-05-25T12:52:35.000Z</time></trkpt>
        <trkpt lat="53.50274297" lon="-1.69945677"><ele>335.64001465</ele><time>2015-05-25T12:52:48.000Z</time></trkpt>
        <trkpt lat="53.50273769" lon="-1.69939944"><ele>335.16000366</ele><time>2015-05-25T12:52:51.000Z</time></trkpt>
        <trkpt lat="53.50270827" lon="-1.69930103"><ele>335.16000366</ele><time>2015-05-25T12:52:56.000Z</time></trkpt>
        <trkpt lat="53.50266167" lon="-1.69912585"><ele>334.67999268</ele><time>2015-05-25T12:53:07.000Z</time></trkpt>
        <trkpt lat="53.50263325" lon="-1.69905687"><ele>334.67999268</ele><time>2015-05-25T12:53:12.000Z</time></trkpt>
        <trkpt lat="53.50261699" lon="-1.69890725"><ele>333.70999146</ele><time>2015-05-25T12:53:21.000Z</time></trkpt>
        <trkpt lat="53.50256193" lon="-1.69874146"><ele>335.64001465</ele><time>2015-05-25T12:53:34.000Z</time></trkpt>
        <trkpt lat="53.50252831" lon="-1.69870139"><ele>331.79000854</ele><time>2015-05-25T12:53:49.000Z</time></trkpt>
        <trkpt lat="53.50247182" lon="-1.69861640"><ele>326.98999023</ele><time>2015-05-25T12:54:14.000Z</time></trkpt>
        <trkpt lat="53.50241214" lon="-1.69851925"><ele>331.79000854</ele><time>2015-05-25T12:54:30.000Z</time></trkpt>
        <trkpt lat="53.50239177" lon="-1.69852110"><ele>334.67999268</ele><time>2015-05-25T12:54:35.000Z</time></trkpt>
        <trkpt lat="53.50235539" lon="-1.69839830"><ele>341.89001465</ele><time>2015-05-25T12:54:45.000Z</time></trkpt>
        <trkpt lat="53.50230837" lon="-1.69822438"><ele>343.32998657</ele><time>2015-05-25T12:54:54.000Z</time></trkpt>
        <trkpt lat="53.50229907" lon="-1.69812279"><ele>341.41000366</ele><time>2015-05-25T12:55:03.000Z</time></trkpt>
        <trkpt lat="53.50224651" lon="-1.69802246"><ele>345.25000000</ele><time>2015-05-25T12:55:13.000Z</time></trkpt>
        <trkpt lat="53.50210670" lon="-1.69783361"><ele>346.69000244</ele><time>2015-05-25T12:55:25.000Z</time></trkpt>
        <trkpt lat="53.50205566" lon="-1.69772205"><ele>345.73001099</ele><time>2015-05-25T12:55:33.000Z</time></trkpt>
        <trkpt lat="53.50192691" lon="-1.69745324"><ele>338.04000854</ele><time>2015-05-25T12:55:47.000Z</time></trkpt>
        <trkpt lat="53.50190931" lon="-1.69740429"><ele>337.55999756</ele><time>2015-05-25T12:55:51.000Z</time></trkpt>
        <trkpt lat="53.50186061" lon="-1.69726012"><ele>338.04000854</ele><time>2015-05-25T12:55:59.000Z</time></trkpt>
        <trkpt lat="53.50182717" lon="-1.69717505"><ele>337.55999756</ele><time>2015-05-25T12:56:04.000Z</time></trkpt>
        <trkpt lat="53.50174469" lon="-1.69698989"><ele>336.60000610</ele><time>2015-05-25T12:56:13.000Z</time></trkpt>
        <trkpt lat="53.50170446" lon="-1.69688973"><ele>335.16000366</ele><time>2015-05-25T12:56:19.000Z</time></trkpt>
        <trkpt lat="53.50163857" lon="-1.69669418"><ele>333.23001099</ele><time>2015-05-25T12:56:29.000Z</time></trkpt>
        <trkpt lat="53.50155744" lon="-1.69650793"><ele>332.75000000</ele><time>2015-05-25T12:56:38.000Z</time></trkpt>
        <trkpt lat="53.50154671" lon="-1.69647147"><ele>333.23001099</ele><time>2015-05-25T12:56:40.000Z</time></trkpt>
        <trkpt lat="53.50144797" lon="-1.69629394"><ele>334.20001221</ele><time>2015-05-25T12:56:52.000Z</time></trkpt>
        <trkpt lat="53.50141704" lon="-1.69619277"><ele>335.16000366</ele><time>2015-05-25T12:57:03.000Z</time></trkpt>
        <trkpt lat="53.50127229" lon="-1.69603159"><ele>335.16000366</ele><time>2015-05-25T12:57:17.000Z</time></trkpt>
        <trkpt lat="53.50114438" lon="-1.69593737"><ele>336.11999512</ele><time>2015-05-25T12:57:29.000Z</time></trkpt>
        <trkpt lat="53.50110088" lon="-1.69585624"><ele>336.11999512</ele><time>2015-05-25T12:57:38.000Z</time></trkpt>
        <trkpt lat="53.50106576" lon="-1.69576169"><ele>339.48001099</ele><time>2015-05-25T12:57:49.000Z</time></trkpt>
        <trkpt lat="53.50106098" lon="-1.69574853"><ele>339.95999146</ele><time>2015-05-25T12:57:51.000Z</time></trkpt>
        <trkpt lat="53.50100406" lon="-1.69559011"><ele>339.95999146</ele><time>2015-05-25T12:58:03.000Z</time></trkpt>
        <trkpt lat="53.50099484" lon="-1.69548509"><ele>340.92001343</ele><time>2015-05-25T12:58:12.000Z</time></trkpt>
        <trkpt lat="53.50095939" lon="-1.69528811"><ele>349.10000610</ele><time>2015-05-25T12:58:26.000Z</time></trkpt>
        <trkpt lat="53.50092821" lon="-1.69516808"><ele>354.85998535</ele><time>2015-05-25T12:58:37.000Z</time></trkpt>
        <trkpt lat="53.50088890" lon="-1.69506859"><ele>359.19000244</ele><time>2015-05-25T12:58:46.000Z</time></trkpt>
        <trkpt lat="53.50087758" lon="-1.69501335"><ele>359.19000244</ele><time>2015-05-25T12:58:49.000Z</time></trkpt>
        <trkpt lat="53.50078898" lon="-1.69479987"><ele>357.75000000</ele><time>2015-05-25T12:59:01.000Z</time></trkpt>
        <trkpt lat="53.50067742" lon="-1.69455495"><ele>355.82998657</ele><time>2015-05-25T12:59:14.000Z</time></trkpt>
        <trkpt lat="53.50051749" lon="-1.69428782"><ele>340.92001343</ele><time>2015-05-25T12:59:24.000Z</time></trkpt>
        <trkpt lat="53.50047852" lon="-1.69416930"><ele>337.07998657</ele><time>2015-05-25T12:59:28.000Z</time></trkpt>
        <trkpt lat="53.50043518" lon="-1.69409436"><ele>334.20001221</ele><time>2015-05-25T12:59:32.000Z</time></trkpt>
        <trkpt lat="53.50037752" lon="-1.69399009"><ele>331.30999756</ele><time>2015-05-25T12:59:38.000Z</time></trkpt>
        <trkpt lat="53.50028221" lon="-1.69378708"><ele>326.98999023</ele><time>2015-05-25T12:59:45.000Z</time></trkpt>
        <trkpt lat="53.50022036" lon="-1.69359882"><ele>323.61999512</ele><time>2015-05-25T12:59:53.000Z</time></trkpt>
        <trkpt lat="53.50017074" lon="-1.69341023"><ele>322.66000366</ele><time>2015-05-25T13:00:03.000Z</time></trkpt>
        <trkpt lat="53.50011843" lon="-1.69327252"><ele>323.61999512</ele><time>2015-05-25T13:00:09.000Z</time></trkpt>
        <trkpt lat="53.50007627" lon="-1.69321636"><ele>324.10000610</ele><time>2015-05-25T13:00:14.000Z</time></trkpt>
        <trkpt lat="53.49999438" lon="-1.69303472"><ele>323.61999512</ele><time>2015-05-25T13:00:25.000Z</time></trkpt>
        <trkpt lat="53.49997477" lon="-1.69299474"><ele>324.57998657</ele><time>2015-05-25T13:00:27.000Z</time></trkpt>
        <trkpt lat="53.49991417" lon="-1.69270942"><ele>326.98999023</ele><time>2015-05-25T13:00:40.000Z</time></trkpt>
        <trkpt lat="53.49982054" lon="-1.69248101"><ele>326.50000000</ele><time>2015-05-25T13:00:51.000Z</time></trkpt>
        <trkpt lat="53.49972155" lon="-1.69223324"><ele>323.14001465</ele><time>2015-05-25T13:01:03.000Z</time></trkpt>
        <trkpt lat="53.49964175" lon="-1.69197902"><ele>318.80999756</ele><time>2015-05-25T13:01:16.000Z</time></trkpt>
        <trkpt lat="53.49960529" lon="-1.69179571"><ele>319.77999878</ele><time>2015-05-25T13:01:24.000Z</time></trkpt>
        <trkpt lat="53.49954251" lon="-1.69159588"><ele>320.73999023</ele><time>2015-05-25T13:01:36.000Z</time></trkpt>
        <trkpt lat="53.49951074" lon="-1.69138743"><ele>324.10000610</ele><time>2015-05-25T13:01:47.000Z</time></trkpt>
        <trkpt lat="53.49949063" lon="-1.69121861"><ele>327.47000122</ele><time>2015-05-25T13:01:54.000Z</time></trkpt>
        <trkpt lat="53.49950245" lon="-1.69107193"><ele>335.64001465</ele><time>2015-05-25T13:02:06.000Z</time></trkpt>
        <trkpt lat="53.49947101" lon="-1.69093598"><ele>339.95999146</ele><time>2015-05-25T13:02:15.000Z</time></trkpt>
        <trkpt lat="53.49946272" lon="-1.69090538"><ele>340.44000244</ele><time>2015-05-25T13:02:17.000Z</time></trkpt>
        <trkpt lat="53.49936247" lon="-1.69067304"><ele>338.51998901</ele><time>2015-05-25T13:02:29.000Z</time></trkpt>
        <trkpt lat="53.49935434" lon="-1.69065141"><ele>339.00000000</ele><time>2015-05-25T13:02:30.000Z</time></trkpt>
        <trkpt lat="53.49929390" lon="-1.69053080"><ele>338.04000854</ele><time>2015-05-25T13:02:35.000Z</time></trkpt>
        <trkpt lat="53.49925870" lon="-1.69047078"><ele>337.07998657</ele><time>2015-05-25T13:02:38.000Z</time></trkpt>
        <trkpt lat="53.49923959" lon="-1.69039442"><ele>337.07998657</ele><time>2015-05-25T13:02:41.000Z</time></trkpt>
        <trkpt lat="53.49916860" lon="-1.69023416"><ele>330.35000610</ele><time>2015-05-25T13:02:54.000Z</time></trkpt>
        <trkpt lat="53.49913490" lon="-1.69014112"><ele>328.42999268</ele><time>2015-05-25T13:03:06.000Z</time></trkpt>
        <trkpt lat="53.49908855" lon="-1.68993610"><ele>326.50000000</ele><time>2015-05-25T13:03:13.000Z</time></trkpt>
        <trkpt lat="53.49906541" lon="-1.68978020"><ele>326.01998901</ele><time>2015-05-25T13:03:20.000Z</time></trkpt>
        <trkpt lat="53.49903507" lon="-1.68969730"><ele>325.54000854</ele><time>2015-05-25T13:03:24.000Z</time></trkpt>
        <trkpt lat="53.49903909" lon="-1.68955464"><ele>319.77999878</ele><time>2015-05-25T13:03:30.000Z</time></trkpt>
        <trkpt lat="53.49905460" lon="-1.68944115"><ele>317.85000610</ele><time>2015-05-25T13:03:35.000Z</time></trkpt>
        <trkpt lat="53.49903985" lon="-1.68926873"><ele>316.41000366</ele><time>2015-05-25T13:03:43.000Z</time></trkpt>
        <trkpt lat="53.49903742" lon="-1.68916237"><ele>314.97000122</ele><time>2015-05-25T13:03:47.000Z</time></trkpt>
        <trkpt lat="53.49902786" lon="-1.68905181"><ele>314.48999023</ele><time>2015-05-25T13:03:53.000Z</time></trkpt>
        <trkpt lat="53.49901160" lon="-1.68892977"><ele>314.97000122</ele><time>2015-05-25T13:03:58.000Z</time></trkpt>
        <trkpt lat="53.49902912" lon="-1.68868577"><ele>318.32998657</ele><time>2015-05-25T13:04:09.000Z</time></trkpt>
        <trkpt lat="53.49898587" lon="-1.68861176"><ele>318.32998657</ele><time>2015-05-25T13:04:14.000Z</time></trkpt>
        <trkpt lat="53.49900473" lon="-1.68852367"><ele>317.36999512</ele><time>2015-05-25T13:04:19.000Z</time></trkpt>
        <trkpt lat="53.49899693" lon="-1.68837304"><ele>317.36999512</ele><time>2015-05-25T13:04:25.000Z</time></trkpt>
        <trkpt lat="53.49902082" lon="-1.68831320"><ele>317.85000610</ele><time>2015-05-25T13:04:28.000Z</time></trkpt>
        <trkpt lat="53.49902141" lon="-1.68813114"><ele>315.92999268</ele><time>2015-05-25T13:04:35.000Z</time></trkpt>
        <trkpt lat="53.49901889" lon="-1.68800323"><ele>312.08999634</ele><time>2015-05-25T13:04:41.000Z</time></trkpt>
        <trkpt lat="53.49895452" lon="-1.68785462"><ele>304.88000488</ele><time>2015-05-25T13:04:46.000Z</time></trkpt>
        <trkpt lat="53.49894363" lon="-1.68777692"><ele>302.47000122</ele><time>2015-05-25T13:04:49.000Z</time></trkpt>
        <trkpt lat="53.49892921" lon="-1.68772412"><ele>301.02999878</ele><time>2015-05-25T13:04:52.000Z</time></trkpt>
        <trkpt lat="53.49894363" lon="-1.68761188"><ele>299.10998535</ele><time>2015-05-25T13:04:57.000Z</time></trkpt>
        <trkpt lat="53.49895712" lon="-1.68749713"><ele>297.67001343</ele><time>2015-05-25T13:05:10.000Z</time></trkpt>
        <trkpt lat="53.49896542" lon="-1.68748867"><ele>297.17999268</ele><time>2015-05-25T13:05:26.000Z</time></trkpt>
        <trkpt lat="53.49896156" lon="-1.68734844"><ele>295.73999023</ele><time>2015-05-25T13:05:38.000Z</time></trkpt>
        <trkpt lat="53.49899350" lon="-1.68710603"><ele>294.77999878</ele><time>2015-05-25T13:05:47.000Z</time></trkpt>
        <trkpt lat="53.49902652" lon="-1.68695952"><ele>294.29998779</ele><time>2015-05-25T13:05:52.000Z</time></trkpt>
        <trkpt lat="53.49906164" lon="-1.68668292"><ele>289.48999023</ele><time>2015-05-25T13:06:03.000Z</time></trkpt>
        <trkpt lat="53.49905888" lon="-1.68662776"><ele>288.04998779</ele><time>2015-05-25T13:06:07.000Z</time></trkpt>
        <trkpt lat="53.49906608" lon="-1.68639533"><ele>286.13000488</ele><time>2015-05-25T13:06:19.000Z</time></trkpt>
        <trkpt lat="53.49907849" lon="-1.68619710"><ele>285.64999390</ele><time>2015-05-25T13:06:33.000Z</time></trkpt>
        <trkpt lat="53.49908017" lon="-1.68606089"><ele>283.73001099</ele><time>2015-05-25T13:06:46.000Z</time></trkpt>
        <trkpt lat="53.49908050" lon="-1.68599702"><ele>280.83999634</ele><time>2015-05-25T13:06:50.000Z</time></trkpt>
        <trkpt lat="53.49907271" lon="-1.68587356"><ele>278.44000244</ele><time>2015-05-25T13:06:58.000Z</time></trkpt>
        <trkpt lat="53.49908922" lon="-1.68572101"><ele>277.95999146</ele><time>2015-05-25T13:07:05.000Z</time></trkpt>
        <trkpt lat="53.49916214" lon="-1.68538137"><ele>279.39999390</ele><time>2015-05-25T13:07:10.000Z</time></trkpt>
        <trkpt lat="53.49918201" lon="-1.68523259"><ele>277.48001099</ele><time>2015-05-25T13:07:21.000Z</time></trkpt>
        <trkpt lat="53.49919525" lon="-1.68509035"><ele>277.00000000</ele><time>2015-05-25T13:07:33.000Z</time></trkpt>
        <trkpt lat="53.49921335" lon="-1.68504358"><ele>277.00000000</ele><time>2015-05-25T13:07:43.000Z</time></trkpt>
        <trkpt lat="53.49924370" lon="-1.68495624"><ele>277.95999146</ele><time>2015-05-25T13:07:47.000Z</time></trkpt>
        <trkpt lat="53.49935912" lon="-1.68471359"><ele>280.83999634</ele><time>2015-05-25T13:07:57.000Z</time></trkpt>
        <trkpt lat="53.49953162" lon="-1.68420237"><ele>285.17001343</ele><time>2015-05-25T13:08:11.000Z</time></trkpt>
        <trkpt lat="53.49963622" lon="-1.68405293"><ele>289.01000977</ele><time>2015-05-25T13:08:23.000Z</time></trkpt>
        <trkpt lat="53.49976681" lon="-1.68394974"><ele>297.67001343</ele><time>2015-05-25T13:08:39.000Z</time></trkpt>
        <trkpt lat="53.49984183" lon="-1.68379434"><ele>295.73999023</ele><time>2015-05-25T13:08:53.000Z</time></trkpt>
        <trkpt lat="53.49990075" lon="-1.68362285"><ele>296.22000122</ele><time>2015-05-25T13:09:01.000Z</time></trkpt>
        <trkpt lat="53.50000075" lon="-1.68347952"><ele>298.63000488</ele><time>2015-05-25T13:09:18.000Z</time></trkpt>
        <trkpt lat="53.50002632" lon="-1.68345538"><ele>296.70001221</ele><time>2015-05-25T13:09:37.000Z</time></trkpt>
        <trkpt lat="53.50002849" lon="-1.68345689"><ele>296.22000122</ele><time>2015-05-25T13:09:56.000Z</time></trkpt>
        <trkpt lat="53.50003537" lon="-1.68344826"><ele>294.77999878</ele><time>2015-05-25T13:10:09.000Z</time></trkpt>
        <trkpt lat="53.50003612" lon="-1.68343761"><ele>294.77999878</ele><time>2015-05-25T13:10:20.000Z</time></trkpt>
        </trkseg>
    </trk>
</gpx>
